Provisional Data: Lititz Run near Lititz, PA


Please select a monitoring station.
Please select start date.
Please select start date.

Toggle Unit: C/F Toggle Unit: C/F
Sample Time Temperature (C) Temperature (F) Specific Conductivity (mS/cm) pH   Turbidity (NTU+) DO (mg/L)
5/19/2021 12:00:00 AM 16.95 62.51 1.065 7.98 9.31 7.43
5/19/2021 12:15:00 AM 16.81 62.258 1.07 7.97 8.64 7.43
5/19/2021 12:30:00 AM 16.67 62.006 1.075 7.97 8.73 7.39
5/19/2021 12:45:00 AM 16.54 61.772 1.079 7.96 8.33 7.42
5/19/2021 1:00:00 AM 16.41 61.538 1.082 7.96 8.11 7.42
5/19/2021 1:15:00 AM 16.29 61.322 1.084 7.96 8.41 7.41
5/19/2021 1:30:00 AM 16.18 61.124 1.087 7.95 8.62 7.42
5/19/2021 1:45:00 AM 16.06 60.908 1.088 7.95 9.54 7.43
5/19/2021 2:00:00 AM 15.96 60.728 1.091 7.95 8.78 7.41
5/19/2021 2:15:00 AM 15.86 60.548 1.094 7.95 8.95 7.43
5/19/2021 2:30:00 AM 15.76 60.368 1.098 7.94 8.52 7.42
5/19/2021 2:45:00 AM 15.66 60.188 1.101 7.94 8.4 7.45
5/19/2021 3:00:00 AM 15.57 60.026 1.103 7.94 9.41 7.47
5/19/2021 3:15:00 AM 15.48 59.864 1.104 7.94 8.48 7.46
5/19/2021 3:30:00 AM 15.39 59.702 1.106 7.94 9 7.5
5/19/2021 3:45:00 AM 15.3 59.54 1.106 7.94 9.39 7.52
5/19/2021 4:00:00 AM 15.22 59.396 1.104 7.94 8.65 7.55
5/19/2021 4:15:00 AM 15.13 59.234 1.101 7.94 8.77 7.58
5/19/2021 4:30:00 AM 15.04 59.072 1.096 7.94 8.25 7.6
5/19/2021 4:45:00 AM 14.96 58.928 1.088 7.95 8.49 7.63
5/19/2021 5:00:00 AM 14.87 58.766 1.079 7.95 8.66 7.66
5/19/2021 5:15:00 AM 14.78 58.604 1.069 7.95 9.77 7.68
5/19/2021 5:30:00 AM 14.7 58.46 1.057 7.95 8.63 7.72
5/19/2021 5:45:00 AM 14.61 58.298 1.045 7.95 8.33 7.77
5/19/2021 6:00:00 AM 14.52 58.136 1.033 7.96 8.24 7.81
5/19/2021 6:15:00 AM 14.43 57.974 1.021 7.96 8.13 7.87
5/19/2021 6:30:00 AM 14.35 57.83 1.009 7.97 8.1 7.9
5/19/2021 6:45:00 AM 14.28 57.704 0.998 7.97 7.98 8.02
5/19/2021 7:00:00 AM 14.22 57.596 0.986 7.98 8.1 8.1
5/19/2021 7:15:00 AM 14.16 57.488 0.976 7.98 7.56 8.2
5/19/2021 7:30:00 AM 14.12 57.416 0.942 7.99 7.73 8.32
5/19/2021 7:45:00 AM 14.09 57.362 0.958 8 7.79 8.42
5/19/2021 8:00:00 AM 14.08 57.344 0.949 8.01 7.33 8.54
5/19/2021 8:15:00 AM 14.09 57.362 0.941 8.02 6.87 8.68
5/19/2021 8:30:00 AM 14.12 57.416 0.935 8.03 6.97 8.84
5/19/2021 8:45:00 AM 14.17 57.506 0.928 8.05 6.86 9
5/19/2021 9:00:00 AM 14.23 57.614 0.923 8.06 6.88 9.15
5/19/2021 9:15:00 AM 14.31 57.758 0.92 8.08 7.2 9.31
5/19/2021 9:30:00 AM 14.41 57.938 0.919 8.09 7.29 9.45
5/19/2021 9:45:00 AM 14.53 58.154 0.919 8.1 7.18 9.59
5/19/2021 10:00:00 AM 14.67 58.406 0.922 8.11 7.16 9.73
5/19/2021 10:15:00 AM 14.82 58.676 0.926 8.12 6.95 9.89
5/19/2021 10:30:00 AM 14.98 58.964 0.932 8.13 6.92 10.02
5/19/2021 10:45:00 AM 15.15 59.27 0.934 8.15 6.77 10.18
5/19/2021 11:00:00 AM 15.33 59.594 0.934 8.17 6.44 10.31
5/19/2021 11:15:00 AM 15.52 59.936 0.933 8.18 6.66 10.43
5/19/2021 11:30:00 AM 15.73 60.314 0.932 8.2 6.57 10.55
5/19/2021 11:45:00 AM 15.97 60.746 0.931 8.22 6.41 10.66
5/19/2021 12:00:00 PM 16.24 61.232 0.934 8.24 6.31 10.78
5/19/2021 12:15:00 PM 16.53 61.754 0.94 8.25 6.31 10.88
5/19/2021 12:30:00 PM 16.84 62.312 0.95 8.27 6.52 10.99
5/19/2021 12:45:00 PM 17.16 62.888 0.968 8.28 6.23 11.07
5/19/2021 1:00:00 PM 17.51 63.518 0.99 8.3 6.29 11.13
5/19/2021 1:15:00 PM 17.86 64.148 1.014 8.31 6.71 11.19
5/19/2021 1:30:00 PM 18.22 64.796 1.036 8.32 6.41 11.25
5/19/2021 1:45:00 PM 18.55 65.39 1.053 8.33 6.04 11.25
5/19/2021 2:00:00 PM 18.88 65.984 1.065 8.34 5.91 11.26
5/19/2021 2:15:00 PM 19.17 66.506 1.072 8.34 6.09 11.23
5/19/2021 2:30:00 PM 19.42 66.956 1.075 8.35 6.04 11.17
5/19/2021 2:45:00 PM 19.65 67.37 1.077 8.35 6.09 11.09
5/19/2021 3:00:00 PM 19.85 67.73 1.081 8.35 5.95 10.99
5/19/2021 3:15:00 PM 20.03 68.054 1.089 8.35 5.94 10.88
5/19/2021 3:30:00 PM 20.19 68.342 1.101 8.35 6.22 10.75
5/19/2021 3:45:00 PM 20.33 68.594 1.112 8.34 5.93 10.61
5/19/2021 4:00:00 PM 20.45 68.81 1.123 8.33 5.87 10.45
5/19/2021 4:15:00 PM 20.56 69.008 1.13 8.33 5.88 10.33
5/19/2021 4:30:00 PM 20.66 69.188 1.136 8.32 5.94 10.2
5/19/2021 4:45:00 PM 20.74 69.332 1.139 8.32 5.98 10.06
5/19/2021 5:00:00 PM 20.79 69.422 1.14 8.31 5.77 9.89
5/19/2021 5:15:00 PM 20.81 69.458 1.14 8.3 6.19 9.72
5/19/2021 5:30:00 PM 20.82 69.476 1.137 8.29 6.35 9.59
5/19/2021 5:45:00 PM 20.81 69.458 1.133 8.28 6.16 9.43
5/19/2021 6:00:00 PM 20.79 69.422 1.129 8.27 6.35 9.34
5/19/2021 6:15:00 PM 20.73 69.314 1.124 8.26 5.9 9.17
5/19/2021 6:30:00 PM 20.67 69.206 1.117 8.25 6.32 8.95
5/19/2021 6:45:00 PM 20.61 69.098 1.109 8.24 6.24 8.89
5/19/2021 7:00:00 PM 20.54 68.972 1.099 8.22 5.84 8.76
5/19/2021 7:15:00 PM 20.46 68.828 1.089 8.21 5.84 8.61
5/19/2021 7:30:00 PM 20.37 68.666 1.081 8.19 5.97 8.47
5/19/2021 7:45:00 PM 20.27 68.486 1.074 8.18 5.54 8.33
5/19/2021 8:00:00 PM 20.17 68.306 1.069 8.16 5.65 8.2
5/19/2021 8:15:00 PM 20.07 68.126 1.07 8.15 5.51 8.05
5/19/2021 8:30:00 PM 19.96 67.92799 1.07 8.13 6.4 7.92
5/19/2021 8:45:00 PM 19.84 67.712 1.069 8.11 6.62 7.81
5/19/2021 9:00:00 PM 19.71 67.478 1.07 8.1 7.01 7.72
5/19/2021 9:15:00 PM 19.58 67.244 1.07 8.09 6.93 7.65
5/19/2021 9:30:00 PM 19.44 66.992 1.069 8.07 7.45 7.57
5/19/2021 9:45:00 PM 19.3 66.74 1.072 8.06 7.19 7.51
5/19/2021 10:00:00 PM 19.15 66.47 1.076 8.05 8.45 7.45
5/19/2021 10:15:00 PM 19 66.2 1.08 8.04 7.66 7.42
5/19/2021 10:30:00 PM 18.85 65.93 1.085 8.03 7.66 7.37
5/19/2021 10:45:00 PM 18.71 65.67799 1.089 8.02 7.75 7.34
5/19/2021 11:00:00 PM 18.56 65.408 1.092 8.01 8.41 7.28
5/19/2021 11:15:00 PM 18.41 65.138 1.095 8 7.85 7.25
5/19/2021 11:30:00 PM 18.26 64.868 1.097 7.99 8.38 7.21
5/19/2021 11:45:00 PM 18.12 64.616 1.098 7.98 8.45 7.19
5/20/2021 12:00:00 AM 17.99 64.382 1.099 7.97 8.19 7.16
5/20/2021 12:15:00 AM 17.85 64.13 1.1 7.96 8.58 7.14
5/20/2021 12:30:00 AM 17.72 63.896 1.1 7.96 8.72 7.13
5/20/2021 12:45:00 AM 17.59 63.662 1.101 7.95 8.43 7.08
5/20/2021 1:00:00 AM 17.46 63.428 1.101 7.95 8.34 7.11
5/20/2021 1:15:00 AM 17.33 63.194 1.101 7.94 8.63 7.1
5/20/2021 1:30:00 AM 17.21 62.978 1.102 7.94 8.61 7.09
5/20/2021 1:45:00 AM 17.09 62.762 1.103 7.93 8.84 7.1
5/20/2021 2:00:00 AM 16.97 62.546 1.102 7.93 8.89 7.11
5/20/2021 2:15:00 AM 16.86 62.348 1.103 7.93 9.23 7.12
5/20/2021 2:30:00 AM 16.76 62.168 1.103 7.93 9.37 7.15
5/20/2021 2:45:00 AM 16.65 61.97 1.103 7.93 9.34 7.08
5/20/2021 3:00:00 AM 16.55 61.79 1.103 7.93 9.26 7.19
5/20/2021 3:15:00 AM 16.44 61.592 1.104 7.93 8.51 7.18
5/20/2021 3:30:00 AM 16.35 61.43 1.105 7.93 8.51 7.22
5/20/2021 3:45:00 AM 16.25 61.25 1.105 7.93 8.74 7.21
5/20/2021 4:00:00 AM 16.16 61.088 1.106 7.93 8.87 7.24
5/20/2021 4:15:00 AM 16.07 60.926 1.105 7.93 8.72 7.21
5/20/2021 4:30:00 AM 15.98 60.764 1.104 7.93 8.82 7.3
5/20/2021 4:45:00 AM 15.89 60.602 1.101 7.93 8.67 7.33
5/20/2021 5:00:00 AM 15.81 60.458 1.097 7.93 8.45 7.37
5/20/2021 5:15:00 AM 15.72 60.296 1.093 7.93 8.59 7.4
5/20/2021 5:30:00 AM 15.64 60.152 1.086 7.94 8.27 7.41
5/20/2021 5:45:00 AM 15.55 59.99 1.08 7.94 8.67 7.38
5/20/2021 6:00:00 AM 15.47 59.846 1.071 7.94 8.83 7.34
5/20/2021 6:15:00 AM 15.39 59.702 1.062 7.94 8.6 7.54
5/20/2021 6:30:00 AM 15.3 59.54 1.051 7.95 8.32 7.53
5/20/2021 6:45:00 AM 15.23 59.414 1.04 7.95 7.76 7.71
5/20/2021 7:00:00 AM 15.16 59.288 1.028 7.96 7.8 7.81
5/20/2021 7:15:00 AM 15.11 59.198 1.018 7.97 7.75 7.93
5/20/2021 7:30:00 AM 15.07 59.126 1.007 7.98 7.14 8.04
5/20/2021 7:45:00 AM 15.03 59.054 0.998 7.98 7.14 8.14
5/20/2021 8:00:00 AM 15 59 0.989 7.99 7.57 8.24
5/20/2021 8:15:00 AM 15.01 59.018 0.98 8.01 7.29 8.44
5/20/2021 8:30:00 AM 15.03 59.054 0.973 8.02 6.97 8.6
5/20/2021 8:45:00 AM 15.06 59.108 0.966 8.03 7.3 8.77
5/20/2021 9:00:00 AM 15.11 59.198 0.96 8.04 7.37 8.93
5/20/2021 9:15:00 AM 15.18 59.324 0.957 8.06 6.97 9.09
5/20/2021 9:30:00 AM 15.27 59.486 0.955 8.07 6.92 9.27
5/20/2021 9:45:00 AM 15.36 59.648 0.956 8.09 6.93 9.44
5/20/2021 10:00:00 AM 15.46 59.828 0.957 8.11 7.42 9.6
5/20/2021 10:15:00 AM 15.59 60.062 0.961 8.12 7.47 9.79
5/20/2021 10:30:00 AM 15.73 60.314 0.966 8.14 7.07 9.96
5/20/2021 10:45:00 AM 15.88 60.584 0.971 8.15 6.86 10.11
5/20/2021 11:00:00 AM 16.05 60.89 0.975 8.17 7.34 10.26
5/20/2021 11:15:00 AM 16.24 61.232 0.975 8.19 7.24 10.4
5/20/2021 11:30:00 AM 16.44 61.592 0.975 8.2 7.31 10.54
5/20/2021 11:45:00 AM 16.65 61.97 0.977 8.22 6.9 10.66
5/20/2021 12:00:00 PM 16.89 62.402 0.974 8.24 5.64 10.81
5/20/2021 12:15:00 PM 17.15 62.87 0.978 8.26 5.44 10.94
5/20/2021 12:30:00 PM 17.36 63.248 0.986 8.27 5.45 10.94
5/20/2021 12:45:00 PM 17.67 63.806 1.001 8.29 5.58 11.07
5/20/2021 1:00:00 PM 17.97 64.346 1.022 8.31 5.61 11.16
5/20/2021 1:15:00 PM 18.27 64.886 1.045 8.32 5.75 11.24
5/20/2021 1:30:00 PM 18.57 65.426 1.068 8.33 5.59 11.29
5/20/2021 1:45:00 PM 18.93 66.074 1.087 8.34 5.63 11.33
5/20/2021 2:00:00 PM 19.23 66.614 1.103 8.35 5.89 11.36
5/20/2021 2:15:00 PM 19.49 67.082 1.118 8.36 5.75 11.31
5/20/2021 2:30:00 PM 19.75 67.55 1.133 8.37 5.96 11.26
5/20/2021 2:45:00 PM 19.98 67.964 1.147 8.37 5.74 11.18
5/20/2021 3:00:00 PM 20.2 68.36 1.159 8.37 5.89 11.06
5/20/2021 3:15:00 PM 20.37 68.666 1.166 8.37 5.99 10.92
5/20/2021 3:30:00 PM 20.53 68.954 1.17 8.36 6.14 10.79
5/20/2021 3:45:00 PM 20.66 69.188 1.173 8.36 6.57 10.66
5/20/2021 4:00:00 PM 20.78 69.404 1.173 8.35 6.46 10.52
5/20/2021 4:15:00 PM 20.88 69.584 1.173 8.35 6.58 10.37
5/20/2021 4:30:00 PM 20.96 69.728 1.172 8.34 5.9 10.23
5/20/2021 4:45:00 PM 21.02 69.836 1.171 8.34 5.56 10.1
5/20/2021 5:00:00 PM 21.05 69.89 1.17 8.33 5.92 9.93
5/20/2021 5:15:00 PM 21.06 69.908 1.168 8.32 5.91 9.75
5/20/2021 5:30:00 PM 21.04 69.872 1.164 8.31 5.66 9.6
5/20/2021 5:45:00 PM 21 69.8 1.155 8.3 5.51 9.43
5/20/2021 6:00:00 PM 20.94 69.692 1.142 8.29 5.92 9.27
5/20/2021 6:15:00 PM 20.87 69.566 1.129 8.28 5.71 9.1
5/20/2021 6:30:00 PM 20.79 69.422 1.117 8.26 5.59 8.95
5/20/2021 6:45:00 PM 20.69 69.242 1.108 8.25 6.15 8.77
5/20/2021 7:00:00 PM 20.6 69.08 1.101 8.23 5.62 8.63
5/20/2021 7:15:00 PM 20.49 68.882 1.097 8.22 5.8 8.49
5/20/2021 7:30:00 PM 20.37 68.666 1.094 8.2 5.57 8.34
5/20/2021 7:45:00 PM 20.27 68.486 1.093 8.19 5.54 8.21
5/20/2021 8:00:00 PM 20.16 68.288 1.092 8.17 5.65 8.09
5/20/2021 8:15:00 PM 20.06 68.108 1.091 8.15 5.7 7.97
5/20/2021 8:30:00 PM 19.94 67.892 1.09 8.14 5.72 7.86
5/20/2021 8:45:00 PM 19.82 67.676 1.089 8.12 6.28 7.77
5/20/2021 9:00:00 PM 19.71 67.478 1.089 8.11 6.72 7.67
5/20/2021 9:15:00 PM 19.58 67.244 1.089 8.1 6.99 7.6
5/20/2021 9:30:00 PM 19.44 66.992 1.088 8.08 7.11 7.54
5/20/2021 9:45:00 PM 19.3 66.74 1.089 8.07 7.47 7.49
5/20/2021 10:00:00 PM 19.16 66.488 1.09 8.06 7.65 7.45
5/20/2021 10:15:00 PM 19.01 66.218 1.091 8.05 7.93 7.41
5/20/2021 10:30:00 PM 18.85 65.93 1.092 8.04 7.74 7.36
5/20/2021 10:45:00 PM 18.69 65.642 1.095 8.03 7.62 7.33
5/20/2021 11:00:00 PM 18.51 65.318 1.098 8.02 7.69 7.32
5/20/2021 11:15:00 PM 18.34 65.012 1.102 8.01 8.12 7.27
5/20/2021 11:30:00 PM 18.17 64.706 1.107 8 8.49 7.24
5/20/2021 11:45:00 PM 18 64.4 1.112 7.99 8.7 7.22
5/21/2021 12:00:00 AM 17.83 64.094 1.117 7.99 8.83 7.2
5/21/2021 12:15:00 AM 17.67 63.806 1.12 7.98 8.92 7.18
5/21/2021 12:30:00 AM 17.51 63.518 1.123 7.97 9.56 7.18
5/21/2021 12:45:00 AM 17.36 63.248 1.126 7.97 19.26 7.18
5/21/2021 1:00:00 AM 17.21 62.978 1.129 7.96 10.33 7.18
5/21/2021 1:15:00 AM 17.06 62.708 1.132 7.96 9.97 7.19
5/21/2021 1:30:00 AM 16.92 62.456 1.136 7.96 10.12 7.2
5/21/2021 1:45:00 AM 16.78 62.204 1.141 7.96 10.32 7.22
5/21/2021 2:00:00 AM 16.65 61.97 1.145 7.95 9.33 7.23
5/21/2021 2:15:00 AM 16.51 61.718 1.148 7.95 9.91 7.25
5/21/2021 2:30:00 AM 16.39 61.502 1.151 7.95 9.69 7.27
5/21/2021 2:45:00 AM 16.26 61.268 1.153 7.95 9.38 7.29
5/21/2021 3:00:00 AM 16.14 61.052 1.154 7.95 9.98 7.32
5/21/2021 3:15:00 AM 16.03 60.854 1.155 7.95 9.79 7.34
5/21/2021 3:30:00 AM 15.91 60.638 1.155 7.95 9.92 7.38
5/21/2021 3:45:00 AM 15.8 60.44 1.154 7.95 9.54 7.4
5/21/2021 4:00:00 AM 15.69 60.242 1.152 7.96 9.89 7.42
5/21/2021 4:15:00 AM 15.59 60.062 1.149 7.96 10.94 7.45
5/21/2021 4:30:00 AM 15.49 59.882 1.145 7.96 10.45 7.48
5/21/2021 4:45:00 AM 15.39 59.702 1.141 7.96 10.75 7.51
5/21/2021 5:00:00 AM 15.29 59.522 1.136 7.96 11.79 7.55
5/21/2021 5:15:00 AM 15.19 59.342 1.13 7.96 11.7 7.58
5/21/2021 5:30:00 AM 15.09 59.162 1.124 7.96 11.63 7.61
5/21/2021 5:45:00 AM 15 59 1.117 7.97 11.55 7.64
5/21/2021 6:00:00 AM 14.91 58.838 1.108 7.97 10.26 7.68
5/21/2021 6:15:00 AM 14.82 58.676 1.098 7.97 9.79 7.74
5/21/2021 6:30:00 AM 14.74 58.532 1.088 7.97 10.13 7.82
5/21/2021 6:45:00 AM 14.65 58.37 1.076 7.98 9.58 7.89
5/21/2021 7:00:00 AM 14.59 58.262 1.064 7.99 9.92 7.99
5/21/2021 7:15:00 AM 14.52 58.136 1.052 7.99 8.89 8.09
5/21/2021 7:30:00 AM 14.47 58.046 1.039 8 9.11 8.2
5/21/2021 7:45:00 AM 14.43 57.974 1.027 8.01 9.31 8.32
5/21/2021 8:00:00 AM 14.4 57.92 1.016 8.02 8.21 8.45
5/21/2021 8:15:00 AM 14.4 57.92 1.006 8.03 8.57 8.6
5/21/2021 8:30:00 AM 14.42 57.956 0.999 8.05 8.87 8.76
5/21/2021 8:45:00 AM 14.46 58.028 0.993 8.06 8.39 8.93
5/21/2021 9:00:00 AM 14.5 58.1 0.988 8.08 7.52 9.09
5/21/2021 9:15:00 AM 14.57 58.226 0.984 8.09 7.44 9.25
5/21/2021 9:30:00 AM 14.64 58.352 0.98 8.1 8.28 9.4
5/21/2021 9:45:00 AM 14.74 58.532 0.98 8.12 8.04 9.56
5/21/2021 10:00:00 AM 14.85 58.73 0.981 8.13 8.22 9.71
5/21/2021 10:15:00 AM 14.97 58.946 0.982 8.14 8.51 9.87
5/21/2021 10:30:00 AM 15.1 59.18 0.982 8.16 8.32 10.02
5/21/2021 10:45:00 AM 15.24 59.432 0.983 8.17 8.12 10.16
5/21/2021 11:00:00 AM 15.4 59.72 0.984 8.18 7.59 10.29
5/21/2021 11:15:00 AM 15.56 60.008 0.983 8.2 7.65 10.41
5/21/2021 11:30:00 AM 15.74 60.332 0.981 8.21 7.63 10.54
5/21/2021 11:45:00 AM 15.94 60.692 0.978 8.23 8.06 10.69
5/21/2021 12:00:00 PM 16.16 61.088 0.975 8.25 8.15 10.82
5/21/2021 12:15:00 PM 16.42 61.556 0.974 8.27 8.27 10.96
5/21/2021 12:30:00 PM 16.69 62.042 0.978 8.29 7.84 11.08
5/21/2021 12:45:00 PM 16.97 62.546 0.986 8.31 8.05 11.17
5/21/2021 1:00:00 PM 17.28 63.104 1 8.32 9.34 11.25
5/21/2021 1:15:00 PM 17.6 63.68 1.018 8.34 9.79 11.32
5/21/2021 1:30:00 PM 17.93 64.274 1.04 8.35 8.13 11.38
5/21/2021 1:45:00 PM 18.25 64.85 1.061 8.36 7.63 11.4
5/21/2021 2:00:00 PM 18.56 65.408 1.078 8.37 7.83 11.39
5/21/2021 2:15:00 PM 18.84 65.912 1.091 8.37 7.43 11.38
5/21/2021 2:30:00 PM 19.1 66.38 1.099 8.38 7.82 11.31
5/21/2021 2:45:00 PM 19.34 66.812 1.103 8.39 7.77 11.24
5/21/2021 3:00:00 PM 19.55 67.19 1.106 8.39 7.73 11.12
5/21/2021 3:15:00 PM 19.74 67.532 1.108 8.39 7.49 11.01
5/21/2021 3:30:00 PM 19.9 67.82 1.11 8.38 7.32 10.89
5/21/2021 3:45:00 PM 20.05 68.09 1.112 8.38 7.54 10.75
5/21/2021 4:00:00 PM 20.18 68.324 1.113 8.38 7.14 10.63
5/21/2021 4:15:00 PM 20.29 68.522 1.115 8.37 7.23 10.49
5/21/2021 4:30:00 PM 20.4 68.72 1.115 8.37 7.47 10.35
5/21/2021 4:45:00 PM 20.49 68.882 1.116 8.36 7.32 10.21
5/21/2021 5:00:00 PM 20.56 69.008 1.118 8.35 7.08 10.06
5/21/2021 5:15:00 PM 20.61 69.098 1.119 8.34 7.04 9.91
5/21/2021 5:30:00 PM 20.64 69.152 1.12 8.33 7.1 9.75
5/21/2021 5:45:00 PM 20.65 69.17 1.12 8.32 6.98 9.59
5/21/2021 6:00:00 PM 20.65 69.17 1.119 8.31 6.95 9.44
5/21/2021 6:15:00 PM 20.62 69.116 1.118 8.3 7.79 9.28
5/21/2021 6:30:00 PM 20.58 69.044 1.117 8.28 7.23 9.12
5/21/2021 6:45:00 PM 20.54 68.972 1.117 8.27 7.07 8.99
5/21/2021 7:00:00 PM 20.49 68.882 1.116 8.26 7.17 8.83
5/21/2021 7:15:00 PM 20.42 68.756 1.116 8.24 6.91 8.68
5/21/2021 7:30:00 PM 20.35 68.63 1.117 8.22 6.87 8.53
5/21/2021 7:45:00 PM 20.27 68.486 1.118 8.2 7.03 8.37
5/21/2021 8:00:00 PM 20.19 68.342 1.118 8.18 7.27 8.22
5/21/2021 8:15:00 PM 20.1 68.18 1.118 8.16 7.18 8.08
5/21/2021 8:30:00 PM 20.01 68.018 1.118 8.15 7.17 7.95
5/21/2021 8:45:00 PM 19.91 67.838 1.117 8.13 7.7 7.84
5/21/2021 9:00:00 PM 19.8 67.64 1.116 8.12 7.89 7.74
5/21/2021 9:15:00 PM 19.69 67.442 1.115 8.1 9.41 7.66
5/21/2021 9:30:00 PM 19.57 67.226 1.115 8.09 8.82 7.6
5/21/2021 9:45:00 PM 19.45 67.01 1.115 8.08 7.91 7.54
5/21/2021 10:00:00 PM 19.33 66.794 1.116 8.07 8.09 7.47
5/21/2021 10:15:00 PM 19.2 66.56 1.117 8.06 7.59 7.41
5/21/2021 10:30:00 PM 19.07 66.326 1.118 8.05 7.72 7.36
5/21/2021 10:45:00 PM 18.95 66.11 1.119 8.04 8.09 7.33
5/21/2021 11:00:00 PM 18.82 65.876 1.121 8.03 7.72 7.28
5/21/2021 11:15:00 PM 18.69 65.642 1.123 8.02 8.43 7.24
5/21/2021 11:30:00 PM 18.55 65.39 1.126 8.01 8.14 7.21
5/21/2021 11:45:00 PM 18.43 65.174 1.128 8 8.44 7.16
5/22/2021 12:00:00 AM 18.29 64.922 1.13 7.99 8.64 7.14
5/22/2021 12:15:00 AM 18.16 64.688 1.133 7.99 8.77 7.11
5/22/2021 12:30:00 AM 18.03 64.454 1.135 7.98 9.18 7.09
5/22/2021 12:45:00 AM 17.9 64.22 1.136 7.97 9.03 7.08
5/22/2021 1:00:00 AM 17.77 63.986 1.137 7.97 9.26 7.07
5/22/2021 1:15:00 AM 17.65 63.77 1.137 7.96 9.48 7.07
5/22/2021 1:30:00 AM 17.53 63.554 1.136 7.96 9.51 7.08
5/22/2021 1:45:00 AM 17.41 63.338 1.135 7.96 9.4 7.08
5/22/2021 2:00:00 AM 17.3 63.14 1.133 7.96 9.63 7.09
5/22/2021 2:15:00 AM 17.19 62.942 1.132 7.95 10.65 7.11
5/22/2021 2:30:00 AM 17.09 62.762 1.131 7.95 10.05 7.1
5/22/2021 2:45:00 AM 16.98 62.564 1.131 7.95 10.28 7.12
5/22/2021 3:00:00 AM 16.88 62.384 1.13 7.95 10.39 7.14
5/22/2021 3:15:00 AM 16.78 62.204 1.13 7.95 10.24 7.16
5/22/2021 3:30:00 AM 16.69 62.042 1.13 7.95 9.68 7.17
5/22/2021 3:45:00 AM 16.6 61.88 1.13 7.95 9.86 7.19
5/22/2021 4:00:00 AM 16.51 61.718 1.13 7.95 10.01 7.21
5/22/2021 4:15:00 AM 16.42 61.556 1.13 7.95 10.28 7.24
5/22/2021 4:30:00 AM 16.34 61.412 1.129 7.95 10.85 7.25
5/22/2021 4:45:00 AM 16.27 61.286 1.128 7.95 11.48 7.27
5/22/2021 5:00:00 AM 16.19 61.142 1.126 7.95 11.22 7.29
5/22/2021 5:15:00 AM 16.11 60.998 1.123 7.95 11.3 7.31
5/22/2021 5:30:00 AM 16.03 60.854 1.12 7.95 11.09 7.31
5/22/2021 5:45:00 AM 15.95 60.71 1.115 7.95 10.48 7.35
5/22/2021 6:00:00 AM 15.88 60.584 1.11 7.95 10.26 7.36
5/22/2021 6:15:00 AM 15.81 60.458 1.105 7.95 11.04 7.42
5/22/2021 6:30:00 AM 15.74 60.332 1.099 7.96 10.61 7.5
5/22/2021 6:45:00 AM 15.69 60.242 1.091 7.96 10.94 7.56
5/22/2021 7:00:00 AM 15.64 60.152 1.082 7.97 10.49 7.66
5/22/2021 7:15:00 AM 15.59 60.062 1.072 7.98 9.72 7.75
5/22/2021 7:30:00 AM 15.56 60.008 1.061 7.99 9.58 7.9
5/22/2021 7:45:00 AM 15.54 59.972 1.05 8 9.38 8.05
5/22/2021 8:00:00 AM 15.52 59.936 1.038 8.01 9.45 8.18
5/22/2021 8:15:00 AM 15.53 59.954 1.028 8.02 9.22 8.36
5/22/2021 8:30:00 AM 15.57 60.026 1.017 8.04 9.33 8.63
5/22/2021 8:45:00 AM 15.61 60.098 1.008 8.06 9.52 8.84
5/22/2021 9:00:00 AM 15.66 60.188 1 8.08 9.28 9.05
5/22/2021 9:15:00 AM 15.72 60.296 0.993 8.09 9.03 9.19
5/22/2021 9:30:00 AM 15.78 60.404 0.988 8.11 8.96 9.3
5/22/2021 9:45:00 AM 15.87 60.566 0.985 8.13 8.78 9.52
5/22/2021 10:00:00 AM 15.96 60.728 0.985 8.14 8.96 9.69
5/22/2021 10:15:00 AM 16.06 60.908 0.987 8.16 9.33 9.84
5/22/2021 10:30:00 AM 16.18 61.124 0.989 8.17 8.7 9.99
5/22/2021 10:45:00 AM 16.29 61.322 0.992 8.19 8.87 10.11
5/22/2021 11:00:00 AM 16.44 61.592 0.995 8.2 9.2 10.23
5/22/2021 11:15:00 AM 16.6 61.88 0.996 8.21 9.22 10.38
5/22/2021 11:30:00 AM 16.7 62.06 0.996 8.23 8.88 10.47
5/22/2021 11:45:00 AM 16.86 62.348 0.995 8.24 8.65 10.6
5/22/2021 12:00:00 PM 17.02 62.636 0.993 8.26 8.55 10.67
5/22/2021 12:15:00 PM 17.21 62.978 0.991 8.28 8.44 10.82
5/22/2021 12:30:00 PM 17.43 63.374 0.99 8.3 8.32 10.99
5/22/2021 12:45:00 PM 17.67 63.806 0.989 8.32 8.46 11.12
5/22/2021 1:00:00 PM 17.97 64.346 0.989 8.34 8.47 11.22
5/22/2021 1:15:00 PM 18.27 64.886 0.991 8.36 8.81 11.28
5/22/2021 1:30:00 PM 18.53 65.354 0.995 8.37 8.83 11.3
5/22/2021 1:45:00 PM 18.75 65.75 1.003 8.38 8.61 11.28
5/22/2021 2:00:00 PM 18.91 66.038 1.016 8.38 8.89 11.15
5/22/2021 2:15:00 PM 19.05 66.29 1.031 8.38 9.13 11
5/22/2021 2:30:00 PM 19.18 66.524 1.048 8.37 10.05 10.87
5/22/2021 2:45:00 PM 19.29 66.722 1.065 8.37 9.75 10.81
5/22/2021 3:00:00 PM 19.41 66.938 1.081 8.37 9.92 10.76
5/22/2021 3:15:00 PM 19.56 67.208 1.095 8.38 9.63 10.71
5/22/2021 3:30:00 PM 19.69 67.442 1.109 8.37 9.41 10.58
5/22/2021 3:45:00 PM 19.8 67.64 1.121 8.36 9.82 10.4
5/22/2021 4:00:00 PM 19.93 67.874 1.133 8.36 8.96 10.35
5/22/2021 4:15:00 PM 20.02 68.036 1.142 8.35 9 10.2
5/22/2021 4:30:00 PM 20.08 68.144 1.15 8.35 8.93 10.01
5/22/2021 4:45:00 PM 20.15 68.27 1.157 8.34 8.9 10
5/22/2021 5:00:00 PM 20.18 68.324 1.161 8.33 8.52 9.85
5/22/2021 5:15:00 PM 20.21 68.378 1.162 8.32 9 9.68
5/22/2021 5:30:00 PM 20.25 68.45 1.158 8.32 8.52 9.58
5/22/2021 5:45:00 PM 20.28 68.504 1.151 8.3 8.74 9.4
5/22/2021 6:00:00 PM 20.29 68.522 1.142 8.29 8.89 9.24
5/22/2021 6:15:00 PM 20.29 68.522 1.134 8.28 8.83 9.13
5/22/2021 6:30:00 PM 20.27 68.486 1.129 8.27 8.79 9.02
5/22/2021 6:45:00 PM 20.22 68.396 1.125 8.25 8.58 8.9
5/22/2021 7:00:00 PM 20.15 68.27 1.122 8.24 8.62 8.75
5/22/2021 7:15:00 PM 20.09 68.162 1.122 8.22 8.33 8.6
5/22/2021 7:30:00 PM 20.02 68.036 1.123 8.21 8.52 8.46
5/22/2021 7:45:00 PM 19.95 67.91 1.125 8.19 8.25 8.31
5/22/2021 8:00:00 PM 19.88 67.784 1.128 8.17 8.49 8.14
5/22/2021 8:15:00 PM 19.79 67.622 1.131 8.15 8.5 8
5/22/2021 8:30:00 PM 19.71 67.478 1.134 8.13 8.78 7.87
5/22/2021 8:45:00 PM 19.62 67.316 1.136 8.12 9.22 7.75
5/22/2021 9:00:00 PM 19.54 67.172 1.137 8.1 9.63 7.64
5/22/2021 9:15:00 PM 19.46 67.028 1.137 8.09 10.11 7.53
5/22/2021 9:30:00 PM 19.36 66.848 1.135 8.08 10.42 7.49
5/22/2021 9:45:00 PM 19.28 66.704 1.132 8.06 9.95 7.44
5/22/2021 10:00:00 PM 19.19 66.542 1.129 8.05 10.13 7.37
5/22/2021 10:15:00 PM 19.1 66.38 1.126 8.04 9.96 7.32
5/22/2021 10:30:00 PM 19 66.2 1.125 8.04 10.04 7.28
5/22/2021 10:45:00 PM 18.9 66.02 1.043 8.03 9.72 7.26
5/22/2021 11:00:00 PM 18.81 65.858 1.128 8.02 9.75 7.21
5/22/2021 11:15:00 PM 18.71 65.67799 1.133 8.01 9.97 7.16
5/22/2021 11:30:00 PM 18.61 65.498 1.138 8 10.59 7.11
5/22/2021 11:45:00 PM 18.51 65.318 1.144 7.99 9.74 7.06
5/23/2021 12:00:00 AM 18.41 65.138 1.15 7.99 9.3 7.05
5/23/2021 12:15:00 AM 18.32 64.976 1.155 7.98 9.6 7
5/23/2021 12:30:00 AM 18.22 64.796 1.158 7.97 9.77 6.95
5/23/2021 12:45:00 AM 18.13 64.634 1.159 7.97 9.81 6.96
5/23/2021 1:00:00 AM 18.04 64.472 1.159 7.96 9.53 6.94
5/23/2021 1:15:00 AM 17.96 64.328 1.159 7.96 9.48 6.93
5/23/2021 1:30:00 AM 17.88 64.184 1.16 7.95 9.71 6.93
5/23/2021 1:45:00 AM 17.8 64.04 1.161 7.95 9.42 6.92
5/23/2021 2:00:00 AM 17.73 63.914 1.162 7.94 9.64 6.93
5/23/2021 2:15:00 AM 17.66 63.788 1.162 7.94 9.61 6.92
5/23/2021 2:30:00 AM 17.6 63.68 1.162 7.94 9.64 6.9
5/23/2021 2:45:00 AM 17.53 63.554 1.161 7.94 9.41 6.93
5/23/2021 3:00:00 AM 17.47 63.446 1.159 7.94 9.3 6.93
5/23/2021 3:15:00 AM 17.41 63.338 1.157 7.93 9.57 6.96
5/23/2021 3:30:00 AM 17.35 63.23 1.155 7.93 9.89 6.96
5/23/2021 3:45:00 AM 17.29 63.122 1.154 7.93 9.72 6.96
5/23/2021 4:00:00 AM 17.23 63.014 1.153 7.93 9.43 6.99
5/23/2021 4:15:00 AM 17.17 62.906 1.151 7.93 9.76 6.99
5/23/2021 4:30:00 AM 17.12 62.816 1.149 7.93 10.04 7.01
5/23/2021 4:45:00 AM 17.06 62.708 1.147 7.93 10.13 7.01
5/23/2021 5:00:00 AM 17.01 62.618 1.144 7.93 10.18 7.02
5/23/2021 5:15:00 AM 16.95 62.51 1.14 7.93 10.33 7.05
5/23/2021 5:30:00 AM 16.9 62.42 1.136 7.93 9.81 7.07
5/23/2021 5:45:00 AM 16.85 62.33 1.133 7.93 9.8 7.09
5/23/2021 6:00:00 AM 16.8 62.24 1.128 7.93 9.59 7.12
5/23/2021 6:15:00 AM 16.75 62.15 1.122 7.93 9.26 7.15
5/23/2021 6:30:00 AM 16.7 62.06 1.114 7.94 9.39 7.2
5/23/2021 6:45:00 AM 16.65 61.97 1.104 7.94 9.23 7.25
5/23/2021 7:00:00 AM 16.61 61.898 1.094 7.95 9.01 7.34
5/23/2021 7:15:00 AM 16.56 61.808 1.084 7.95 9.22 7.43
5/23/2021 7:30:00 AM 16.53 61.754 1.074 7.96 8.86 7.51
5/23/2021 7:45:00 AM 16.5 61.7 1.065 7.97 9.17 7.61
5/23/2021 8:00:00 AM 16.5 61.7 1.055 7.98 8.58 7.73
5/23/2021 8:15:00 AM 16.5 61.7 1.046 7.99 8.7 7.83
5/23/2021 8:30:00 AM 16.53 61.754 1.038 8 8.47 8.02
5/23/2021 8:45:00 AM 16.58 61.844 1.031 8.02 8.63 8.2
5/23/2021 9:00:00 AM 16.63 61.934 1.025 8.04 8.28 8.37
5/23/2021 9:15:00 AM 16.69 62.042 1.02 8.05 9.78 8.53
5/23/2021 9:30:00 AM 16.77 62.186 1.016 8.07 8.79 8.71
5/23/2021 9:45:00 AM 16.86 62.348 1.013 8.08 8.59 8.87
5/23/2021 10:00:00 AM 16.98 62.564 1.012 8.1 9.12 9.02
5/23/2021 10:15:00 AM 17.1 62.78 1.012 8.12 8.94 9.21
5/23/2021 10:30:00 AM 17.25 63.05 1.012 8.13 9.17 9.35
5/23/2021 10:45:00 AM 17.4 63.32 1.011 8.15 9.3 9.5
5/23/2021 11:00:00 AM 17.55 63.59 1.009 8.16 8.68 9.63
5/23/2021 11:15:00 AM 17.72 63.896 1.008 8.18 8.83 9.74
5/23/2021 11:30:00 AM 17.89 64.202 1.006 8.19 8.6 9.89
5/23/2021 11:45:00 AM 18.06 64.508 1.003 8.21 9.22 10
5/23/2021 12:00:00 PM 18.25 64.85 0.999 8.22 10.2 10.12
5/23/2021 12:15:00 PM 18.47 65.246 0.995 8.24 9.97 10.28
5/23/2021 12:30:00 PM 18.68 65.624 0.989 8.26 9.74 10.36
5/23/2021 12:45:00 PM 18.88 65.984 0.984 8.28 9.7 10.43
5/23/2021 1:00:00 PM 19.11 66.398 0.98 8.29 11.26 10.48
5/23/2021 1:15:00 PM 19.36 66.848 0.98 8.31 11.64 10.56
5/23/2021 1:30:00 PM 19.65 67.37 0.983 8.33 12.74 10.74
5/23/2021 1:45:00 PM 19.91 67.838 0.991 8.35 9.58 10.82
5/23/2021 2:00:00 PM 20.12 68.216 1.004 8.35 9.19 10.74
5/23/2021 2:15:00 PM 20.36 68.648 1.022 8.36 9.17 10.71
5/23/2021 2:30:00 PM 20.52 68.936 1.044 8.36 9.19 10.54
5/23/2021 2:45:00 PM 20.76 69.368 1.067 8.36 9.09 10.54
5/23/2021 3:00:00 PM 20.95 69.71 1.09 8.36 9.26 10.48
5/23/2021 3:15:00 PM 21.18 70.124 1.111 8.37 9.06 10.46
5/23/2021 3:30:00 PM 21.33 70.394 1.129 8.36 9.17 10.27
5/23/2021 3:45:00 PM 21.49 70.682 1.144 8.36 9.05 10.16
5/23/2021 4:00:00 PM 21.6 70.88 1.154 8.35 8.71 9.96
5/23/2021 4:15:00 PM 21.74 71.132 1.162 8.34 8.18 9.85
5/23/2021 4:30:00 PM 21.79 71.222 1.167 8.34 8.33 9.72
5/23/2021 4:45:00 PM 21.85 71.33 1.171 8.33 8.65 9.56
5/23/2021 5:00:00 PM 21.9 71.42 1.174 8.32 9.01 9.44
5/23/2021 5:15:00 PM 21.94 71.492 1.176 8.31 9.17 9.29
5/23/2021 5:30:00 PM 21.98 71.564 1.177 8.3 9.16 9.16
5/23/2021 5:45:00 PM 22.01 71.618 1.178 8.29 8.58 9.01
5/23/2021 6:00:00 PM 22.02 71.636 1.179 8.28 8.78 8.85
5/23/2021 6:15:00 PM 22 71.6 1.179 8.27 8.5 8.72
5/23/2021 6:30:00 PM 21.96 71.528 1.179 8.26 8.81 8.55
5/23/2021 6:45:00 PM 21.89 71.402 1.178 8.24 8.92 8.39
5/23/2021 7:00:00 PM 21.82 71.276 1.178 8.22 8.54 8.24
5/23/2021 7:15:00 PM 21.74 71.132 1.177 8.21 8.58 8.11
5/23/2021 7:30:00 PM 21.66 70.988 1.178 8.19 8.71 7.98
5/23/2021 7:45:00 PM 21.58 70.844 1.178 8.17 9.06 7.83
5/23/2021 8:00:00 PM 21.49 70.682 1.178 8.16 8.9 7.67
5/23/2021 8:15:00 PM 21.41 70.538 1.179 8.14 8.92 7.56
5/23/2021 8:30:00 PM 21.33 70.394 1.178 8.12 9.09 7.42
5/23/2021 8:45:00 PM 21.25 70.25 1.175 8.11 9.68 7.3
5/23/2021 9:00:00 PM 21.17 70.106 1.173 8.1 10.24 7.19
5/23/2021 9:15:00 PM 21.08 69.944 1.171 8.08 11.01 7.1
5/23/2021 9:30:00 PM 20.99 69.782 1.169 8.07 11.21 7.05
5/23/2021 9:45:00 PM 20.89 69.602 1.167 8.06 11.07 6.98
5/23/2021 10:00:00 PM 20.78 69.404 1.166 8.05 11.61 6.93
5/23/2021 10:15:00 PM 20.67 69.206 1.165 8.04 11.45 6.88
5/23/2021 10:30:00 PM 20.54 68.972 1.163 8.03 11.09 6.85
5/23/2021 10:45:00 PM 20.42 68.756 1.161 8.02 10.42 6.81
5/23/2021 11:00:00 PM 20.29 68.522 1.16 8.01 11.48 6.77
5/23/2021 11:15:00 PM 20.17 68.306 1.16 8 11.42 6.72
5/23/2021 11:30:00 PM 20.04 68.07201 1.161 7.99 11.6 6.7
5/23/2021 11:45:00 PM 19.92 67.856 1.162 7.98 11.78 6.67
5/24/2021 12:00:00 AM 19.79 67.622 1.165 7.97 11.31 6.66
5/24/2021 12:15:00 AM 19.67 67.406 1.168 7.97 11.44 6.62
5/24/2021 12:30:00 AM 19.55 67.19 1.173 7.96 11.85 6.58
5/24/2021 12:45:00 AM 19.44 66.992 1.177 7.96 12.13 6.56
5/24/2021 1:00:00 AM 19.33 66.794 1.181 7.95 10.63 6.58
5/24/2021 1:15:00 AM 19.22 66.596 1.184 7.95 11.2 6.54
5/24/2021 1:30:00 AM 19.12 66.416 1.186 7.95 12.14 6.53
5/24/2021 1:45:00 AM 19.02 66.236 1.188 7.94 13.66 6.54
5/24/2021 2:00:00 AM 18.92 66.056 1.19 7.94 16.48 6.54
5/24/2021 2:15:00 AM 18.82 65.876 1.192 7.94 11.64 6.55
5/24/2021 2:30:00 AM 18.72 65.696 1.192 7.94 12.98 6.56
5/24/2021 2:45:00 AM 18.63 65.534 1.193 7.93 12.74 6.56
5/24/2021 3:00:00 AM 18.54 65.372 1.192 7.93 12.24 6.58
5/24/2021 3:15:00 AM 18.45 65.21 1.193 7.93 12.73 6.58
5/24/2021 3:30:00 AM 18.37 65.066 1.192 7.93 13.2 6.59
5/24/2021 3:45:00 AM 18.29 64.922 1.193 7.93 12.99 6.64
5/24/2021 4:00:00 AM 18.21 64.778 1.192 7.93 12.51 6.63
5/24/2021 4:15:00 AM 18.14 64.652 1.191 7.93 14.21 6.64
5/24/2021 4:30:00 AM 18.07 64.526 1.189 7.93 13.87 6.66
5/24/2021 4:45:00 AM 18 64.4 1.186 7.93 14.42 6.68
5/24/2021 5:00:00 AM 17.92 64.256 1.181 7.93 13.73 6.7
5/24/2021 5:15:00 AM 17.84 64.112 1.174 7.93 13.61 6.71
5/24/2021 5:30:00 AM 17.77 63.986 1.166 7.93 14.73 6.74
5/24/2021 5:45:00 AM 17.69 63.842 1.158 7.93 14.27 6.76
5/24/2021 6:00:00 AM 17.6 63.68 1.149 7.94 14.2 6.83
5/24/2021 6:15:00 AM 17.53 63.554 1.139 7.94 13.86 6.88
5/24/2021 6:30:00 AM 17.45 63.41 1.128 7.95 14.93 6.95
5/24/2021 6:45:00 AM 17.36 63.248 1.116 7.95 14.82 6.99
5/24/2021 7:00:00 AM 17.28 63.104 1.104 7.95 12.42 7.05
5/24/2021 7:15:00 AM 17.2 62.96 1.092 7.96 14.09 7.08
5/24/2021 7:30:00 AM 17.12 62.816 1.081 7.96 13.42 7.15
5/24/2021 7:45:00 AM 17.03 62.654 1.07 7.97 13.06 7.24
5/24/2021 8:00:00 AM 16.95 62.51 1.059 7.97 13.33 7.22
5/24/2021 8:15:00 AM 16.87 62.366 1.048 7.98 12.1 7.31
5/24/2021 8:30:00 AM 16.79 62.222 1.038 7.98 12.26 7.37
5/24/2021 8:45:00 AM 16.72 62.096 1.028 7.99 12.63 7.43
5/24/2021 9:00:00 AM 16.65 61.97 1.019 7.99 12.63 7.52
5/24/2021 9:15:00 AM 16.59 61.862 1.012 8 12.42 7.61
5/24/2021 9:30:00 AM 16.52 61.736 1.005 8.01 12.45 7.7
5/24/2021 9:45:00 AM 16.46 61.628 1.001 8.01 13.6 7.79
5/24/2021 10:00:00 AM 16.4 61.52 0.999 8.02 11.8 7.84
5/24/2021 10:15:00 AM 16.35 61.43 1.001 8.02 11.87 7.89
5/24/2021 10:30:00 AM 16.32 61.376 1.005 8.03 13.62 8.08
5/24/2021 10:45:00 AM 16.3 61.34 1.012 8.04 14.08 8.12
5/24/2021 11:00:00 AM 16.28 61.304 1.02 8.05 13.22 8.23
5/24/2021 11:15:00 AM 16.29 61.322 1.029 8.06 12.14 8.42
5/24/2021 11:30:00 AM 16.3 61.34 1.037 8.07 12.12 8.55
5/24/2021 11:45:00 AM 16.29 61.322 1.042 8.08 9.96 8.55
5/24/2021 12:00:00 PM 16.29 61.322 1.044 8.08 12.09 8.56
5/24/2021 12:15:00 PM 16.28 61.304 1.044 8.09 12.26 8.61
5/24/2021 12:30:00 PM 16.26 61.268 1.042 8.09 13.06 8.64
5/24/2021 12:45:00 PM 16.22 61.196 1.041 8.09 12.89 8.65
5/24/2021 1:00:00 PM 16.19 61.142 1.043 8.1 13.34 8.67
5/24/2021 1:15:00 PM 16.17 61.106 1.05 8.1 12.84 8.74
5/24/2021 1:30:00 PM 16.15 61.07 1.063 8.1 12.48 8.7
5/24/2021 1:45:00 PM 16.15 61.07 1.08 8.1 12.66 8.68
5/24/2021 2:00:00 PM 16.15 61.07 1.1 8.1 14.32 8.64
5/24/2021 2:15:00 PM 16.17 61.106 1.12 8.1 13.19 8.61
5/24/2021 2:30:00 PM 16.18 61.124 1.137 8.1 12.57 8.67
5/24/2021 2:45:00 PM 16.21 61.178 1.15 8.11 12.34 8.71
5/24/2021 3:00:00 PM 16.23 61.214 1.158 8.11 12.44 8.8
5/24/2021 3:15:00 PM 16.24 61.232 1.164 8.11 12.7 8.77
5/24/2021 3:30:00 PM 16.26 61.268 1.166 8.12 12.87 8.78
5/24/2021 3:45:00 PM 16.28 61.304 1.168 8.12 12.38 8.87
5/24/2021 4:00:00 PM 16.29 61.322 1.169 8.13 12.11 8.93
5/24/2021 4:15:00 PM 16.3 61.34 1.17 8.14 14.56 8.98
5/24/2021 4:30:00 PM 16.31 61.358 1.171 8.14 13.6 9.03
5/24/2021 4:45:00 PM 16.33 61.394 1.172 8.14 11.8 8.98
5/24/2021 5:00:00 PM 16.33 61.394 1.173 8.14 12.2 8.96
5/24/2021 5:15:00 PM 16.34 61.412 1.175 8.14 11.89 8.9
5/24/2021 5:30:00 PM 16.33 61.394 1.176 8.14 14 8.89
5/24/2021 5:45:00 PM 16.32 61.376 1.178 8.14 12.12 8.89
5/24/2021 6:00:00 PM 16.31 61.358 1.178 8.14 13.12 8.83
5/24/2021 6:15:00 PM 16.3 61.34 1.177 8.14 12.92 8.83
5/24/2021 6:30:00 PM 16.28 61.304 1.176 8.14 12.32 8.79
5/24/2021 6:45:00 PM 16.26 61.268 1.173 8.13 13.3 8.76
5/24/2021 7:00:00 PM 16.24 61.232 1.171 8.13 12.72 8.68
5/24/2021 7:15:00 PM 16.21 61.178 1.169 8.13 11.87 8.62
5/24/2021 7:30:00 PM 16.18 61.124 1.167 8.12 12.62 8.53
5/24/2021 7:45:00 PM 16.15 61.07 1.166 8.11 12.47 8.47
5/24/2021 8:00:00 PM 16.11 60.998 1.167 8.11 12.39 8.38
5/24/2021 8:15:00 PM 16.08 60.944 1.168 8.1 12.45 8.33
5/24/2021 8:30:00 PM 16.04 60.872 1.171 8.09 12.66 8.27
5/24/2021 8:45:00 PM 16.01 60.818 1.177 8.09 13.18 8.22
5/24/2021 9:00:00 PM 15.99 60.782 1.182 8.08 13.29 8.18
5/24/2021 9:15:00 PM 15.96 60.728 1.185 8.08 15.13 8.15
5/24/2021 9:30:00 PM 15.94 60.692 1.185 8.08 12.25 8.1
5/24/2021 9:45:00 PM 15.91 60.638 1.181 8.07 13.69 8.05
5/24/2021 10:00:00 PM 15.87 60.566 1.171 8.07 13.67 8.08
5/24/2021 10:15:00 PM 15.83 60.494 1.172 8.07 13.48 8
5/24/2021 10:30:00 PM 15.79 60.422 1.165 8.07 12.94 8.06
5/24/2021 10:45:00 PM 15.75 60.35 1.159 8.06 13.57 8.04
5/24/2021 11:00:00 PM 15.71 60.278 1.153 8.06 12.76 8.02
5/24/2021 11:15:00 PM 15.67 60.206 1.151 8.06 13.81 7.99
5/24/2021 11:30:00 PM 15.64 60.152 1.151 8.05 12.94 7.97
5/24/2021 11:45:00 PM 15.61 60.098 1.153 8.05 12.64 7.92
5/25/2021 12:00:00 AM 15.58 60.044 1.155 8.04 13.19 7.92
5/25/2021 12:15:00 AM 15.55 59.99 1.158 8.04 14.32 7.86
5/25/2021 12:30:00 AM 15.52 59.936 1.163 8.03 15.62 7.85
5/25/2021 12:45:00 AM 15.49 59.882 1.168 8.02 14.29 7.82
5/25/2021 1:00:00 AM 15.46 59.828 1.175 8.02 14.55 7.78
5/25/2021 1:15:00 AM 15.44 59.792 1.182 8.02 14.68 7.76
5/25/2021 1:30:00 AM 15.42 59.756 1.188 8.01 15.14 7.74
5/25/2021 1:45:00 AM 15.39 59.702 1.192 8.01 15.55 7.72
5/25/2021 2:00:00 AM 15.37 59.666 1.196 8 20.05 7.71
5/25/2021 2:15:00 AM 15.35 59.63 1.199 8 15.72 7.69
5/25/2021 2:30:00 AM 15.33 59.594 1.201 8 17.12 7.69
5/25/2021 2:45:00 AM 15.31 59.558 1.204 8 18.39 7.67
5/25/2021 3:00:00 AM 15.29 59.522 1.206 7.99 19.06 7.64
5/25/2021 3:15:00 AM 15.27 59.486 1.208 7.99 20.29 7.64
5/25/2021 3:30:00 AM 15.25 59.45 1.208 7.99 22.43 7.6
5/25/2021 3:45:00 AM 15.23 59.414 1.208 7.99 21.81 7.61
5/25/2021 4:00:00 AM 15.21 59.378 1.208 7.99 19.01 7.59
5/25/2021 4:15:00 AM 15.19 59.342 1.207 7.98 20.91 7.6
5/25/2021 4:30:00 AM 15.17 59.306 1.205 7.99 22.65 7.62
5/25/2021 4:45:00 AM 15.14 59.252 1.203 7.99 22.26 7.63
5/25/2021 5:00:00 AM 15.12 59.216 1.2 7.99 24.84 7.65
5/25/2021 5:15:00 AM 15.1 59.18 1.196 7.99 20.52 7.64
5/25/2021 5:30:00 AM 15.08 59.144 1.19 7.99 21.81 7.66
5/25/2021 5:45:00 AM 15.06 59.108 1.182 7.99 21.94 7.66
5/25/2021 6:00:00 AM 15.03 59.054 1.174 7.99 22.23 7.69
5/25/2021 6:15:00 AM 15.01 59.018 1.165 7.99 21.84 7.72
5/25/2021 6:30:00 AM 14.99 58.982 1.154 8 23.95 7.75
5/25/2021 6:45:00 AM 14.97 58.946 1.143 8 22.94 7.85
5/25/2021 7:00:00 AM 14.95 58.91 1.129 8.01 25.28 7.93
5/25/2021 7:15:00 AM 14.93 58.874 1.116 8.02 23.47 8.04
5/25/2021 7:30:00 AM 14.92 58.856 1.103 8.03 22.41 8.11
5/25/2021 7:45:00 AM 14.91 58.838 1.091 8.04 22.4 8.27
5/25/2021 8:00:00 AM 14.91 58.838 1.079 8.05 22.74 8.41
5/25/2021 8:15:00 AM 14.91 58.838 1.067 8.07 22.32 8.58
5/25/2021 8:30:00 AM 14.91 58.838 1.056 8.08 22.02 8.75
5/25/2021 8:45:00 AM 14.93 58.874 1.045 8.1 22.8 8.95
5/25/2021 9:00:00 AM 14.96 58.928 1.035 8.11 22.53 9.07
5/25/2021 9:15:00 AM 14.99 58.982 1.024 8.13 30.07 9.28
5/25/2021 9:30:00 AM 15.02 59.036 1.017 8.14 22.44 9.38
5/25/2021 9:45:00 AM 15.05 59.09 1.01 8.15 26.62 9.43
5/25/2021 10:00:00 AM 15.08 59.144 1.006 8.16 18.75 9.52
5/25/2021 10:15:00 AM 15.11 59.198 1.006 8.16 30.56 9.57
5/25/2021 10:30:00 AM 15.13 59.234 1.009 8.17 37.46 9.62
5/25/2021 10:45:00 AM 15.17 59.306 1.014 8.17 35.14 9.68
5/25/2021 11:00:00 AM 15.22 59.396 1.02 8.18 32.57 9.79
5/25/2021 11:15:00 AM 15.29 59.522 1.026 8.2 39.79 9.89
5/25/2021 11:30:00 AM 15.38 59.684 1.029 8.21 33.76 10.08
5/25/2021 11:45:00 AM 15.48 59.864 1.03 8.23 21.11 10.23
5/25/2021 12:00:00 PM 15.58 60.044 1.028 8.25 27.63 10.37
5/25/2021 12:15:00 PM 15.68 60.224 1.027 8.26 27.86 10.45
5/25/2021 12:30:00 PM 15.77 60.386 1.027 8.27 30.45 10.45
5/25/2021 12:45:00 PM 15.88 60.584 1.031 8.29 26.63 10.57
5/25/2021 1:00:00 PM 16.01 60.818 1.043 8.3 18.17 10.71
5/25/2021 1:15:00 PM 16.14 61.052 1.061 8.31 23.49 10.8
5/25/2021 1:30:00 PM 16.3 61.34 1.087 8.32 22.5 10.84
5/25/2021 1:45:00 PM 16.52 61.736 1.119 8.33 19.28 10.93
5/25/2021 2:00:00 PM 16.74 62.132 1.153 8.34 15.13 11.01
5/25/2021 2:15:00 PM 16.95 62.51 1.18 8.35 16.15 11
5/25/2021 2:30:00 PM 17.11 62.798 1.198 8.35 19.38 10.94
5/25/2021 2:45:00 PM 17.28 63.104 1.205 8.35 15.71 10.87
5/25/2021 3:00:00 PM 17.38 63.284 1.204 8.35 15.35 10.76
5/25/2021 3:15:00 PM 17.44 63.392 1.201 8.35 16.14 10.66
5/25/2021 3:30:00 PM 17.52 63.536 1.196 8.35 15.2 10.56
5/25/2021 3:45:00 PM 17.65 63.77 1.191 8.35 21.29 10.57
5/25/2021 4:00:00 PM 17.8 64.04 1.186 8.36 24.05 10.53
5/25/2021 4:15:00 PM 17.97 64.346 1.182 8.36 19.31 10.52
5/25/2021 4:30:00 PM 18.12 64.616 1.181 8.37 23.28 10.48
5/25/2021 4:45:00 PM 18.25 64.85 1.184 8.37 33.8 10.39
5/25/2021 5:00:00 PM 18.38 65.084 1.19 8.36 20.79 10.24
5/25/2021 5:15:00 PM 18.48 65.264 1.198 8.36 22.61 10.08
5/25/2021 5:30:00 PM 18.57 65.426 1.205 8.35 23.04 9.99
5/25/2021 5:45:00 PM 18.65 65.57 1.211 8.34 22.31 9.84
5/25/2021 6:00:00 PM 18.7 65.66 1.215 8.33 21.05 9.7
5/25/2021 6:15:00 PM 18.73 65.714 1.219 8.32 20.1 9.31
5/25/2021 6:30:00 PM 18.75 65.75 1.219 8.31 57.77 9.28
5/25/2021 6:45:00 PM 18.75 65.75 1.216 8.3 11.94 9.25
5/25/2021 7:00:00 PM 18.75 65.75 1.212 8.29 13.94 9.11
5/25/2021 7:15:00 PM 18.73 65.714 1.208 8.27 13.18 8.91
5/25/2021 7:30:00 PM 18.72 65.696 1.204 8.26 13.16 8.82
5/25/2021 7:45:00 PM 18.69 65.642 1.199 8.24 14.56 8.68
5/25/2021 8:00:00 PM 18.66 65.588 1.191 8.23 14.79 8.47
5/25/2021 8:15:00 PM 18.62 65.516 1.18 8.21 12.97 8.38
5/25/2021 8:30:00 PM 18.57 65.426 1.167 8.2 14.87 8.27
5/25/2021 8:45:00 PM 18.53 65.354 1.154 8.18 13.14 8.13
5/25/2021 9:00:00 PM 18.47 65.246 1.144 8.17 14.22 8.04
5/25/2021 9:15:00 PM 18.42 65.156 1.136 8.15 11.88 7.96
5/25/2021 9:30:00 PM 18.37 65.066 1.13 8.14 10.81 7.87
5/25/2021 9:45:00 PM 18.31 64.958 1.126 8.13 11.78 7.83
5/25/2021 10:00:00 PM 18.25 64.85 1.122 8.12 13.48 7.77
5/25/2021 10:15:00 PM 18.18 64.724 1.121 8.11 12.58 7.73
5/25/2021 10:30:00 PM 18.11 64.598 1.121 8.1 16.52 7.63
5/25/2021 10:45:00 PM 18.03 64.454 1.123 8.08 16.47 7.58
5/25/2021 11:00:00 PM 17.95 64.31 1.128 8.07 13.2 7.55
5/25/2021 11:15:00 PM 17.87 64.166 1.133 8.06 13.1 7.51
5/25/2021 11:30:00 PM 17.78 64.004 1.139 8.05 13.13 7.37
5/25/2021 11:45:00 PM 17.7 63.86 1.146 8.04 9.35 7.39
5/26/2021 12:00:00 AM 17.62 63.716 1.153 8.03 10.4 7.35
5/26/2021 12:15:00 AM 17.54 63.572 1.159 8.03 9.84 7.27
5/26/2021 12:30:00 AM 17.46 63.428 1.165 8.02 10.15 7.27
5/26/2021 12:45:00 AM 17.38 63.284 1.169 8.01 9.57 7.22
5/26/2021 1:00:00 AM 17.31 63.158 1.172 8.01 10.7 7.22
5/26/2021 1:15:00 AM 17.24 63.032 1.175 8 11.44 7.17
5/26/2021 1:30:00 AM 17.17 62.906 1.177 7.99 16.83 7.17
5/26/2021 1:45:00 AM 17.1 62.78 1.181 7.99 11.78 7.14
5/26/2021 2:00:00 AM 17.04 62.672 1.184 7.99 11.14 7.14
5/26/2021 2:15:00 AM 16.99 62.582 1.187 7.98 11.4 7.12
5/26/2021 2:30:00 AM 16.94 62.492 1.19 7.98 11.66 7.12
5/26/2021 2:45:00 AM 16.89 62.402 1.191 7.98 11.35 7.12
5/26/2021 3:00:00 AM 16.84 62.312 1.192 7.97 11.6 7.11
5/26/2021 3:15:00 AM 16.8 62.24 1.193 7.97 11.46 7.14
5/26/2021 3:30:00 AM 16.76 62.168 1.193 7.97 11.84 7.13
5/26/2021 3:45:00 AM 16.72 62.096 1.193 7.97 12.18 7.13
5/26/2021 4:00:00 AM 16.68 62.024 1.193 7.97 11.39 7.14
5/26/2021 4:15:00 AM 16.64 61.952 1.192 7.97 11.34 7.14
5/26/2021 4:30:00 AM 16.6 61.88 1.191 7.96 11.42 7.09
5/26/2021 4:45:00 AM 16.56 61.808 1.189 7.96 13.5 7.15
5/26/2021 5:00:00 AM 16.53 61.754 1.186 7.96 13.01 7.16
5/26/2021 5:15:00 AM 16.49 61.682 1.183 7.96 11.48 7.15
5/26/2021 5:30:00 AM 16.45 61.61 1.179 7.96 11.62 7.18
5/26/2021 5:45:00 AM 16.42 61.556 1.173 7.96 11.54 7.16
5/26/2021 6:00:00 AM 16.38 61.484 1.166 7.96 11.31 7.21
5/26/2021 6:15:00 AM 16.34 61.412 1.158 7.96 11.58 7.24
5/26/2021 6:30:00 AM 16.3 61.34 1.147 7.96 11.47 7.28
5/26/2021 6:45:00 AM 16.26 61.268 1.136 7.96 11.42 7.35
5/26/2021 7:00:00 AM 16.22 61.196 1.123 7.97 11.56 7.4
5/26/2021 7:15:00 AM 16.19 61.142 1.11 7.97 11.37 7.5
5/26/2021 7:30:00 AM 16.16 61.088 1.097 7.98 11.48 7.6
5/26/2021 7:45:00 AM 16.14 61.052 1.085 7.99 11.99 7.7
5/26/2021 8:00:00 AM 16.12 61.016 1.073 7.99 11.59 7.84
5/26/2021 8:15:00 AM 16.11 60.998 1.062 8 11.9 7.9
5/26/2021 8:30:00 AM 16.11 60.998 1.051 8.02 11.93 8.07
5/26/2021 8:45:00 AM 16.11 60.998 1.04 8.03 11.64 8.18
5/26/2021 9:00:00 AM 16.11 60.998 1.028 8.04 13.21 8.3
5/26/2021 9:15:00 AM 16.12 61.016 1.017 8.05 17.37 8.41
5/26/2021 9:30:00 AM 16.12 61.016 1.008 8.06 11.25 8.53
5/26/2021 9:45:00 AM 16.12 61.016 1.001 8.07 11.36 8.6
5/26/2021 10:00:00 AM 16.15 61.07 0.996 8.08 11.58 8.82
5/26/2021 10:15:00 AM 16.23 61.214 0.994 8.11 10.45 9.13
5/26/2021 10:30:00 AM 16.33 61.394 0.995 8.12 11.71 9.28
5/26/2021 10:45:00 AM 16.47 61.646 0.996 8.14 11.32 9.5
5/26/2021 11:00:00 AM 16.64 61.952 0.999 8.16 10.99 9.65
5/26/2021 11:15:00 AM 16.85 62.33 1.001 8.18 11.13 9.82
5/26/2021 11:30:00 AM 17.06 62.708 1.002 8.2 11.93 9.96
5/26/2021 11:45:00 AM 17.25 63.05 1.002 8.22 10.78 10.08
5/26/2021 12:00:00 PM 17.46 63.428 1.001 8.23 11.08 10.21
5/26/2021 12:15:00 PM 17.68 63.824 1.002 8.25 11.27 10.34
5/26/2021 12:30:00 PM 17.91 64.238 1.005 8.27 10.97 10.44
5/26/2021 12:45:00 PM 18.15 64.67 1.012 8.29 10.37 10.55
5/26/2021 1:00:00 PM 18.4 65.12 1.023 8.3 10.29 10.6
5/26/2021 1:15:00 PM 18.66 65.588 1.03 8.31 10.4 10.63
5/26/2021 1:30:00 PM 18.93 66.074 1.065 8.32 10.68 10.73
5/26/2021 1:45:00 PM 19.22 66.596 1.093 8.33 10.92 10.79
5/26/2021 2:00:00 PM 19.45 67.01 1.117 8.34 10.54 10.74
5/26/2021 2:15:00 PM 19.55 67.19 1.137 8.33 10.44 10.38
5/26/2021 2:30:00 PM 19.72 67.496 1.149 8.32 10.19 10.27
5/26/2021 2:45:00 PM 19.84 67.712 1.155 8.33 11.26 10.25
5/26/2021 3:00:00 PM 19.96 67.92799 1.157 8.33 11.67 10.16
5/26/2021 3:15:00 PM 20.14 68.252 1.157 8.34 13.22 10.19
5/26/2021 3:30:00 PM 20.29 68.522 1.158 8.34 11.81 10.16
5/26/2021 3:45:00 PM 20.47 68.846 1.161 8.35 11.41 10.14
5/26/2021 4:00:00 PM 20.61 69.098 1.167 8.35 10.84 10.01
5/26/2021 4:15:00 PM 20.74 69.332 1.175 8.34 11.96 9.83
5/26/2021 4:30:00 PM 20.82 69.476 1.183 8.32 10.96 9.42
5/26/2021 4:45:00 PM 20.84 69.512 1.179 8.3 13.42 8.95
5/26/2021 5:00:00 PM 20.83 69.494 1.177 8.27 14.08 8.57
5/26/2021 5:15:00 PM 20.83 69.494 1.167 8.24 21.65 8.23
5/26/2021 5:30:00 PM 20.75 69.35 1.167 8.21 24.88 7.99
5/26/2021 5:45:00 PM 20.67 69.206 1.168 8.2 18 7.91
5/26/2021 6:00:00 PM 20.65 69.17 1.164 8.19 14.85 7.99
5/26/2021 6:15:00 PM 20.65 69.17 1.157 8.18 15.32 7.85
5/26/2021 6:30:00 PM 20.66 69.188 1.152 8.17 15.51 7.79
5/26/2021 6:45:00 PM 20.67 69.206 1.143 8.15 24.33 7.63
5/26/2021 7:00:00 PM 20.68 69.224 1.134 8.13 32.46 7.51
5/26/2021 7:15:00 PM 20.64 69.152 1.127 8.11 13.77 7.31
5/26/2021 7:30:00 PM 20.54 68.972 1.113 8.09 32.34 7.3
5/26/2021 7:45:00 PM 20.43 68.774 1.084 8.07 24.39 7.26
5/26/2021 8:00:00 PM 20.35 68.63 1.067 8.05 24.04 7.26
5/26/2021 8:15:00 PM 20.24 68.432 1.064 8.03 26.15 7.12
5/26/2021 8:30:00 PM 20.1 68.18 1.066 8.01 27.25 7.03
5/26/2021 8:45:00 PM 19.93 67.874 1.066 7.99 16.27 6.95
5/26/2021 9:00:00 PM 19.77 67.586 1.065 7.98 19.45 6.81
5/26/2021 9:15:00 PM 19.62 67.316 1.064 7.96 13.45 6.73
5/26/2021 9:30:00 PM 19.5 67.1 1.062 7.94 13.29 6.65
5/26/2021 9:45:00 PM 19.42 66.956 1.045 7.94 13.09 6.57
5/26/2021 10:00:00 PM 19.37 66.866 0.995 7.93 18.66 6.63
5/26/2021 10:15:00 PM 19.47 67.046 0.906 7.92 17.57 6.6
5/26/2021 10:30:00 PM 19.32 66.776 0.899 7.91 17.23 6.52
5/26/2021 10:45:00 PM 19.17 66.506 0.876 7.89 19.36 6.48
5/26/2021 11:00:00 PM 19.06 66.308 0.842 7.87 23.42 6.42
5/26/2021 11:15:00 PM 19 66.2 0.817 7.85 25.91 6.37
5/26/2021 11:30:00 PM 19.03 66.254 0.798 7.81 42.68 6.24
5/26/2021 11:45:00 PM 19.1 66.38 0.787 7.76 76.7 6.12
5/27/2021 12:00:00 AM 19.1 66.38 0.801 7.72 83.06 6.07
5/27/2021 12:15:00 AM 18.95 66.11 0.848 7.69 81.05 5.94
5/27/2021 12:30:00 AM 18.72 65.696 0.869 7.68 62.61 6.04
5/27/2021 12:45:00 AM 18.65 65.57 0.822 7.68 49.06 6.13
5/27/2021 1:00:00 AM 18.63 65.534 0.726 7.67 48.25 6.24
5/27/2021 1:15:00 AM 18.62 65.516 0.638 7.66 38.52 6.25
5/27/2021 1:30:00 AM 18.64 65.552 0.574 7.65 34.4 6.28
5/27/2021 1:45:00 AM 18.69 65.642 0.533 7.64 30.93 6.23
5/27/2021 2:00:00 AM 18.76 65.768 0.509 7.63 28.52 6.16
5/27/2021 2:15:00 AM 18.82 65.876 0.496 7.62 25.43 6.05
5/27/2021 2:30:00 AM 18.87 65.966 0.49 7.61 22.18 5.97
5/27/2021 2:45:00 AM 18.92 66.056 0.492 7.61 21.66 5.91
5/27/2021 3:00:00 AM 18.96 66.128 0.498 7.6 22.28 5.83
5/27/2021 3:15:00 AM 18.98 66.164 0.507 7.59 19.09 5.76
5/27/2021 3:30:00 AM 18.98 66.164 0.516 7.59 17.77 5.74
5/27/2021 3:45:00 AM 18.97 66.146 0.526 7.59 18.49 5.7
5/27/2021 4:00:00 AM 18.95 66.11 0.535 7.58 18.5 5.64
5/27/2021 4:15:00 AM 18.91 66.038 0.546 7.58 18.28 5.65
5/27/2021 4:30:00 AM 18.87 65.966 0.555 7.59 17.82 5.57
5/27/2021 4:45:00 AM 18.81 65.858 0.565 7.59 16.95 5.59
5/27/2021 5:00:00 AM 18.75 65.75 0.576 7.59 18 5.56
5/27/2021 5:15:00 AM 18.67 65.606 0.587 7.59 17.76 5.59
5/27/2021 5:30:00 AM 18.58 65.444 0.597 7.6 16.13 5.63
5/27/2021 5:45:00 AM 18.49 65.282 0.607 7.6 14.69 5.65
5/27/2021 6:00:00 AM 18.4 65.12 0.616 7.61 17.63 5.69
5/27/2021 6:15:00 AM 18.3 64.94 0.624 7.62 14.76 5.74
5/27/2021 6:30:00 AM 18.2 64.76 0.632 7.63 15.93 5.78
5/27/2021 6:45:00 AM 18.1 64.58 0.639 7.63 17.6 5.82
5/27/2021 7:00:00 AM 18.01 64.418 0.648 7.64 15.2 5.94
5/27/2021 7:15:00 AM 17.93 64.274 0.658 7.65 13.46 6.03
5/27/2021 7:30:00 AM 17.85 64.13 0.669 7.66 13.57 6.12
5/27/2021 7:45:00 AM 17.78 64.004 0.682 7.68 12.56 6.22
5/27/2021 8:00:00 AM 17.72 63.896 0.694 7.69 11.78 6.28
5/27/2021 8:15:00 AM 17.67 63.806 0.707 7.71 12.75 6.45
5/27/2021 8:30:00 AM 17.63 63.734 0.72 7.73 13.04 6.67
5/27/2021 8:45:00 AM 17.6 63.68 0.735 7.76 11.66 6.84
5/27/2021 9:00:00 AM 17.57 63.626 0.752 7.78 11.01 7.03
5/27/2021 9:15:00 AM 17.56 63.608 0.769 7.8 11.23 7.2
5/27/2021 9:30:00 AM 17.55 63.59 0.788 7.83 12.97 7.47
5/27/2021 9:45:00 AM 17.55 63.59 0.807 7.85 14.75 7.68
5/27/2021 10:00:00 AM 17.55 63.59 0.826 7.87 10.37 7.89
5/27/2021 10:15:00 AM 17.6 63.68 0.843 7.9 10.87 8.14
5/27/2021 10:30:00 AM 17.63 63.734 0.857 7.92 9.72 8.27
5/27/2021 10:45:00 AM 17.69 63.842 0.868 7.94 11.44 8.48
5/27/2021 11:00:00 AM 17.7 63.86 0.876 7.96 8.53 8.64
5/27/2021 11:15:00 AM 17.76 63.968 0.882 7.98 9.45 8.74
5/27/2021 11:30:00 AM 17.87 64.166 0.886 8 8.13 8.94
5/27/2021 11:45:00 AM 17.91 64.238 0.89 8.02 9.25 9.04
5/27/2021 12:00:00 PM 18.05 64.49 0.898 8.04 7.61 9.25
5/27/2021 12:15:00 PM 18.24 64.832 0.907 8.07 7.86 9.42
5/27/2021 12:30:00 PM 18.44 65.192 0.922 8.09 7.88 9.57
5/27/2021 12:45:00 PM 18.64 65.552 0.94 8.11 8.66 9.69
5/27/2021 1:00:00 PM 18.9 66.02 0.962 8.13 7.99 9.81
5/27/2021 1:15:00 PM 19.16 66.488 0.982 8.16 7.54 9.89
5/27/2021 1:30:00 PM 19.42 66.956 1.002 8.18 8 10
5/27/2021 1:45:00 PM 19.59 67.262 1.018 8.19 7.86 9.96
5/27/2021 2:00:00 PM 19.79 67.622 1.028 8.2 7.77 9.96
5/27/2021 2:15:00 PM 19.97 67.946 1.033 8.21 7.17 9.98
5/27/2021 2:30:00 PM 20.15 68.27 1.036 8.21 9.27 9.9
5/27/2021 2:45:00 PM 20.33 68.594 1.038 8.22 7.91 9.88
5/27/2021 3:00:00 PM 20.49 68.882 1.04 8.22 11.67 9.83
5/27/2021 3:15:00 PM 20.63 69.134 1.043 8.23 12.34 9.71
5/27/2021 3:30:00 PM 20.74 69.332 1.045 8.23 7.87 9.58
5/27/2021 3:45:00 PM 20.85 69.53 1.048 8.23 8.35 9.63
5/27/2021 4:00:00 PM 20.95 69.71 1.05 8.23 10.8 9.55
5/27/2021 4:15:00 PM 21.01 69.818 1.055 8.23 8.51 9.44
5/27/2021 4:30:00 PM 21.05 69.89 1.062 8.22 7.71 9.34
5/27/2021 4:45:00 PM 21.08 69.944 1.071 8.22 7.73 9.24
5/27/2021 5:00:00 PM 21.09 69.962 1.082 8.21 7.44 9.15
5/27/2021 5:15:00 PM 21.09 69.962 1.092 8.2 7.72 9.03
5/27/2021 5:30:00 PM 21.04 69.872 1.1 8.19 7.55 8.8
5/27/2021 5:45:00 PM 21 69.8 1.107 8.18 7.17 8.67
5/27/2021 6:00:00 PM 20.96 69.728 1.112 8.17 7.84 8.59
5/27/2021 6:15:00 PM 20.94 69.692 1.116 8.17 7.69 8.55
5/27/2021 6:30:00 PM 20.86 69.548 1.119 8.15 7.46 8.39
5/27/2021 6:45:00 PM 20.75 69.35 1.121 8.13 7.13 8.18
5/27/2021 7:00:00 PM 20.68 69.224 1.122 8.13 7.67 8.15
5/27/2021 7:15:00 PM 20.61 69.098 1.124 8.12 7.56 8.04
5/27/2021 7:30:00 PM 20.52 68.936 1.124 8.1 7.23 7.92
5/27/2021 7:45:00 PM 20.42 68.756 1.123 8.09 8.05 7.79
5/27/2021 8:00:00 PM 20.33 68.594 1.12 8.08 7.48 7.7
5/27/2021 8:15:00 PM 20.22 68.396 1.114 8.07 7.7 7.62
5/27/2021 8:30:00 PM 20.09 68.162 1.107 8.06 7.91 7.48
5/27/2021 8:45:00 PM 19.95 67.91 1.1 8.05 7.95 7.39
5/27/2021 9:00:00 PM 19.8 67.64 1.092 8.04 8.33 7.31
5/27/2021 9:15:00 PM 19.65 67.37 1.085 8.03 8.33 7.23
5/27/2021 9:30:00 PM 19.51 67.118 1.079 8.02 9.19 7.19
5/27/2021 9:45:00 PM 19.37 66.866 1.076 8.01 9.06 7.15
5/27/2021 10:00:00 PM 19.24 66.632 1.076 8 9.44 7.12
5/27/2021 10:15:00 PM 19.12 66.416 1.079 7.99 9.44 7.04
5/27/2021 10:30:00 PM 19 66.2 1.083 7.99 9.95 7.03
5/27/2021 10:45:00 PM 18.87 65.966 1.087 7.98 9.8 7
5/27/2021 11:00:00 PM 18.75 65.75 1.09 7.97 10.7 6.94
5/27/2021 11:15:00 PM 18.64 65.552 1.092 7.96 11.01 6.94
5/27/2021 11:30:00 PM 18.52 65.336 1.095 7.96 10.93 6.88
5/27/2021 11:45:00 PM 18.41 65.138 1.098 7.95 11.08 6.84
5/28/2021 12:00:00 AM 18.3 64.94 1.101 7.95 10.75 6.84
5/28/2021 12:15:00 AM 18.2 64.76 1.103 7.94 11.05 6.81
5/28/2021 12:30:00 AM 18.1 64.58 1.103 7.94 11.13 6.8
5/28/2021 12:45:00 AM 18 64.4 1.105 7.93 11.03 6.79
5/28/2021 1:00:00 AM 17.91 64.238 1.107 7.93 11.4 6.77
5/28/2021 1:15:00 AM 17.81 64.058 1.111 7.93 11.47 6.78
5/28/2021 1:30:00 AM 17.71 63.878 1.114 7.92 11.75 6.77
5/28/2021 1:45:00 AM 17.61 63.698 1.115 7.92 11.12 6.78
5/28/2021 2:00:00 AM 17.52 63.536 1.114 7.92 11.02 6.78
5/28/2021 2:15:00 AM 17.42 63.356 1.113 7.92 11.65 6.78
5/28/2021 2:30:00 AM 17.33 63.194 1.113 7.92 11.56 6.78
5/28/2021 2:45:00 AM 17.25 63.05 1.114 7.92 11.23 6.8
5/28/2021 3:00:00 AM 17.17 62.906 1.116 7.92 11.37 6.8
5/28/2021 3:15:00 AM 17.09 62.762 1.118 7.92 10.98 6.82
5/28/2021 3:30:00 AM 17.02 62.636 1.117 7.92 11.39 6.84
5/28/2021 3:45:00 AM 16.95 62.51 1.117 7.92 12 6.86
5/28/2021 4:00:00 AM 16.89 62.402 1.116 7.92 10.9 6.88
5/28/2021 4:15:00 AM 16.83 62.294 1.116 7.92 11.57 6.85
5/28/2021 4:30:00 AM 16.76 62.168 1.116 7.92 11.31 6.9
5/28/2021 4:45:00 AM 16.71 62.078 1.116 7.92 11.68 6.89
5/28/2021 5:00:00 AM 16.64 61.952 1.113 7.92 11.32 6.94
5/28/2021 5:15:00 AM 16.58 61.844 1.109 7.92 11.46 6.96
5/28/2021 5:30:00 AM 16.51 61.718 1.104 7.93 11.46 6.99
5/28/2021 5:45:00 AM 16.44 61.592 1.098 7.93 10.93 7
5/28/2021 6:00:00 AM 16.37 61.466 1.093 7.93 10.82 7.05
5/28/2021 6:15:00 AM 16.29 61.322 1.086 7.93 10.47 7.08
5/28/2021 6:30:00 AM 16.22 61.196 1.079 7.94 10.35 7.15
5/28/2021 6:45:00 AM 16.14 61.052 1.068 7.95 10.15 7.24
5/28/2021 7:00:00 AM 16.07 60.926 1.057 7.95 9.85 7.32
5/28/2021 7:15:00 AM 16.01 60.818 1.046 7.96 9.45 7.43
5/28/2021 7:30:00 AM 15.97 60.746 1.037 7.97 9.44 7.56
5/28/2021 7:45:00 AM 15.92 60.656 1.028 7.98 9.21 7.62
5/28/2021 8:00:00 AM 15.88 60.584 1.019 7.99 9.12 7.77
5/28/2021 8:15:00 AM 15.85 60.53 1.009 8 8.92 7.96
5/28/2021 8:30:00 AM 15.84 60.512 0.999 8.02 9.39 8.16
5/28/2021 8:45:00 AM 15.82 60.476 0.991 8.03 9.08 8.3
5/28/2021 9:00:00 AM 15.8 60.44 0.984 8.04 9.01 8.39
5/28/2021 9:15:00 AM 15.79 60.422 0.98 8.05 8.72 8.44
5/28/2021 9:30:00 AM 15.78 60.404 0.975 8.06 8.6 8.56
5/28/2021 9:45:00 AM 15.78 60.404 0.974 8.07 9.69 8.74
5/28/2021 10:00:00 AM 15.8 60.44 0.976 8.08 9.43 8.86
5/28/2021 10:15:00 AM 15.85 60.53 0.978 8.1 9.21 9.07
5/28/2021 10:30:00 AM 15.88 60.584 0.985 8.11 11.23 9.14
5/28/2021 10:45:00 AM 15.97 60.746 0.989 8.13 8.92 9.27
5/28/2021 11:00:00 AM 16.04 60.872 0.993 8.14 9.04 9.32
5/28/2021 11:15:00 AM 16.09 60.962 0.985 8.14 8.92 9.37
5/28/2021 11:30:00 AM 16.17 61.106 0.992 8.16 8.91 9.64
5/28/2021 11:45:00 AM 16.26 61.268 0.989 8.18 8.7 9.83
5/28/2021 12:00:00 PM 16.33 61.394 0.986 8.2 8.87 9.91
5/28/2021 12:15:00 PM 16.51 61.718 0.986 8.22 8.69 10.15
5/28/2021 12:30:00 PM 16.58 61.844 0.987 8.22 8.24 9.86
5/28/2021 12:45:00 PM 16.66 61.988 0.993 8.22 8.54 9.77
5/28/2021 1:00:00 PM 16.72 62.096 1.005 8.22 8.78 9.82
5/28/2021 1:15:00 PM 16.73 62.114 1.022 8.21 8.65 9.7
5/28/2021 1:30:00 PM 16.78 62.204 1.039 8.21 8.21 9.64
5/28/2021 1:45:00 PM 16.85 62.33 1.059 8.22 8.67 9.68
5/28/2021 2:00:00 PM 16.95 62.51 1.078 8.23 8.4 9.76
5/28/2021 2:15:00 PM 17.08 62.744 1.093 8.24 8.46 9.93
5/28/2021 2:30:00 PM 17.19 62.942 1.105 8.25 8.34 9.95
5/28/2021 2:45:00 PM 17.35 63.23 1.112 8.27 8.47 10.06
5/28/2021 3:00:00 PM 17.48 63.464 1.116 8.28 8.21 10.11
5/28/2021 3:15:00 PM 17.57 63.626 1.119 8.27 8.12 9.92
5/28/2021 3:30:00 PM 17.62 63.716 1.12 8.26 8.06 9.67
5/28/2021 3:45:00 PM 17.65 63.77 1.12 8.25 8.18 9.53
5/28/2021 4:00:00 PM 17.64 63.752 1.12 8.24 8.06 9.29
5/28/2021 4:15:00 PM 17.61 63.698 1.12 8.22 7.78 9.11
5/28/2021 4:30:00 PM 17.57 63.626 1.12 8.2 7.99 8.93
5/28/2021 4:45:00 PM 17.55 63.59 1.121 8.19 8.19 8.76
5/28/2021 5:00:00 PM 17.51 63.518 1.12 8.18 8.15 8.62
5/28/2021 5:15:00 PM 17.49 63.482 1.118 8.16 8.21 8.44
5/28/2021 5:30:00 PM 17.46 63.428 1.113 8.16 8.83 8.36
5/28/2021 5:45:00 PM 17.42 63.356 1.109 8.14 9.25 8.27
5/28/2021 6:00:00 PM 17.37 63.266 1.104 8.13 8.05 8.2
5/28/2021 6:15:00 PM 17.3 63.14 1.049 8.13 8.9 8.12
5/28/2021 6:30:00 PM 17.23 63.014 1.078 8.12 9.4 8.06
5/28/2021 6:45:00 PM 17.17 62.906 1.049 8.11 9.51 7.91
5/28/2021 7:00:00 PM 17.12 62.816 1.023 8.1 9.78 7.91
5/28/2021 7:15:00 PM 17.04 62.672 1.026 8.09 9.79 7.91
5/28/2021 7:30:00 PM 16.97 62.546 1.023 8.08 9.98 7.84
5/28/2021 7:45:00 PM 16.88 62.384 1.02 8.07 11.48 7.76
5/28/2021 8:00:00 PM 16.79 62.222 1.012 8.06 12.91 7.77
5/28/2021 8:15:00 PM 16.7 62.06 0.994 8.04 17.69 7.71
5/28/2021 8:30:00 PM 16.62 61.916 0.969 8.01 30.35 7.72
5/28/2021 8:45:00 PM 16.51 61.718 0.946 7.98 44.79 7.64
5/28/2021 9:00:00 PM 16.34 61.412 0.953 7.94 985.52 7.55
5/28/2021 9:15:00 PM 16.19 61.142 0.974 7.92 36.05 7.48
5/28/2021 9:30:00 PM 16.12 61.016 0.962 7.9 34.98 7.46
5/28/2021 9:45:00 PM 16.04 60.872 0.897 7.89 38.83 7.48
5/28/2021 10:00:00 PM 15.92 60.656 0.813 7.88 31.36 7.52
5/28/2021 10:15:00 PM 15.78 60.404 0.737 7.87 24.21 7.56
5/28/2021 10:30:00 PM 15.7 60.26 0.672 7.85 31.14 7.52
5/28/2021 10:45:00 PM 15.68 60.224 0.625 7.83 32.03 7.45
5/28/2021 11:00:00 PM 15.7 60.26 0.593 7.8 30.08 7.37
5/28/2021 11:15:00 PM 15.75 60.35 0.57 7.78 31.11 7.24
5/28/2021 11:30:00 PM 15.81 60.458 0.556 7.76 29.92 7.18
5/28/2021 11:45:00 PM 15.86 60.548 0.551 7.73 30.37 7.11
5/29/2021 12:00:00 AM 15.89 60.602 0.556 7.72 27.43 7.07
5/29/2021 12:15:00 AM 15.91 60.638 0.569 7.71 17.85 7.02
5/29/2021 12:30:00 AM 15.9 60.62 0.583 7.7 19.59 6.97
5/29/2021 12:45:00 AM 15.88 60.584 0.593 7.7 17.19 6.99
5/29/2021 1:00:00 AM 15.83 60.494 0.6 7.7 19.58 7.05
5/29/2021 1:15:00 AM 15.77 60.386 0.607 7.71 17.22 7.05
5/29/2021 1:30:00 AM 15.7 60.26 0.613 7.71 19.11 7.07
5/29/2021 1:45:00 AM 15.63 60.134 0.62 7.71 17.78 7.1
5/29/2021 2:00:00 AM 15.56 60.008 0.627 7.72 20.86 7.11
5/29/2021 2:15:00 AM 15.49 59.882 0.634 7.72 16.98 7.14
5/29/2021 2:30:00 AM 15.42 59.756 0.64 7.73 15.44 7.15
5/29/2021 2:45:00 AM 15.35 59.63 0.646 7.73 15.71 7.19
5/29/2021 3:00:00 AM 15.28 59.504 0.652 7.74 14.31 7.22
5/29/2021 3:15:00 AM 15.21 59.378 0.658 7.74 18.58 7.22
5/29/2021 3:30:00 AM 15.15 59.27 0.662 7.75 14.94 7.25
5/29/2021 3:45:00 AM 15.09 59.162 0.666 7.75 15.39 7.26
5/29/2021 4:00:00 AM 15.03 59.054 0.671 7.75 15.85 7.28
5/29/2021 4:15:00 AM 14.98 58.964 0.677 7.76 15.27 7.29
5/29/2021 4:30:00 AM 14.92 58.856 0.682 7.76 14.48 7.32
5/29/2021 4:45:00 AM 14.87 58.766 0.687 7.77 15.21 7.31
5/29/2021 5:00:00 AM 14.83 58.694 0.693 7.77 14.26 7.32
5/29/2021 5:15:00 AM 14.77 58.586 0.698 7.77 13.79 7.36
5/29/2021 5:30:00 AM 14.71 58.478 0.705 7.78 14.02 7.4
5/29/2021 5:45:00 AM 14.66 58.388 0.711 7.79 13.97 7.44
5/29/2021 6:00:00 AM 14.61 58.298 0.714 7.79 14.04 7.48
5/29/2021 6:15:00 AM 14.55 58.19 0.717 7.8 12.19 7.52
5/29/2021 6:30:00 AM 14.49 58.082 0.719 7.81 12.59 7.58
5/29/2021 6:45:00 AM 14.43 57.974 0.721 7.81 12.71 7.63
5/29/2021 7:00:00 AM 14.37 57.866 0.724 7.82 12.32 7.68
5/29/2021 7:15:00 AM 14.3 57.74 0.729 7.83 14.97 7.74
5/29/2021 7:30:00 AM 14.23 57.614 0.709 7.84 15.77 7.83
5/29/2021 7:45:00 AM 14.17 57.506 0.726 7.84 17.37 7.88
5/29/2021 8:00:00 AM 14.12 57.416 0.73 7.84 16.53 7.93
5/29/2021 8:15:00 AM 14.07 57.326 0.736 7.85 16.4 7.96
5/29/2021 8:30:00 AM 14.05 57.29 0.742 7.85 16.7 8
5/29/2021 8:45:00 AM 14.01 57.218 0.744 7.85 22.75 8.04
5/29/2021 9:00:00 AM 13.97 57.146 0.748 7.85 24.01 8.08
5/29/2021 9:15:00 AM 13.93 57.074 0.752 7.85 24.21 8.12
5/29/2021 9:30:00 AM 13.91 57.038 0.752 7.85 23.36 8.16
5/29/2021 9:45:00 AM 13.89 57.002 0.754 7.85 24.98 8.19
5/29/2021 10:00:00 AM 13.88 56.984 0.751 7.85 34.94 8.24
5/29/2021 10:15:00 AM 13.86 56.948 0.735 7.84 25.27 8.29
5/29/2021 10:30:00 AM 13.83 56.894 0.712 7.84 21.66 8.35
5/29/2021 10:45:00 AM 13.82 56.876 0.691 7.85 16.54 8.45
5/29/2021 11:00:00 AM 13.84 56.912 0.672 7.85 18.4 8.56
5/29/2021 11:15:00 AM 13.88 56.984 0.654 7.86 14.47 8.72
5/29/2021 11:30:00 AM 13.92 57.056 0.634 7.86 17.39 8.75
5/29/2021 11:45:00 AM 13.95 57.11 0.623 7.86 20.53 8.79
5/29/2021 12:00:00 PM 13.97 57.146 0.615 7.85 17.5 8.79
5/29/2021 12:15:00 PM 13.99 57.182 0.613 7.85 21.61 8.82
5/29/2021 12:30:00 PM 14.02 57.236 0.619 7.85 15.32 8.84
5/29/2021 12:45:00 PM 14.06 57.308 0.63 7.85 15.14 8.84
5/29/2021 1:00:00 PM 14.1 57.38 0.644 7.86 15.6 8.86
5/29/2021 1:15:00 PM 14.14 57.452 0.659 7.86 14.08 8.86
5/29/2021 1:30:00 PM 14.18 57.524 0.673 7.87 15.3 8.91
5/29/2021 1:45:00 PM 14.21 57.578 0.687 7.87 13.73 8.95
5/29/2021 2:00:00 PM 14.27 57.686 0.7 7.89 16.12 9.06
5/29/2021 2:15:00 PM 14.32 57.776 0.713 7.9 14.88 9.12
5/29/2021 2:30:00 PM 14.36 57.848 0.727 7.91 16.15 9.08
5/29/2021 2:45:00 PM 14.39 57.902 0.741 7.91 15.78 9.1
5/29/2021 3:00:00 PM 14.39 57.902 0.753 7.92 13.58 9.06
5/29/2021 3:15:00 PM 14.4 57.92 0.765 7.92 15.67 9.06
5/29/2021 3:30:00 PM 14.4 57.92 0.776 7.93 13.23 9.02
5/29/2021 3:45:00 PM 14.4 57.92 0.786 7.93 20.83 9.01
5/29/2021 4:00:00 PM 14.4 57.92 0.796 7.93 16.26 8.95
5/29/2021 4:15:00 PM 14.41 57.938 0.807 7.93 24.58 8.93
5/29/2021 4:30:00 PM 14.4 57.92 0.816 7.93 20.39 8.88
5/29/2021 4:45:00 PM 14.39 57.902 0.824 7.93 16.52 8.83
5/29/2021 5:00:00 PM 14.39 57.902 0.831 7.93 18.29 8.83
5/29/2021 5:15:00 PM 14.39 57.902 0.835 7.94 12.8 8.79
5/29/2021 5:30:00 PM 14.38 57.884 0.838 7.94 18.6 8.8
5/29/2021 5:45:00 PM 14.37 57.866 0.841 7.94 15.74 8.8
5/29/2021 6:00:00 PM 14.36 57.848 0.844 7.94 14.65 8.78
5/29/2021 6:15:00 PM 14.35 57.83 0.848 7.94 16.77 8.73
5/29/2021 6:30:00 PM 14.34 57.812 0.853 7.94 10.79 8.7
5/29/2021 6:45:00 PM 14.32 57.776 0.858 7.94 13.71 8.65
5/29/2021 7:00:00 PM 14.3 57.74 0.862 7.93 12.69 8.59
5/29/2021 7:15:00 PM 14.27 57.686 0.867 7.93 11.01 8.56
5/29/2021 7:30:00 PM 14.25 57.65 0.871 7.93 12.22 8.52
5/29/2021 7:45:00 PM 14.23 57.614 0.874 7.93 11.29 8.5
5/29/2021 8:00:00 PM 14.2 57.56 0.876 7.93 10.79 8.48
5/29/2021 8:15:00 PM 14.17 57.506 0.878 7.93 10.58 8.43
5/29/2021 8:30:00 PM 14.14 57.452 0.88 7.93 11.52 8.4
5/29/2021 8:45:00 PM 14.11 57.398 0.883 7.93 20.57 8.38
5/29/2021 9:00:00 PM 14.08 57.344 0.886 7.93 10 8.35
5/29/2021 9:15:00 PM 14.06 57.308 0.89 7.93 9 8.33
5/29/2021 9:30:00 PM 14.04 57.272 0.892 7.93 13.31 8.31
5/29/2021 9:45:00 PM 14.01 57.218 0.894 7.93 11.55 8.3
5/29/2021 10:00:00 PM 13.98 57.164 0.895 7.93 12.44 8.28
5/29/2021 10:15:00 PM 13.96 57.128 0.897 7.93 9.69 8.25
5/29/2021 10:30:00 PM 13.93 57.074 0.899 7.93 10.67 8.26
5/29/2021 10:45:00 PM 13.9 57.02 0.901 7.93 11.47 8.23
5/29/2021 11:00:00 PM 13.88 56.984 0.902 7.93 9.39 8.21
5/29/2021 11:15:00 PM 13.86 56.948 0.904 7.93 9.57 8.21
5/29/2021 11:30:00 PM 13.84 56.912 0.905 7.93 11.19 8.2
5/29/2021 11:45:00 PM 13.82 56.876 0.905 7.93 11.23 8.2
5/30/2021 12:00:00 AM 13.8 56.84 0.905 7.93 10.62 8.2
5/30/2021 12:15:00 AM 13.78 56.804 0.904 7.93 11.42 8.19
5/30/2021 12:30:00 AM 13.76 56.768 0.904 7.93 10.34 8.2
5/30/2021 12:45:00 AM 13.74 56.732 0.903 7.93 10.9 8.21
5/30/2021 1:00:00 AM 13.73 56.714 0.904 7.93 10.55 8.19
5/30/2021 1:15:00 AM 13.71 56.678 0.904 7.93 10.98 8.2
5/30/2021 1:30:00 AM 13.69 56.642 0.904 7.93 10.77 8.2
5/30/2021 1:45:00 AM 13.67 56.606 0.904 7.93 10.42 8.2
5/30/2021 2:00:00 AM 13.65 56.57 0.904 7.93 11.3 8.18
5/30/2021 2:15:00 AM 13.64 56.552 0.905 7.93 10.07 8.2
5/30/2021 2:30:00 AM 13.63 56.534 0.908 7.93 9.59 8.2
5/30/2021 2:45:00 AM 13.62 56.516 0.909 7.93 10.51 8.2
5/30/2021 3:00:00 AM 13.6 56.48 0.91 7.93 10.82 8.19
5/30/2021 3:15:00 AM 13.59 56.462 0.91 7.94 11.03 8.2
5/30/2021 3:30:00 AM 13.58 56.444 0.908 7.94 11.53 8.21
5/30/2021 3:45:00 AM 13.56 56.408 0.904 7.94 11.69 8.21
5/30/2021 4:00:00 AM 13.53 56.354 0.9 7.94 9.95 8.22
5/30/2021 4:15:00 AM 13.51 56.318 0.896 7.94 9.52 8.22
5/30/2021 4:30:00 AM 13.49 56.282 0.892 7.94 9.96 8.24
5/30/2021 4:45:00 AM 13.46 56.228 0.888 7.95 10.61 8.24
5/30/2021 5:00:00 AM 13.44 56.192 0.885 7.95 10.21 8.26
5/30/2021 5:15:00 AM 13.42 56.156 0.881 7.95 9.98 8.26
5/30/2021 5:30:00 AM 13.4 56.12 0.878 7.95 9.61 8.28
5/30/2021 5:45:00 AM 13.38 56.084 0.874 7.95 9.18 8.29
5/30/2021 6:00:00 AM 13.36 56.048 0.87 7.95 9.61 8.31
5/30/2021 6:15:00 AM 13.33 55.994 0.865 7.96 9.62 8.32
5/30/2021 6:30:00 AM 13.31 55.958 0.861 7.96 9.76 8.35
5/30/2021 6:45:00 AM 13.29 55.922 0.856 7.96 9.3 8.38
5/30/2021 7:00:00 AM 13.27 55.886 0.851 7.97 9.12 8.42
5/30/2021 7:15:00 AM 13.24 55.832 0.846 7.97 8.97 8.47
5/30/2021 7:30:00 AM 13.23 55.814 0.843 7.98 8.99 8.56
5/30/2021 7:45:00 AM 13.22 55.796 0.839 7.99 8.65 8.64
5/30/2021 8:00:00 AM 13.21 55.778 0.836 8 7.97 8.73
5/30/2021 8:15:00 AM 13.21 55.778 0.834 8 8.07 8.8
5/30/2021 8:30:00 AM 13.21 55.778 0.833 8.01 8.66 8.81
5/30/2021 8:45:00 AM 13.21 55.778 0.832 8.01 8.85 8.85
5/30/2021 9:00:00 AM 13.21 55.778 0.833 8.01 8.68 8.85
5/30/2021 9:15:00 AM 13.21 55.778 0.831 8.02 8.82 8.91
5/30/2021 9:30:00 AM 13.21 55.778 0.832 8.02 53.56 8.94
5/30/2021 9:45:00 AM 13.22 55.796 0.834 8.02 14.67 8.99
5/30/2021 10:00:00 AM 13.24 55.832 0.834 8.03 22.72 9.11
5/30/2021 10:15:00 AM 13.27 55.886 0.835 8.05 14.2 9.25
5/30/2021 10:30:00 AM 13.31 55.958 0.836 8.06 19.66 9.4
5/30/2021 10:45:00 AM 13.35 56.03 0.836 8.07 44.31 9.48
5/30/2021 11:00:00 AM 13.39 56.102 0.837 8.08 35.92 9.55
5/30/2021 11:15:00 AM 13.43 56.174 0.836 8.09 24.14 9.66
5/30/2021 11:30:00 AM 13.47 56.246 0.835 8.1 13.1 9.75
5/30/2021 11:45:00 AM 13.49 56.282 0.834 8.1 54.02 9.72
5/30/2021 12:00:00 PM 13.5 56.3 0.834 8.11 29.86 9.7
5/30/2021 12:15:00 PM 13.53 56.354 0.835 8.11 42.51 9.79
5/30/2021 12:30:00 PM 13.55 56.39 0.837 8.12 28.68 9.8
5/30/2021 12:45:00 PM 13.58 56.444 0.842 8.12 57.51 9.79
5/30/2021 1:00:00 PM 13.63 56.534 0.848 8.12 8.29 9.83
5/30/2021 1:15:00 PM 13.68 56.624 0.854 8.13 8.95 9.88
5/30/2021 1:30:00 PM 13.75 56.75 0.861 8.14 58.75 9.99
5/30/2021 1:45:00 PM 13.83 56.894 0.868 8.15 55.01 10.08
5/30/2021 2:00:00 PM 13.94 57.092 0.877 8.16 35.84 10.14
5/30/2021 2:15:00 PM 14.02 57.236 0.884 8.16 10.53 10.09
5/30/2021 2:30:00 PM 14.1 57.38 0.891 8.15 11.7 10.02
5/30/2021 2:45:00 PM 14.15 57.47 0.898 8.15 10.72 9.94
5/30/2021 3:00:00 PM 14.19 57.542 0.903 8.14 10.45 9.86
5/30/2021 3:15:00 PM 14.22 57.596 0.906 8.13 11.46 9.83
5/30/2021 3:30:00 PM 14.28 57.704 0.906 8.14 11.41 9.9
5/30/2021 3:45:00 PM 14.34 57.812 0.906 8.14 10.97 9.98
5/30/2021 4:00:00 PM 14.43 57.974 0.904 8.15 11 10.05
5/30/2021 4:15:00 PM 14.53 58.154 0.903 8.16 9.79 10.16
5/30/2021 4:30:00 PM 14.59 58.262 0.904 8.16 10.42 10.08
5/30/2021 4:45:00 PM 14.67 58.406 0.904 8.17 9.91 10.16
5/30/2021 5:00:00 PM 14.7 58.46 0.906 8.16 10.82 10.06
5/30/2021 5:15:00 PM 14.73 58.514 0.908 8.16 11.13 10.02
5/30/2021 5:30:00 PM 14.75 58.55 0.91 8.15 10.21 9.9
5/30/2021 5:45:00 PM 14.75 58.55 0.912 8.14 9.79 9.78
5/30/2021 6:00:00 PM 14.73 58.514 0.912 8.13 9.47 9.65
5/30/2021 6:15:00 PM 14.71 58.478 0.91 8.12 10.07 9.53
5/30/2021 6:30:00 PM 14.69 58.442 0.909 8.11 9.91 9.43
5/30/2021 6:45:00 PM 14.69 58.442 0.909 8.11 9.41 9.41
5/30/2021 7:00:00 PM 14.68 58.424 0.909 8.1 10.19 9.31
5/30/2021 7:15:00 PM 14.67 58.406 0.909 8.1 8.44 9.25
5/30/2021 7:30:00 PM 14.67 58.406 0.908 8.09 9.32 9.18
5/30/2021 7:45:00 PM 14.66 58.388 0.907 8.08 8.91 9.12
5/30/2021 8:00:00 PM 14.64 58.352 0.906 8.08 9.65 9.02
5/30/2021 8:15:00 PM 14.63 58.334 0.904 8.07 8.73 8.95
5/30/2021 8:30:00 PM 14.61 58.298 0.903 8.06 8.42 8.89
5/30/2021 8:45:00 PM 14.59 58.262 0.9 8.05 9.5 8.83
5/30/2021 9:00:00 PM 14.56 58.208 0.899 8.04 9.9 8.73
5/30/2021 9:15:00 PM 14.53 58.154 0.897 8.03 9.86 8.68
5/30/2021 9:30:00 PM 14.5 58.1 0.896 8.02 10.24 8.61
5/30/2021 9:45:00 PM 14.47 58.046 0.893 8.01 10.03 8.54
5/30/2021 10:00:00 PM 14.44 57.992 0.89 8 9.3 8.47
5/30/2021 10:15:00 PM 14.41 57.938 0.888 7.99 8.82 8.42
5/30/2021 10:30:00 PM 14.37 57.866 0.886 7.98 9.11 8.38
5/30/2021 10:45:00 PM 14.35 57.83 0.884 7.98 8.98 8.32
5/30/2021 11:00:00 PM 14.32 57.776 0.883 7.97 9.42 8.28
5/30/2021 11:15:00 PM 14.29 57.722 0.883 7.96 9.27 8.26
5/30/2021 11:30:00 PM 14.26 57.668 0.883 7.96 9.27 8.23
5/30/2021 11:45:00 PM 14.23 57.614 0.884 7.96 9.81 8.2
5/31/2021 12:00:00 AM 14.19 57.542 0.885 7.95 10.01 8.18
5/31/2021 12:15:00 AM 14.14 57.452 0.887 7.95 9.59 8.17
5/31/2021 12:30:00 AM 14.1 57.38 0.888 7.95 10.39 8.15
5/31/2021 12:45:00 AM 14.06 57.308 0.889 7.95 10.47 8.15
5/31/2021 1:00:00 AM 14.02 57.236 0.891 7.95 10 8.15
5/31/2021 1:15:00 AM 13.98 57.164 0.892 7.95 9.51 8.13
5/31/2021 1:30:00 AM 13.94 57.092 0.893 7.95 10.44 8.15
5/31/2021 1:45:00 AM 13.91 57.038 0.894 7.95 10.91 8.16
5/31/2021 2:00:00 AM 13.88 56.984 0.895 7.95 10.43 8.15
5/31/2021 2:15:00 AM 13.84 56.912 0.897 7.95 9.46 8.15
5/31/2021 2:30:00 AM 13.8 56.84 0.898 7.95 10.13 8.17
5/31/2021 2:45:00 AM 13.77 56.786 0.899 7.96 10.11 8.17
5/31/2021 3:00:00 AM 13.74 56.732 0.898 7.96 10.41 8.18
5/31/2021 3:15:00 AM 13.7 56.66 0.898 7.96 10.18 8.19
5/31/2021 3:30:00 AM 13.68 56.624 0.898 7.96 10.12 8.21
5/31/2021 3:45:00 AM 13.65 56.57 0.899 7.96 10.15 8.21
5/31/2021 4:00:00 AM 13.61 56.498 0.898 7.96 10.38 8.22
5/31/2021 4:15:00 AM 13.57 56.426 0.897 7.96 9.82 8.23
5/31/2021 4:30:00 AM 13.53 56.354 0.896 7.96 11.46 8.23
5/31/2021 4:45:00 AM 13.48 56.264 0.894 7.97 11.18 8.24
5/31/2021 5:00:00 AM 13.44 56.192 0.892 7.97 11.96 8.26
5/31/2021 5:15:00 AM 13.4 56.12 0.89 7.97 11.65 8.26
5/31/2021 5:30:00 AM 13.35 56.03 0.887 7.97 10.69 8.28
5/31/2021 5:45:00 AM 13.31 55.958 0.884 7.97 9.94 8.31
5/31/2021 6:00:00 AM 13.26 55.868 0.881 7.97 9.41 8.34
5/31/2021 6:15:00 AM 13.22 55.796 0.877 7.98 9.82 8.37
5/31/2021 6:30:00 AM 13.19 55.742 0.873 7.98 9.18 8.41
5/31/2021 6:45:00 AM 13.17 55.706 0.869 7.98 9.22 8.47
5/31/2021 7:00:00 AM 13.14 55.652 0.864 7.99 9.04 8.52
5/31/2021 7:15:00 AM 13.14 55.652 0.86 7.99 8.84 8.58
5/31/2021 7:30:00 AM 13.13 55.634 0.856 8 8.67 8.63
5/31/2021 7:45:00 AM 13.12 55.616 0.852 8 8.61 8.69
5/31/2021 8:00:00 AM 13.12 55.616 0.848 8.01 8.53 8.75
5/31/2021 8:15:00 AM 13.15 55.67 0.845 8.02 8.66 8.86
5/31/2021 8:30:00 AM 13.19 55.742 0.843 8.03 9.02 8.97
5/31/2021 8:45:00 AM 13.24 55.832 0.841 8.04 10.39 9.07
5/31/2021 9:00:00 AM 13.3 55.94 0.841 8.05 9.75 9.17
5/31/2021 9:15:00 AM 13.38 56.084 0.841 8.06 9.11 9.3
5/31/2021 9:30:00 AM 13.46 56.228 0.842 8.07 9.27 9.38
5/31/2021 9:45:00 AM 13.57 56.426 0.844 8.09 9.63 9.5
5/31/2021 10:00:00 AM 13.67 56.606 0.847 8.1 9 9.63
5/31/2021 10:15:00 AM 13.8 56.84 0.85 8.11 8.85 9.72
5/31/2021 10:30:00 AM 13.91 57.038 0.852 8.12 8.96 9.82
5/31/2021 10:45:00 AM 14.02 57.236 0.854 8.13 8.8 9.87
5/31/2021 11:00:00 AM 14.17 57.506 0.855 8.14 9.02 9.99
5/31/2021 11:15:00 AM 14.33 57.794 0.854 8.16 9.28 10.09
5/31/2021 11:30:00 AM 14.48 58.064 0.853 8.17 8.91 10.18
5/31/2021 11:45:00 AM 14.68 58.424 0.851 8.19 8.57 10.29
5/31/2021 12:00:00 PM 14.86 58.748 0.85 8.2 8.82 10.4
5/31/2021 12:15:00 PM 15.08 59.144 0.85 8.22 7.98 10.49
5/31/2021 12:30:00 PM 15.35 59.63 0.854 8.23 8.7 10.6
5/31/2021 12:45:00 PM 15.62 60.116 0.86 8.25 8.49 10.69
5/31/2021 1:00:00 PM 15.89 60.602 0.867 8.26 9.08 10.75
5/31/2021 1:15:00 PM 16.16 61.088 0.876 8.28 9.44 10.77
5/31/2021 1:30:00 PM 16.43 61.574 0.885 8.29 9.05 10.79
5/31/2021 1:45:00 PM 16.69 62.042 0.896 8.29 10.07 10.8
5/31/2021 2:00:00 PM 16.95 62.51 0.905 8.3 9.27 10.8
5/31/2021 2:15:00 PM 17.19 62.942 0.915 8.31 10.09 10.78
5/31/2021 2:30:00 PM 17.4 63.32 0.923 8.31 9.33 10.7
5/31/2021 2:45:00 PM 17.6 63.68 0.929 8.3 9.46 10.62
5/31/2021 3:00:00 PM 17.78 64.004 0.936 8.3 9.23 10.53
5/31/2021 3:15:00 PM 17.94 64.292 0.942 8.3 9.3 10.45
5/31/2021 3:30:00 PM 18.1 64.58 0.947 8.29 9.02 10.36
5/31/2021 3:45:00 PM 18.24 64.832 0.953 8.29 10.14 10.26
5/31/2021 4:00:00 PM 18.37 65.066 0.959 8.29 9.16 10.18
5/31/2021 4:15:00 PM 18.47 65.246 0.964 8.28 9.03 10.09
5/31/2021 4:30:00 PM 18.57 65.426 0.967 8.28 8.68 10.02
5/31/2021 4:45:00 PM 18.67 65.606 0.97 8.27 8.93 9.93
5/31/2021 5:00:00 PM 18.73 65.714 0.972 8.27 9.09 9.78
5/31/2021 5:15:00 PM 18.75 65.75 0.974 8.26 8.61 9.68
5/31/2021 5:30:00 PM 18.77 65.786 0.975 8.25 8.51 9.56
5/31/2021 5:45:00 PM 18.76 65.768 0.976 8.24 8.16 9.45
5/31/2021 6:00:00 PM 18.73 65.714 0.976 8.22 8.47 9.3
5/31/2021 6:15:00 PM 18.68 65.624 0.974 8.21 8.84 9.22
5/31/2021 6:30:00 PM 18.62 65.516 0.972 8.2 8.91 9.09
5/31/2021 6:45:00 PM 18.55 65.39 0.97 8.18 8.79 8.95
5/31/2021 7:00:00 PM 18.47 65.246 0.968 8.17 8.18 8.82
5/31/2021 7:15:00 PM 18.4 65.12 0.965 8.16 8.52 8.76
5/31/2021 7:30:00 PM 18.32 64.976 0.963 8.14 10.97 8.65
5/31/2021 7:45:00 PM 18.23 64.814 0.961 8.13 9.21 8.53
5/31/2021 8:00:00 PM 18.15 64.67 0.96 8.12 8.6 8.43
5/31/2021 8:15:00 PM 18.06 64.508 0.958 8.1 10.7 8.32
5/31/2021 8:30:00 PM 17.96 64.328 0.955 8.09 11.17 8.21
5/31/2021 8:45:00 PM 17.85 64.13 0.951 8.08 10.68 8.13
5/31/2021 9:00:00 PM 17.73 63.914 0.946 8.07 12.14 8.05
5/31/2021 9:15:00 PM 17.62 63.716 0.942 8.05 10.79 7.97
5/31/2021 9:30:00 PM 17.5 63.5 0.94 8.04 10.95 7.92
5/31/2021 9:45:00 PM 17.39 63.302 0.939 8.04 11.16 7.86
5/31/2021 10:00:00 PM 17.28 63.104 0.938 8.03 11.34 7.82
5/31/2021 10:15:00 PM 17.16 62.888 0.94 8.02 11.67 7.78
5/31/2021 10:30:00 PM 17.04 62.672 0.94 8.01 11.91 7.74
5/31/2021 10:45:00 PM 16.92 62.456 0.941 8 12.34 7.7
5/31/2021 11:00:00 PM 16.79 62.222 0.942 7.99 12.14 7.65
5/31/2021 11:15:00 PM 16.67 62.006 0.943 7.98 11.44 7.62
5/31/2021 11:30:00 PM 16.55 61.79 0.944 7.97 12.19 7.59
5/31/2021 11:45:00 PM 16.43 61.574 0.946 7.97 11.66 7.56
6/1/2021 12:00:00 AM 16.32 61.376 0.947 7.96 14.87 7.51
6/1/2021 12:15:00 AM 16.2 61.16 0.948 7.96 15.07 7.54
6/1/2021 12:30:00 AM 16.1 60.98 0.949 7.95 13.74 7.51
6/1/2021 12:45:00 AM 16 60.8 0.95 7.95 12.79 7.5
6/1/2021 1:00:00 AM 15.89 60.602 0.951 7.94 13.28 7.51
6/1/2021 1:15:00 AM 15.8 60.44 0.953 7.94 13.41 7.5
6/1/2021 1:30:00 AM 15.7 60.26 0.955 7.94 16.82 7.49
6/1/2021 1:45:00 AM 15.61 60.098 0.957 7.94 15.06 7.49
6/1/2021 2:00:00 AM 15.51 59.918 0.958 7.93 17.74 7.51
6/1/2021 2:15:00 AM 15.42 59.756 0.96 7.93 16.28 7.52
6/1/2021 2:30:00 AM 15.34 59.612 0.962 7.93 14.77 7.53
6/1/2021 2:45:00 AM 15.25 59.45 0.964 7.93 13.87 7.56
6/1/2021 3:00:00 AM 15.17 59.306 0.966 7.93 14.95 7.56
6/1/2021 3:15:00 AM 15.1 59.18 0.967 7.93 13.44 7.57
6/1/2021 3:30:00 AM 15.02 59.036 0.967 7.93 13.31 7.58
6/1/2021 3:45:00 AM 14.94 58.892 0.967 7.93 15.18 7.61
6/1/2021 4:00:00 AM 14.87 58.766 0.967 7.93 14.14 7.62
6/1/2021 4:15:00 AM 14.81 58.658 0.966 7.93 15.22 7.65
6/1/2021 4:30:00 AM 14.74 58.532 0.965 7.93 12.55 7.67
6/1/2021 4:45:00 AM 14.68 58.424 0.963 7.93 13.69 7.66
6/1/2021 5:00:00 AM 14.62 58.316 0.959 7.93 12.72 7.69
6/1/2021 5:15:00 AM 14.56 58.208 0.955 7.93 12.67 7.73
6/1/2021 5:30:00 AM 14.49 58.082 0.949 7.94 12.9 7.75
6/1/2021 5:45:00 AM 14.43 57.974 0.943 7.94 13.1 7.77
6/1/2021 6:00:00 AM 14.37 57.866 0.937 7.94 13.01 7.81
6/1/2021 6:15:00 AM 14.32 57.776 0.931 7.94 11.79 7.86
6/1/2021 6:30:00 AM 14.26 57.668 0.924 7.95 11.45 7.92
6/1/2021 6:45:00 AM 14.21 57.578 0.916 7.95 11.24 7.97
6/1/2021 7:00:00 AM 14.17 57.506 0.909 7.96 11.24 8.06
6/1/2021 7:15:00 AM 14.14 57.452 0.902 7.97 12.53 8.15
6/1/2021 7:30:00 AM 14.12 57.416 0.894 7.98 11.48 8.28
6/1/2021 7:45:00 AM 14.11 57.398 0.887 7.99 10.95 8.44
6/1/2021 8:00:00 AM 14.11 57.398 0.881 8 10.32 8.54
6/1/2021 8:15:00 AM 14.12 57.416 0.876 8.01 10.55 8.68
6/1/2021 8:30:00 AM 14.13 57.434 0.871 8.02 10.01 8.82
6/1/2021 8:45:00 AM 14.16 57.488 0.868 8.03 10.13 8.91
6/1/2021 9:00:00 AM 14.2 57.56 0.867 8.04 10.17 9.02
6/1/2021 9:15:00 AM 14.26 57.668 0.866 8.05 10.08 9.14
6/1/2021 9:30:00 AM 14.33 57.794 0.868 8.06 10.08 9.21
6/1/2021 9:45:00 AM 14.44 57.992 0.87 8.07 9.99 9.39
6/1/2021 10:00:00 AM 14.54 58.172 0.874 8.09 10.14 9.46
6/1/2021 10:15:00 AM 14.66 58.388 0.877 8.1 9.48 9.57
6/1/2021 10:30:00 AM 14.78 58.604 0.881 8.11 10.77 9.69
6/1/2021 10:45:00 AM 14.91 58.838 0.883 8.13 10.65 9.86
6/1/2021 11:00:00 AM 15.02 59.036 0.883 8.14 10.36 9.95
6/1/2021 11:15:00 AM 15.12 59.216 0.883 8.15 10.29 9.99
6/1/2021 11:30:00 AM 15.23 59.414 0.884 8.16 11.17 10.04
6/1/2021 11:45:00 AM 15.31 59.558 0.885 8.17 10.98 10.12
6/1/2021 12:00:00 PM 15.37 59.666 0.889 8.18 9.36 10.17
6/1/2021 12:15:00 PM 15.46 59.828 0.895 8.18 9.72 10.17
6/1/2021 12:30:00 PM 15.58 60.044 0.907 8.19 11 10.21
6/1/2021 12:45:00 PM 15.73 60.314 0.922 8.2 11.67 10.22
6/1/2021 1:00:00 PM 15.94 60.692 0.939 8.22 11.25 10.42
6/1/2021 1:15:00 PM 16.11 60.998 0.956 8.23 10.88 10.45
6/1/2021 1:30:00 PM 16.29 61.322 0.971 8.23 10.6 10.4
6/1/2021 1:45:00 PM 16.45 61.61 0.983 8.24 9.84 10.41
6/1/2021 2:00:00 PM 16.65 61.97 0.991 8.25 10.48 10.5
6/1/2021 2:15:00 PM 16.79 62.222 0.996 8.25 11.02 10.45
6/1/2021 2:30:00 PM 16.96 62.528 1.002 8.26 9.95 10.47
6/1/2021 2:45:00 PM 17.13 62.834 1.008 8.27 10.56 10.48
6/1/2021 3:00:00 PM 17.3 63.14 1.015 8.27 11.06 10.45
6/1/2021 3:15:00 PM 17.39 63.302 1.021 8.27 10.5 10.3
6/1/2021 3:30:00 PM 17.49 63.482 1.026 8.26 11.07 10.24
6/1/2021 3:45:00 PM 17.58 63.644 1.03 8.27 10.19 10.24
6/1/2021 4:00:00 PM 17.65 63.77 1.032 8.27 10.13 10.21
6/1/2021 4:15:00 PM 17.68 63.824 1.034 8.26 11.12 10.05
6/1/2021 4:30:00 PM 17.74 63.932 1.035 8.25 10.72 9.98
6/1/2021 4:45:00 PM 17.82 64.076 1.035 8.26 8.58 9.99
6/1/2021 5:00:00 PM 17.86 64.148 1.035 8.25 8.5 9.89
6/1/2021 5:15:00 PM 17.88 64.184 1.03 8.24 8.51 9.77
6/1/2021 5:30:00 PM 17.9 64.22 1.025 8.24 8.17 9.68
6/1/2021 5:45:00 PM 17.92 64.256 1.022 8.23 8.24 9.61
6/1/2021 6:00:00 PM 17.92 64.256 1.02 8.23 8.52 9.51
6/1/2021 6:15:00 PM 17.91 64.238 1.016 8.22 8.66 9.43
6/1/2021 6:30:00 PM 17.91 64.238 1.009 8.21 8.58 9.35
6/1/2021 6:45:00 PM 17.9 64.22 1.002 8.2 7.95 9.23
6/1/2021 7:00:00 PM 17.88 64.184 0.996 8.2 8.21 9.14
6/1/2021 7:15:00 PM 17.86 64.148 0.969 8.18 7.73 9
6/1/2021 7:30:00 PM 17.82 64.076 0.835 8.17 8.21 8.86
6/1/2021 7:45:00 PM 17.77 63.986 0.986 8.15 8.01 8.71
6/1/2021 8:00:00 PM 17.71 63.878 0.985 8.13 7.79 8.59
6/1/2021 8:15:00 PM 17.65 63.77 0.985 8.12 8.27 8.47
6/1/2021 8:30:00 PM 17.59 63.662 0.985 8.1 8.24 8.35
6/1/2021 8:45:00 PM 17.53 63.554 0.984 8.09 9.29 8.28
6/1/2021 9:00:00 PM 17.47 63.446 0.983 8.08 8.25 8.15
6/1/2021 9:15:00 PM 17.41 63.338 0.983 8.06 9.56 8.1
6/1/2021 9:30:00 PM 17.34 63.212 0.983 8.05 9.47 8.03
6/1/2021 9:45:00 PM 17.28 63.104 0.984 8.04 9.62 7.95
6/1/2021 10:00:00 PM 17.21 62.978 0.986 8.03 9.66 7.92
6/1/2021 10:15:00 PM 17.15 62.87 0.988 8.03 10.11 7.88
6/1/2021 10:30:00 PM 17.09 62.762 0.989 8.02 10.09 7.81
6/1/2021 10:45:00 PM 17.02 62.636 0.992 8.01 10.66 7.79
6/1/2021 11:00:00 PM 16.96 62.528 0.994 8 11.23 7.74
6/1/2021 11:15:00 PM 16.89 62.402 0.996 7.99 13.17 7.68
6/1/2021 11:30:00 PM 16.82 62.276 0.998 7.98 11.49 7.64
6/1/2021 11:45:00 PM 16.75 62.15 1.001 7.97 11.33 7.59
6/2/2021 12:00:00 AM 16.68 62.024 1.004 7.97 11.76 7.57
6/2/2021 12:15:00 AM 16.62 61.916 1.009 7.96 13.06 7.51
6/2/2021 12:30:00 AM 16.56 61.808 1.014 7.96 11.84 7.5
6/2/2021 12:45:00 AM 16.5 61.7 1.02 7.95 11.56 7.48
6/2/2021 1:00:00 AM 16.44 61.592 1.025 7.95 11.81 7.45
6/2/2021 1:15:00 AM 16.38 61.484 1.029 7.95 13.15 7.44
6/2/2021 1:30:00 AM 16.33 61.394 1.033 7.94 12.32 7.42
6/2/2021 1:45:00 AM 16.28 61.304 1.037 7.94 11.81 7.42
6/2/2021 2:00:00 AM 16.23 61.214 1.04 7.94 11.89 7.42
6/2/2021 2:15:00 AM 16.18 61.124 1.042 7.93 11.71 7.4
6/2/2021 2:30:00 AM 16.14 61.052 1.045 7.93 11.56 7.41
6/2/2021 2:45:00 AM 16.11 60.998 1.045 7.93 14 7.38
6/2/2021 3:00:00 AM 16.06 60.908 1.046 7.93 12.12 7.36
6/2/2021 3:15:00 AM 16.02 60.836 1.045 7.93 12.01 7.41
6/2/2021 3:30:00 AM 15.98 60.764 1.044 7.93 13.46 7.42
6/2/2021 3:45:00 AM 15.94 60.692 1.042 7.93 12.75 7.41
6/2/2021 4:00:00 AM 15.9 60.62 1.038 7.93 11.87 7.42
6/2/2021 4:15:00 AM 15.86 60.548 1.034 7.93 12.33 7.38
6/2/2021 4:30:00 AM 15.81 60.458 1.03 7.93 11.66 7.45
6/2/2021 4:45:00 AM 15.77 60.386 1.024 7.93 11.49 7.43
6/2/2021 5:00:00 AM 15.73 60.314 1.018 7.93 11.19 7.45
6/2/2021 5:15:00 AM 15.68 60.224 1.012 7.93 11.71 7.46
6/2/2021 5:30:00 AM 15.64 60.152 1.006 7.94 11.09 7.48
6/2/2021 5:45:00 AM 15.6 60.08 0.998 7.94 11.05 7.51
6/2/2021 6:00:00 AM 15.56 60.008 0.99 7.94 11.06 7.53
6/2/2021 6:15:00 AM 15.52 59.936 0.981 7.94 10.74 7.56
6/2/2021 6:30:00 AM 15.47 59.846 0.971 7.95 11.39 7.62
6/2/2021 6:45:00 AM 15.43 59.774 0.961 7.95 11.23 7.65
6/2/2021 7:00:00 AM 15.4 59.72 0.951 7.96 10.37 7.76
6/2/2021 7:15:00 AM 15.37 59.666 0.942 7.96 10.38 7.88
6/2/2021 7:30:00 AM 15.36 59.648 0.933 7.97 10.18 8.02
6/2/2021 7:45:00 AM 15.35 59.63 0.926 7.98 10.01 8.12
6/2/2021 8:00:00 AM 15.35 59.63 0.921 7.99 9.61 8.21
6/2/2021 8:15:00 AM 15.35 59.63 0.916 8 10.33 8.35
6/2/2021 8:30:00 AM 15.37 59.666 0.91 8.01 9.54 8.5
6/2/2021 8:45:00 AM 15.4 59.72 0.905 8.03 9.94 8.64
6/2/2021 9:00:00 AM 15.41 59.738 0.901 8.04 9.63 8.7
6/2/2021 9:15:00 AM 15.43 59.774 0.898 8.04 9.8 8.74
6/2/2021 9:30:00 AM 15.46 59.828 0.896 8.05 10.02 8.77
6/2/2021 9:45:00 AM 15.5 59.9 0.896 8.05 10.39 8.87
6/2/2021 10:00:00 AM 15.54 59.972 0.897 8.06 9.94 9.01
6/2/2021 10:15:00 AM 15.6 60.08 0.899 8.08 10.91 9.19
6/2/2021 10:30:00 AM 15.67 60.206 0.902 8.09 10.25 9.3
6/2/2021 10:45:00 AM 15.76 60.368 0.905 8.1 10.2 9.37
6/2/2021 11:00:00 AM 15.91 60.638 0.906 8.13 10.07 9.55
6/2/2021 11:15:00 AM 16.02 60.836 0.907 8.14 11.32 9.78
6/2/2021 11:30:00 AM 16.08 60.944 0.906 8.15 9.89 9.71
6/2/2021 11:45:00 AM 16.18 61.124 0.906 8.16 10.3 9.8
6/2/2021 12:00:00 PM 16.3 61.34 0.907 8.17 9.4 9.88
6/2/2021 12:15:00 PM 16.4 61.52 0.911 8.18 9.34 10.01
6/2/2021 12:30:00 PM 16.5 61.7 0.918 8.19 9.91 10.06
6/2/2021 12:45:00 PM 16.61 61.898 0.928 8.2 9.12 10.04
6/2/2021 1:00:00 PM 16.74 62.132 0.942 8.21 8.52 10.04
6/2/2021 1:15:00 PM 16.85 62.33 0.956 8.21 8.49 10
6/2/2021 1:30:00 PM 16.97 62.546 0.97 8.21 8.32 9.96
6/2/2021 1:45:00 PM 17.08 62.744 0.981 8.21 8.71 9.97
6/2/2021 2:00:00 PM 17.18 62.924 0.99 8.21 8.69 9.89
6/2/2021 2:15:00 PM 17.28 63.104 0.996 8.22 9.48 9.91
6/2/2021 2:30:00 PM 17.44 63.392 0.999 8.23 8.29 10.06
6/2/2021 2:45:00 PM 17.61 63.698 1.001 8.25 8.63 10.21
6/2/2021 3:00:00 PM 17.78 64.004 1.003 8.27 8.2 10.26
6/2/2021 3:15:00 PM 17.94 64.292 1.005 8.28 8.28 10.25
6/2/2021 3:30:00 PM 18.09 64.562 1.007 8.28 8.1 10.22
6/2/2021 3:45:00 PM 18.19 64.742 1.009 8.28 7.65 10.1
6/2/2021 4:00:00 PM 18.26 64.868 1.011 8.27 7.82 10.02
6/2/2021 4:15:00 PM 18.31 64.958 1.015 8.27 7.71 9.9
6/2/2021 4:30:00 PM 18.33 64.994 1.02 8.26 7.65 9.81
6/2/2021 4:45:00 PM 18.35 65.03 1.025 8.25 7.82 9.65
6/2/2021 5:00:00 PM 18.36 65.048 1.03 8.24 7.33 9.58
6/2/2021 5:15:00 PM 18.39 65.102 1.034 8.23 7.48 9.48
6/2/2021 5:30:00 PM 18.41 65.138 1.037 8.22 7.48 9.37
6/2/2021 5:45:00 PM 18.43 65.174 1.037 8.22 7.41 9.35
6/2/2021 6:00:00 PM 18.44 65.192 1.034 8.21 8.27 9.23
6/2/2021 6:15:00 PM 18.45 65.21 1.031 8.2 7.76 9.11
6/2/2021 6:30:00 PM 18.44 65.192 1.029 8.19 7.57 8.99
6/2/2021 6:45:00 PM 18.43 65.174 1.027 8.18 8.18 8.91
6/2/2021 7:00:00 PM 18.41 65.138 1.025 8.17 7.83 8.79
6/2/2021 7:15:00 PM 18.4 65.12 1.023 8.16 7.73 8.69
6/2/2021 7:30:00 PM 18.38 65.084 1.017 8.15 7.72 8.59
6/2/2021 7:45:00 PM 18.35 65.03 1.009 8.15 8.42 8.47
6/2/2021 8:00:00 PM 18.3 64.94 0.998 8.14 7.88 8.37
6/2/2021 8:15:00 PM 18.24 64.832 0.988 8.12 8.11 8.25
6/2/2021 8:30:00 PM 18.18 64.724 0.982 8.11 8.01 8.14
6/2/2021 8:45:00 PM 18.11 64.598 0.978 8.1 8.82 8.02
6/2/2021 9:00:00 PM 18.03 64.454 0.977 8.08 9.27 7.94
6/2/2021 9:15:00 PM 17.96 64.328 0.976 8.07 8.99 7.85
6/2/2021 9:30:00 PM 17.89 64.202 0.975 8.06 8.8 7.75
6/2/2021 9:45:00 PM 17.83 64.094 0.945 8.05 9.69 7.74
6/2/2021 10:00:00 PM 17.76 63.968 0.856 8.04 9.45 7.7
6/2/2021 10:15:00 PM 17.7 63.86 0.981 8.03 9.24 7.64
6/2/2021 10:30:00 PM 17.63 63.734 0.986 8.03 9.77 7.59
6/2/2021 10:45:00 PM 17.57 63.626 0.99 8.02 10.4 7.55
6/2/2021 11:00:00 PM 17.51 63.518 0.995 8.01 10.39 7.5
6/2/2021 11:15:00 PM 17.44 63.392 0.999 8 10.42 7.45
6/2/2021 11:30:00 PM 17.37 63.266 1.004 7.99 9.96 7.43
6/2/2021 11:45:00 PM 17.31 63.158 1.009 7.99 11.6 7.37
6/3/2021 12:00:00 AM 17.25 63.05 1.014 7.98 10.53 7.31
6/3/2021 12:15:00 AM 17.18 62.924 1.019 7.97 11.12 7.31
6/3/2021 12:30:00 AM 17.12 62.816 1.025 7.97 11.36 7.25
6/3/2021 12:45:00 AM 17.06 62.708 1.006 7.96 11.3 7.23
6/3/2021 1:00:00 AM 17 62.6 1.034 7.95 10.87 7.22
6/3/2021 1:15:00 AM 16.95 62.51 1.038 7.95 10.4 7.17
6/3/2021 1:30:00 AM 16.89 62.402 1.042 7.95 10.27 7.19
6/3/2021 1:45:00 AM 16.83 62.294 1.046 7.94 11.17 7.17
6/3/2021 2:00:00 AM 16.77 62.186 1.049 7.94 10.58 7.14
6/3/2021 2:15:00 AM 16.72 62.096 1.051 7.94 10.92 7.15
6/3/2021 2:30:00 AM 16.67 62.006 1.053 7.94 10.84 7.16
6/3/2021 2:45:00 AM 16.62 61.916 1.054 7.94 10.76 7.15
6/3/2021 3:00:00 AM 16.57 61.826 1.055 7.94 10.78 7.14
6/3/2021 3:15:00 AM 16.53 61.754 1.055 7.94 11 7.16
6/3/2021 3:30:00 AM 16.49 61.682 1.056 7.94 11.24 7.16
6/3/2021 3:45:00 AM 16.46 61.628 1.056 7.94 12.08 7.12
6/3/2021 4:00:00 AM 16.42 61.556 1.056 7.93 11.93 7.18
6/3/2021 4:15:00 AM 16.39 61.502 1.054 7.94 12.48 7.18
6/3/2021 4:30:00 AM 16.36 61.448 1.051 7.93 12.24 7.17
6/3/2021 4:45:00 AM 16.32 61.376 1.046 7.93 11.69 7.17
6/3/2021 5:00:00 AM 16.28 61.304 1.041 7.94 11.63 7.18
6/3/2021 5:15:00 AM 16.24 61.232 1.035 7.94 11.95 7.22
6/3/2021 5:30:00 AM 16.2 61.16 1.027 7.94 11.37 7.22
6/3/2021 5:45:00 AM 16.16 61.088 1.02 7.94 10.7 7.24
6/3/2021 6:00:00 AM 16.12 61.016 1.013 7.94 10.46 7.28
6/3/2021 6:15:00 AM 16.07 60.926 1.003 7.94 11.08 7.31
6/3/2021 6:30:00 AM 16.03 60.854 0.994 7.94 10.34 7.36
6/3/2021 6:45:00 AM 15.99 60.782 0.984 7.95 10.16 7.37
6/3/2021 7:00:00 AM 15.95 60.71 0.976 7.95 10.4 7.41
6/3/2021 7:15:00 AM 15.91 60.638 0.968 7.95 10.84 7.45
6/3/2021 7:30:00 AM 15.88 60.584 0.913 7.96 11.56 7.53
6/3/2021 7:45:00 AM 15.85 60.53 0.908 7.96 12.95 7.6
6/3/2021 8:00:00 AM 15.83 60.494 0.945 7.96 11.73 7.63
6/3/2021 8:15:00 AM 15.81 60.458 0.939 7.97 10.8 7.69
6/3/2021 8:30:00 AM 15.8 60.44 0.935 7.98 10.36 7.82
6/3/2021 8:45:00 AM 15.79 60.422 0.93 7.98 10.71 7.84
6/3/2021 9:00:00 AM 15.79 60.422 0.927 7.99 13.61 7.92
6/3/2021 9:15:00 AM 15.8 60.44 0.925 8 12.62 8.07
6/3/2021 9:30:00 AM 15.81 60.458 0.924 8.01 13.05 8.14
6/3/2021 9:45:00 AM 15.83 60.494 0.925 8.01 12.51 8.11
6/3/2021 10:00:00 AM 15.87 60.566 0.927 8.02 19.58 8.31
6/3/2021 10:15:00 AM 15.91 60.638 0.928 8.03 18.97 8.44
6/3/2021 10:30:00 AM 15.94 60.692 0.931 8.04 13.94 8.5
6/3/2021 10:45:00 AM 15.99 60.782 0.932 8.04 14.05 8.57
6/3/2021 11:00:00 AM 16.05 60.89 0.933 8.05 13.84 8.68
6/3/2021 11:15:00 AM 16.09 60.962 0.933 8.06 14.75 8.73
6/3/2021 11:30:00 AM 16.16 61.088 0.932 8.07 18.04 8.92
6/3/2021 11:45:00 AM 16.23 61.214 0.932 8.09 34.43 9.07
6/3/2021 12:00:00 PM 16.32 61.376 0.933 8.1 27.34 9.24
6/3/2021 12:15:00 PM 16.44 61.592 0.936 8.12 57.6 9.39
6/3/2021 12:30:00 PM 16.56 61.808 0.943 8.14 36.62 9.42
6/3/2021 12:45:00 PM 16.66 61.988 0.955 8.14 51.98 9.41
6/3/2021 1:00:00 PM 16.78 62.204 0.968 8.15 35.19 9.52
6/3/2021 1:15:00 PM 16.92 62.456 0.982 8.15 42.06 9.61
6/3/2021 1:30:00 PM 17.04 62.672 0.997 8.16 93.26 9.68
6/3/2021 1:45:00 PM 17.16 62.888 1.01 8.17 25.15 9.63
6/3/2021 2:00:00 PM 17.35 63.23 1.02 8.18 31.02 9.8
6/3/2021 2:15:00 PM 17.52 63.536 1.028 8.2 20.83 9.92
6/3/2021 2:30:00 PM 17.64 63.752 1.033 8.2 23.94 9.87
6/3/2021 2:45:00 PM 17.75 63.95 1.035 8.2 18.84 9.73
6/3/2021 3:00:00 PM 17.84 64.112 1.037 8.2 15.66 9.64
6/3/2021 3:15:00 PM 17.91 64.238 1.04 8.2 14.71 9.57
6/3/2021 3:30:00 PM 17.95 64.31 1.046 8.19 17.55 9.46
6/3/2021 3:45:00 PM 17.97 64.346 1.05 8.18 16.8 9.27
6/3/2021 4:00:00 PM 18.04 64.472 1.045 8.17 16.25 8.99
6/3/2021 4:15:00 PM 18.16 64.688 1.029 8.15 19.95 8.67
6/3/2021 4:30:00 PM 18.37 65.066 0.999 8.13 21.88 8.41
6/3/2021 4:45:00 PM 18.24 64.832 1.017 8.11 18.79 8.35
6/3/2021 5:00:00 PM 18.22 64.796 1.02 8.11 19.27 8.41
6/3/2021 5:15:00 PM 18.26 64.868 1.008 8.1 22.4 8.35
6/3/2021 5:30:00 PM 18.25 64.85 1.01 8.09 25.38 8.32
6/3/2021 5:45:00 PM 18.29 64.922 0.999 8.09 35.92 8.37
6/3/2021 6:00:00 PM 18.26 64.868 0.967 8.05 67.43 8.28
6/3/2021 6:15:00 PM 18.05 64.49 0.969 7.97 117.18 8.05
6/3/2021 6:30:00 PM 18.08 64.544 0.882 7.9 88.24 7.7
6/3/2021 6:45:00 PM 18.94 66.092 0.596 7.84 84 7.4
6/3/2021 7:00:00 PM 19.86 67.748 0.43 7.78 79 7.11
6/3/2021 7:15:00 PM 20.32 68.576 0.38 7.73 58.89 6.93
6/3/2021 7:30:00 PM 20.52 68.936 0.364 7.69 45.55 6.78
6/3/2021 7:45:00 PM 20.57 69.026 0.36 7.66 43.47 6.65
6/3/2021 8:00:00 PM 20.53 68.954 0.364 7.64 51.72 6.54
6/3/2021 8:15:00 PM 20.45 68.81 0.37 7.63 44.9 6.44
6/3/2021 8:30:00 PM 20.36 68.648 0.378 7.61 49.14 6.34
6/3/2021 8:45:00 PM 20.27 68.486 0.388 7.6 48.45 6.28
6/3/2021 9:00:00 PM 20.19 68.342 0.402 7.59 43.41 6.25
6/3/2021 9:15:00 PM 20.11 68.198 0.416 7.59 39.03 6.24
6/3/2021 9:30:00 PM 20.04 68.07201 0.428 7.59 39.81 6.22
6/3/2021 9:45:00 PM 19.97 67.946 0.442 7.59 34.4 6.2
6/3/2021 10:00:00 PM 19.9 67.82 0.456 7.59 33.6 6.2
6/3/2021 10:15:00 PM 19.83 67.694 0.471 7.59 33.85 6.13
6/3/2021 10:30:00 PM 19.76 67.568 0.484 7.59 33.36 6.13
6/3/2021 10:45:00 PM 19.68 67.424 0.496 7.6 31.38 6.11
6/3/2021 11:00:00 PM 19.6 67.28 0.511 7.6 28.81 6.12
6/3/2021 11:15:00 PM 19.51 67.118 0.53 7.6 27.26 6.11
6/3/2021 11:30:00 PM 19.4 66.92 0.554 7.61 24.26 6.14
6/3/2021 11:45:00 PM 19.27 66.686 0.58 7.62 23.95 6.14
6/4/2021 12:00:00 AM 19.14 66.452 0.602 7.62 22.32 6.19
6/4/2021 12:15:00 AM 18.99 66.182 0.62 7.63 21.4 6.23
6/4/2021 12:30:00 AM 18.85 65.93 0.64 7.64 28.38 6.27
6/4/2021 12:45:00 AM 18.71 65.67799 0.662 7.65 21.54 6.34
6/4/2021 1:00:00 AM 18.58 65.444 0.684 7.65 20.15 6.34
6/4/2021 1:15:00 AM 18.45 65.21 0.704 7.66 18.96 6.37
6/4/2021 1:30:00 AM 18.33 64.994 0.722 7.67 17.47 6.41
6/4/2021 1:45:00 AM 18.21 64.778 0.739 7.68 17.67 6.47
6/4/2021 2:00:00 AM 18.08 64.544 0.755 7.69 16.21 6.53
6/4/2021 2:15:00 AM 17.96 64.328 0.77 7.7 15.51 6.54
6/4/2021 2:30:00 AM 17.84 64.112 0.783 7.7 14.75 6.57
6/4/2021 2:45:00 AM 17.73 63.914 0.795 7.71 14.88 6.62
6/4/2021 3:00:00 AM 17.62 63.716 0.805 7.72 14.62 6.71
6/4/2021 3:15:00 AM 17.53 63.554 0.814 7.73 13.9 6.73
6/4/2021 3:30:00 AM 17.44 63.392 0.819 7.74 13.16 6.76
6/4/2021 3:45:00 AM 17.35 63.23 0.822 7.74 13.56 6.81
6/4/2021 4:00:00 AM 17.26 63.068 0.822 7.75 12.66 6.84
6/4/2021 4:15:00 AM 17.17 62.906 0.822 7.76 12.73 6.87
6/4/2021 4:30:00 AM 17.08 62.744 0.821 7.76 12.88 6.92
6/4/2021 4:45:00 AM 17 62.6 0.82 7.77 12.13 6.97
6/4/2021 5:00:00 AM 16.93 62.474 0.819 7.77 11.74 6.99
6/4/2021 5:15:00 AM 16.86 62.348 0.817 7.77 11.83 7.02
6/4/2021 5:30:00 AM 16.79 62.222 0.816 7.78 11.77 7.07
6/4/2021 5:45:00 AM 16.72 62.096 0.815 7.78 11.19 7.09
6/4/2021 6:00:00 AM 16.66 61.988 0.813 7.78 11.29 7.1
6/4/2021 6:15:00 AM 16.6 61.88 0.81 7.78 11.34 7.1
6/4/2021 6:30:00 AM 16.55 61.79 0.806 7.78 10.84 7.11
6/4/2021 6:45:00 AM 16.52 61.736 0.801 7.78 10.87 7.13
6/4/2021 7:00:00 AM 16.49 61.682 0.798 7.78 10.18 7.17
6/4/2021 7:15:00 AM 16.47 61.646 0.797 7.79 10.36 7.23
6/4/2021 7:30:00 AM 16.45 61.61 0.797 7.79 10.28 7.33
6/4/2021 7:45:00 AM 16.45 61.61 0.798 7.8 10.16 7.45
6/4/2021 8:00:00 AM 16.45 61.61 0.8 7.81 9.87 7.53
6/4/2021 8:15:00 AM 16.45 61.61 0.803 7.82 9.3 7.6
6/4/2021 8:30:00 AM 16.44 61.592 0.806 7.83 9.15 7.74
6/4/2021 8:45:00 AM 16.43 61.574 0.812 7.84 9.57 7.8
6/4/2021 9:00:00 AM 16.43 61.574 0.819 7.85 8.96 7.85
6/4/2021 9:15:00 AM 16.41 61.538 0.827 7.85 9.07 7.84
6/4/2021 9:30:00 AM 16.41 61.538 0.836 7.86 9.19 7.9
6/4/2021 9:45:00 AM 16.4 61.52 0.846 7.86 9.92 7.96
6/4/2021 10:00:00 AM 16.4 61.52 0.854 7.87 9.41 7.97
6/4/2021 10:15:00 AM 16.41 61.538 0.861 7.88 9.26 8.07
6/4/2021 10:30:00 AM 16.43 61.574 0.865 7.9 9.22 8.21
6/4/2021 10:45:00 AM 16.5 61.7 0.868 7.92 8.9 8.46
6/4/2021 11:00:00 AM 16.55 61.79 0.871 7.94 9.3 8.55
6/4/2021 11:15:00 AM 16.67 62.006 0.876 7.96 9.1 8.76
6/4/2021 11:30:00 AM 16.78 62.204 0.884 7.98 8.65 8.95
6/4/2021 11:45:00 AM 16.79 62.222 0.894 7.98 8.56 8.71
6/4/2021 12:00:00 PM 16.96 62.528 0.907 7.99 8.64 8.9
6/4/2021 12:15:00 PM 17.15 62.87 0.92 8.01 8.5 9.09
6/4/2021 12:30:00 PM 17.34 63.212 0.933 8.03 8.58 9.23
6/4/2021 12:45:00 PM 17.55 63.59 0.945 8.05 8.22 9.29
6/4/2021 1:00:00 PM 17.87 64.166 0.954 8.08 8.83 9.56
6/4/2021 1:15:00 PM 18.12 64.616 0.963 8.1 8.39 9.62
6/4/2021 1:30:00 PM 18.27 64.886 0.969 8.1 8.83 9.54
6/4/2021 1:45:00 PM 18.3 64.94 0.971 8.09 8.13 9.2
6/4/2021 2:00:00 PM 18.31 64.958 0.971 8.08 8.71 9.05
6/4/2021 2:15:00 PM 18.36 65.048 0.969 8.08 8.37 9.13
6/4/2021 2:30:00 PM 18.46 65.228 0.967 8.1 8.46 9.27
6/4/2021 2:45:00 PM 18.61 65.498 0.966 8.12 8.12 9.37
6/4/2021 3:00:00 PM 18.82 65.876 0.966 8.14 8.41 9.5
6/4/2021 3:15:00 PM 18.99 66.182 0.965 8.15 8.33 9.52
6/4/2021 3:30:00 PM 19.14 66.452 0.964 8.15 8.07 9.44
6/4/2021 3:45:00 PM 19.26 66.668 0.963 8.16 8.31 9.37
6/4/2021 4:00:00 PM 19.34 66.812 0.962 8.16 8.46 9.36
6/4/2021 4:15:00 PM 19.39 66.902 0.962 8.16 9.35 9.29
6/4/2021 4:30:00 PM 19.47 67.046 0.963 8.16 7.85 9.18
6/4/2021 4:45:00 PM 19.58 67.244 0.964 8.15 7.66 9.1
6/4/2021 5:00:00 PM 19.69 67.442 0.964 8.15 8.02 8.97
6/4/2021 5:15:00 PM 19.73 67.514 0.963 8.14 8.11 8.84
6/4/2021 5:30:00 PM 19.74 67.532 0.962 8.13 8.48 8.76
6/4/2021 5:45:00 PM 19.72 67.496 0.962 8.13 7.88 8.69
6/4/2021 6:00:00 PM 19.7 67.46 0.961 8.12 7.97 8.6
6/4/2021 6:15:00 PM 19.67 67.406 0.962 8.11 8.2 8.49
6/4/2021 6:30:00 PM 19.64 67.352 0.963 8.1 7.9 8.4
6/4/2021 6:45:00 PM 19.6 67.28 0.965 8.09 8.2 8.3
6/4/2021 7:00:00 PM 19.55 67.19 0.968 8.08 8.82 8.18
6/4/2021 7:15:00 PM 19.5 67.1 0.97 8.07 9.23 8.07
6/4/2021 7:30:00 PM 19.45 67.01 0.972 8.06 8.92 8.02
6/4/2021 7:45:00 PM 19.4 66.92 0.975 8.05 9.12 7.89
6/4/2021 8:00:00 PM 19.33 66.794 0.976 8.04 8.85 7.82
6/4/2021 8:15:00 PM 19.26 66.668 0.976 8.03 8.74 7.72
6/4/2021 8:30:00 PM 19.19 66.542 0.976 8.01 9.12 7.61
6/4/2021 8:45:00 PM 19.1 66.38 0.977 8 9.09 7.54
6/4/2021 9:00:00 PM 19.01 66.218 0.978 7.99 9.62 7.47
6/4/2021 9:15:00 PM 18.93 66.074 0.98 7.99 9.4 7.43
6/4/2021 9:30:00 PM 18.85 65.93 0.983 7.98 9.94 7.32
6/4/2021 9:45:00 PM 18.76 65.768 0.987 7.97 9.4 7.3
6/4/2021 10:00:00 PM 18.67 65.606 0.992 7.96 9.97 7.25
6/4/2021 10:15:00 PM 18.58 65.444 0.996 7.96 9.73 7.2
6/4/2021 10:30:00 PM 18.48 65.264 1.001 7.95 10.35 7.19
6/4/2021 10:45:00 PM 18.39 65.102 1.003 7.94 10.39 7.13
6/4/2021 11:00:00 PM 18.29 64.922 1.007 7.94 10.74 7.11
6/4/2021 11:15:00 PM 18.2 64.76 1.011 7.93 10.8 7.07
6/4/2021 11:30:00 PM 18.1 64.58 1.016 7.93 11.26 7.07
6/4/2021 11:45:00 PM 18.01 64.418 1.02 7.92 11.11 7.04
6/5/2021 12:00:00 AM 17.93 64.274 1.024 7.92 11.23 7.06
6/5/2021 12:15:00 AM 17.84 64.112 1.028 7.91 12.75 7
6/5/2021 12:30:00 AM 17.76 63.968 1.029 7.91 11.35 6.99
6/5/2021 12:45:00 AM 17.67 63.806 1.029 7.91 10.67 7
6/5/2021 1:00:00 AM 17.58 63.644 1.028 7.9 12.04 7.03
6/5/2021 1:15:00 AM 17.5 63.5 1.026 7.9 11.87 7.02
6/5/2021 1:30:00 AM 17.42 63.356 1.024 7.9 11.28 7.01
6/5/2021 1:45:00 AM 17.33 63.194 1.022 7.9 10.92 7.05
6/5/2021 2:00:00 AM 17.25 63.05 1.02 7.9 12.41 7.05
6/5/2021 2:15:00 AM 17.18 62.924 1.017 7.9 11.72 7.02
6/5/2021 2:30:00 AM 17.1 62.78 1.016 7.9 11.39 7.06
6/5/2021 2:45:00 AM 17.03 62.654 1.015 7.9 11.6 7.09
6/5/2021 3:00:00 AM 16.95 62.51 1.014 7.9 11.57 7.11
6/5/2021 3:15:00 AM 16.88 62.384 1.013 7.9 10.93 7.15
6/5/2021 3:30:00 AM 16.81 62.258 1.011 7.9 11.53 7.16
6/5/2021 3:45:00 AM 16.75 62.15 1.008 7.9 10.69 7.15
6/5/2021 4:00:00 AM 16.68 62.024 1.005 7.9 10.95 7.15
6/5/2021 4:15:00 AM 16.62 61.916 1.002 7.91 11.13 7.2
6/5/2021 4:30:00 AM 16.55 61.79 0.999 7.91 11.66 7.2
6/5/2021 4:45:00 AM 16.49 61.682 0.995 7.9 12.21 7.19
6/5/2021 5:00:00 AM 16.43 61.574 0.991 7.91 12.12 7.24
6/5/2021 5:15:00 AM 16.37 61.466 0.986 7.91 11.62 7.26
6/5/2021 5:30:00 AM 16.31 61.358 0.98 7.91 11.11 7.26
6/5/2021 5:45:00 AM 16.24 61.232 0.972 7.91 11.36 7.31
6/5/2021 6:00:00 AM 16.18 61.124 0.965 7.91 10.77 7.36
6/5/2021 6:15:00 AM 16.13 61.034 0.957 7.92 11.29 7.37
6/5/2021 6:30:00 AM 16.08 60.944 0.95 7.92 10.45 7.42
6/5/2021 6:45:00 AM 16.03 60.854 0.943 7.92 10.25 7.51
6/5/2021 7:00:00 AM 15.99 60.782 0.937 7.93 10.17 7.56
6/5/2021 7:15:00 AM 15.96 60.728 0.931 7.93 10.6 7.64
6/5/2021 7:30:00 AM 15.93 60.674 0.926 7.94 10.47 7.69
6/5/2021 7:45:00 AM 15.91 60.638 0.922 7.94 10.06 7.71
6/5/2021 8:00:00 AM 15.89 60.602 0.918 7.95 10.71 7.78
6/5/2021 8:15:00 AM 15.9 60.62 0.914 7.96 9.99 7.9
6/5/2021 8:30:00 AM 15.92 60.656 0.911 7.97 9.86 8.03
6/5/2021 8:45:00 AM 15.96 60.728 0.91 7.97 10.37 8.13
6/5/2021 9:00:00 AM 16.01 60.818 0.911 7.98 10.7 8.25
6/5/2021 9:15:00 AM 16.08 60.944 0.914 7.99 10.1 8.32
6/5/2021 9:30:00 AM 16.16 61.088 0.917 8 9.77 8.42
6/5/2021 9:45:00 AM 16.26 61.268 0.92 8.01 10.03 8.52
6/5/2021 10:00:00 AM 16.37 61.466 0.915 8.03 13.76 8.63
6/5/2021 10:15:00 AM 16.49 61.682 0.926 8.04 10.95 8.76
6/5/2021 10:30:00 AM 16.6 61.88 0.929 8.05 10.03 8.84
6/5/2021 10:45:00 AM 16.74 62.132 0.929 8.06 10.11 8.96
6/5/2021 11:00:00 AM 16.88 62.384 0.927 8.08 10.12 9.07
6/5/2021 11:15:00 AM 17.02 62.636 0.926 8.09 10.2 9.17
6/5/2021 11:30:00 AM 17.18 62.924 0.923 8.11 9.95 9.28
6/5/2021 11:45:00 AM 17.35 63.23 0.921 8.12 9.73 9.41
6/5/2021 12:00:00 PM 17.55 63.59 0.921 8.14 9.85 9.51
6/5/2021 12:15:00 PM 17.78 64.004 0.925 8.15 9.9 9.63
6/5/2021 12:30:00 PM 18.02 64.436 0.934 8.17 9.74 9.73
6/5/2021 12:45:00 PM 18.28 64.904 0.945 8.18 9.74 9.81
6/5/2021 1:00:00 PM 18.55 65.39 0.956 8.2 11.18 9.86
6/5/2021 1:15:00 PM 18.82 65.876 0.969 8.21 10.14 9.91
6/5/2021 1:30:00 PM 19.1 66.38 0.983 8.22 10.67 9.97
6/5/2021 1:45:00 PM 19.38 66.884 1 8.23 10.21 9.98
6/5/2021 2:00:00 PM 19.65 67.37 1.018 8.24 10.15 9.97
6/5/2021 2:15:00 PM 19.91 67.838 1.036 8.24 10.24 9.93
6/5/2021 2:30:00 PM 20.15 68.27 1.052 8.25 10.75 9.89
6/5/2021 2:45:00 PM 20.38 68.684 1.067 8.25 9.89 9.81
6/5/2021 3:00:00 PM 20.59 69.062 1.079 8.25 10.98 9.73
6/5/2021 3:15:00 PM 20.76 69.368 1.089 8.25 11.46 9.63
6/5/2021 3:30:00 PM 20.92 69.656 1.096 8.24 10.63 9.54
6/5/2021 3:45:00 PM 21.06 69.908 1.099 8.24 46.75 9.39
6/5/2021 4:00:00 PM 21.19 70.142 1.103 8.23 14.82 9.34
6/5/2021 4:15:00 PM 21.28 70.304 1.105 8.23 10.22 9.25
6/5/2021 4:30:00 PM 21.36 70.448 1.107 8.23 9.29 9.13
6/5/2021 4:45:00 PM 21.42 70.556 1.107 8.22 10.84 9.06
6/5/2021 5:00:00 PM 21.46 70.628 1.107 8.21 41.84 8.91
6/5/2021 5:15:00 PM 21.48 70.664 1.106 8.2 11.43 8.79
6/5/2021 5:30:00 PM 21.48 70.664 1.106 8.19 9.3 8.65
6/5/2021 5:45:00 PM 21.46 70.628 1.105 8.18 9.42 8.56
6/5/2021 6:00:00 PM 21.43 70.574 1.102 8.17 8.9 8.46
6/5/2021 6:15:00 PM 21.38 70.484 1.1 8.16 9.86 8.33
6/5/2021 6:30:00 PM 21.33 70.394 1.098 8.15 9.45 8.2
6/5/2021 6:45:00 PM 21.25 70.25 1.098 8.13 9.5 8.07
6/5/2021 7:00:00 PM 21.16 70.088 1.096 8.12 9.51 7.97
6/5/2021 7:15:00 PM 21.08 69.944 1.092 8.11 9.4 7.84
6/5/2021 7:30:00 PM 20.99 69.782 1.088 8.1 9.75 7.75
6/5/2021 7:45:00 PM 20.89 69.602 1.085 8.08 9.56 7.64
6/5/2021 8:00:00 PM 20.79 69.422 1.085 8.07 9.24 7.52
6/5/2021 8:15:00 PM 20.68 69.224 1.082 8.06 9.98 7.41
6/5/2021 8:30:00 PM 20.58 69.044 1.081 8.04 10.02 7.32
6/5/2021 8:45:00 PM 20.46 68.828 1.08 8.03 10.26 7.25
6/5/2021 9:00:00 PM 20.35 68.63 1.08 8.02 10.64 7.1
6/5/2021 9:15:00 PM 20.24 68.432 1.081 8.01 11.09 7.07
6/5/2021 9:30:00 PM 20.13 68.234 1.083 8 11.3 7.03
6/5/2021 9:45:00 PM 20.03 68.054 1.084 7.99 10.36 6.99
6/5/2021 10:00:00 PM 19.92 67.856 1.084 7.99 11.22 6.98
6/5/2021 10:15:00 PM 19.81 67.658 1.084 7.98 14.23 6.92
6/5/2021 10:30:00 PM 19.69 67.442 1.083 7.97 10.82 6.9
6/5/2021 10:45:00 PM 19.58 67.244 1.084 7.96 12.8 6.85
6/5/2021 11:00:00 PM 19.47 67.046 1.084 7.96 10.86 6.8
6/5/2021 11:15:00 PM 19.35 66.83 1.085 7.95 10.84 6.79
6/5/2021 11:30:00 PM 19.24 66.632 1.085 7.94 10.85 6.78
6/5/2021 11:45:00 PM 19.13 66.434 1.086 7.94 10.82 6.76
6/6/2021 12:00:00 AM 19.02 66.236 1.086 7.94 11.12 6.73
6/6/2021 12:15:00 AM 18.91 66.038 1.085 7.93 11.77 6.71
6/6/2021 12:30:00 AM 18.81 65.858 1.084 7.93 11.9 6.72
6/6/2021 12:45:00 AM 18.71 65.67799 1.084 7.92 87.72 6.71
6/6/2021 1:00:00 AM 18.61 65.498 1.083 7.92 100.02 6.71
6/6/2021 1:15:00 AM 18.51 65.318 1.082 7.92 98.22 6.72
6/6/2021 1:30:00 AM 18.41 65.138 1.08 7.92 41.9 6.7
6/6/2021 1:45:00 AM 18.32 64.976 1.079 7.91 60.53 6.71
6/6/2021 2:00:00 AM 18.22 64.796 1.077 7.91 62.99 6.74
6/6/2021 2:15:00 AM 18.13 64.634 1.075 7.91 176.22 6.74
6/6/2021 2:30:00 AM 18.04 64.472 1.074 7.91 149.61 6.75
6/6/2021 2:45:00 AM 17.94 64.292 1.073 7.91 145.9 6.76
6/6/2021 3:00:00 AM 17.86 64.148 1.072 7.91 108.64 6.79
6/6/2021 3:15:00 AM 17.78 64.004 1.072 7.9 123.44 6.81
6/6/2021 3:30:00 AM 17.7 63.86 1.073 7.9 135.93 6.86
6/6/2021 3:45:00 AM 17.62 63.716 1.072 7.9 128.35 6.82
6/6/2021 4:00:00 AM 17.55 63.59 1.072 7.9 143.81 6.84
6/6/2021 4:15:00 AM 17.47 63.446 1.071 7.9 152.82 6.87
6/6/2021 4:30:00 AM 17.4 63.32 1.067 7.9 163.23 6.9
6/6/2021 4:45:00 AM 17.32 63.176 1.063 7.9 105.68 6.91
6/6/2021 5:00:00 AM 17.25 63.05 1.057 7.9 134.46 6.93
6/6/2021 5:15:00 AM 17.18 62.924 1.052 7.91 150.78 7
6/6/2021 5:30:00 AM 17.11 62.798 1.045 7.91 166.82 7.01
6/6/2021 5:45:00 AM 17.04 62.672 1.037 7.91 169.08 7.02
6/6/2021 6:00:00 AM 16.97 62.546 1.03 7.91 200.82 7.1
6/6/2021 6:15:00 AM 16.9 62.42 1.021 7.91 111.86 7.13
6/6/2021 6:30:00 AM 16.84 62.312 1.014 7.91 145.51 7.15
6/6/2021 6:45:00 AM 16.78 62.204 1.004 7.91 139.85 7.21
6/6/2021 7:00:00 AM 16.72 62.096 0.995 7.92 152.91 7.25
6/6/2021 7:15:00 AM 16.67 62.006 0.985 7.92 153.87 7.34
6/6/2021 7:30:00 AM 16.62 61.916 0.975 7.93 157.74 7.39
6/6/2021 7:45:00 AM 16.58 61.844 0.966 7.93 142.07 7.51
6/6/2021 8:00:00 AM 16.55 61.79 0.958 7.94 142.91 7.59
6/6/2021 8:15:00 AM 16.55 61.79 0.951 7.94 129.22 7.68
6/6/2021 8:30:00 AM 16.56 61.808 0.946 7.95 152.36 7.9
6/6/2021 8:45:00 AM 16.58 61.844 0.942 7.96 147.85 8.03
6/6/2021 9:00:00 AM 16.61 61.898 0.938 7.98 130.55 8.15
6/6/2021 9:15:00 AM 16.66 61.988 0.936 7.99 120.35 8.26
6/6/2021 9:30:00 AM 16.71 62.078 0.935 8 125.67 8.37
6/6/2021 9:45:00 AM 16.78 62.204 0.935 8.01 114.73 8.48
6/6/2021 10:00:00 AM 16.88 62.384 0.932 8.02 115.36 8.6
6/6/2021 10:15:00 AM 16.99 62.582 0.939 8.03 290.88 8.73
6/6/2021 10:30:00 AM 17.1 62.78 0.942 8.04 107.65 8.85
6/6/2021 10:45:00 AM 17.22 62.996 0.944 8.05 153.26 8.98
6/6/2021 11:00:00 AM 17.35 63.23 0.946 8.07 122.69 9.06
6/6/2021 11:15:00 AM 17.49 63.482 0.947 8.08 88.21 9.19
6/6/2021 11:30:00 AM 17.64 63.752 0.945 8.09 89.02 9.3
6/6/2021 11:45:00 AM 17.82 64.076 0.942 8.11 88.79 9.4
6/6/2021 12:00:00 PM 18 64.4 0.939 8.13 105.55 9.52
6/6/2021 12:15:00 PM 18.21 64.778 0.937 8.15 334.34 9.64
6/6/2021 12:30:00 PM 18.43 65.174 0.936 8.16 91.97 9.77
6/6/2021 12:45:00 PM 18.66 65.588 0.938 8.18 99.26 9.86
6/6/2021 1:00:00 PM 18.89 66.002 0.943 8.19 105.46 9.93
6/6/2021 1:15:00 PM 19.14 66.452 0.951 8.21 104.5 10.01
6/6/2021 1:30:00 PM 19.4 66.92 0.963 8.22 113.99 10.06
6/6/2021 1:45:00 PM 19.67 67.406 0.977 8.23 106.1 10.1
6/6/2021 2:00:00 PM 19.92 67.856 0.99 8.24 114.35 10.09
6/6/2021 2:15:00 PM 20.16 68.288 1.003 8.25 124.16 10.06
6/6/2021 2:30:00 PM 20.36 68.648 1.013 8.25 126.21 9.93
6/6/2021 2:45:00 PM 20.57 69.026 1.022 8.25 113.87 9.84
6/6/2021 3:00:00 PM 20.75 69.35 1.028 8.25 108.94 9.78
6/6/2021 3:15:00 PM 20.96 69.728 1.035 8.25 101.06 9.74
6/6/2021 3:30:00 PM 21.15 70.07 1.042 8.25 119.03 9.69
6/6/2021 3:45:00 PM 21.34 70.412 1.048 8.25 53.72 9.63
6/6/2021 4:00:00 PM 21.48 70.664 1.053 8.25 63.2 9.52
6/6/2021 4:15:00 PM 21.62 70.916 1.057 8.25 44.84 9.44
6/6/2021 4:30:00 PM 21.7 71.06 1.061 8.24 49.79 9.28
6/6/2021 4:45:00 PM 21.75 71.15 1.063 8.23 39.16 9.11
6/6/2021 5:00:00 PM 21.8 71.24 1.064 8.22 31.33 9.01
6/6/2021 5:15:00 PM 21.77 71.186 1.064 8.2 62.04 8.75
6/6/2021 5:30:00 PM 21.74 71.132 1.064 8.19 35.25 8.66
6/6/2021 5:45:00 PM 21.7 71.06 1.063 8.18 30.97 8.56
6/6/2021 6:00:00 PM 21.67 71.006 1.063 8.16 56.7 8.44
6/6/2021 6:15:00 PM 21.62 70.916 1.063 8.15 68.21 8.35
6/6/2021 6:30:00 PM 21.54 70.772 1.064 8.14 59.85 8.15
6/6/2021 6:45:00 PM 21.48 70.664 1.063 8.13 67.1 8.11
6/6/2021 7:00:00 PM 21.4 70.52 1.063 8.12 68.8 8
6/6/2021 7:15:00 PM 21.3 70.34 1.063 8.1 77.62 7.83
6/6/2021 7:30:00 PM 21.21 70.17799 1.064 8.09 85.67 7.71
6/6/2021 7:45:00 PM 21.11 69.998 1.065 8.07 43.6 7.61
6/6/2021 8:00:00 PM 21 69.8 1.065 8.06 231.14 7.54
6/6/2021 8:15:00 PM 20.9 69.62 1.066 8.04 75.02 7.41
6/6/2021 8:30:00 PM 20.8 69.44 1.066 8.03 66.85 7.25
6/6/2021 8:45:00 PM 20.71 69.278 1.067 8.02 53.27 7.18
6/6/2021 9:00:00 PM 20.6 69.08 1.067 8.01 47.88 7.12
6/6/2021 9:15:00 PM 20.5 68.9 1.067 8 60.99 7.04
6/6/2021 9:30:00 PM 20.39 68.702 1.068 7.99 11.32 6.96
6/6/2021 9:45:00 PM 20.27 68.486 1.068 7.98 13.89 6.96
6/6/2021 10:00:00 PM 20.16 68.288 1.068 7.97 13.67 6.82
6/6/2021 10:15:00 PM 20.05 68.09 1.068 7.97 19.87 6.79
6/6/2021 10:30:00 PM 19.94 67.892 1.069 7.96 11.33 6.74
6/6/2021 10:45:00 PM 19.82 67.676 1.07 7.95 13.2 6.74
6/6/2021 11:00:00 PM 19.71 67.478 1.072 7.94 21.56 6.73
6/6/2021 11:15:00 PM 19.6 67.28 1.073 7.94 41.34 6.77
6/6/2021 11:30:00 PM 19.5 67.1 1.075 7.94 50.36 6.77
6/6/2021 11:45:00 PM 19.39 66.902 1.077 7.93 50.93 6.74
6/7/2021 12:00:00 AM 19.29 66.722 1.079 7.92 57.65 6.73
6/7/2021 12:15:00 AM 19.19 66.542 1.081 7.92 40.98 6.73
6/7/2021 12:30:00 AM 19.09 66.362 1.084 7.91 51.98 6.71
6/7/2021 12:45:00 AM 19 66.2 1.087 7.91 66.64 6.71
6/7/2021 1:00:00 AM 18.91 66.038 1.091 7.91 69.71 6.7
6/7/2021 1:15:00 AM 18.83 65.894 1.094 7.91 11.21 6.61
6/7/2021 1:30:00 AM 18.75 65.75 1.097 7.91 15.76 6.69
6/7/2021 1:45:00 AM 18.68 65.624 1.099 7.9 11.61 6.7
6/7/2021 2:00:00 AM 18.6 65.48 1.101 7.9 11.09 6.7
6/7/2021 2:15:00 AM 18.52 65.336 1.104 7.9 11.39 6.72
6/7/2021 2:30:00 AM 18.45 65.21 1.105 7.9 11.92 6.71
6/7/2021 2:45:00 AM 18.38 65.084 1.105 7.9 11.41 6.72
6/7/2021 3:00:00 AM 18.31 64.958 1.104 7.9 10.98 6.74
6/7/2021 3:15:00 AM 18.23 64.814 1.103 7.9 11.42 6.77
6/7/2021 3:30:00 AM 18.16 64.688 1.1 7.9 12.09 6.78
6/7/2021 3:45:00 AM 18.1 64.58 1.098 7.9 11.3 6.79
6/7/2021 4:00:00 AM 18.04 64.472 1.095 7.9 11.52 6.8
6/7/2021 4:15:00 AM 17.98 64.364 1.092 7.9 11.6 6.82
6/7/2021 4:30:00 AM 17.91 64.238 1.088 7.9 11.4 6.84
6/7/2021 4:45:00 AM 17.85 64.13 1.083 7.9 11.28 6.85
6/7/2021 5:00:00 AM 17.79 64.022 1.077 7.9 11.38 6.88
6/7/2021 5:15:00 AM 17.73 63.914 1.069 7.9 11.77 6.89
6/7/2021 5:30:00 AM 17.67 63.806 1.06 7.9 11.69 6.92
6/7/2021 5:45:00 AM 17.6 63.68 1.05 7.9 11.37 6.95
6/7/2021 6:00:00 AM 17.53 63.554 1.039 7.9 11.01 6.98
6/7/2021 6:15:00 AM 17.47 63.446 1.028 7.9 10.72 7.03
6/7/2021 6:30:00 AM 17.4 63.32 1.016 7.91 10.6 7.09
6/7/2021 6:45:00 AM 17.34 63.212 1.004 7.91 10.69 7.14
6/7/2021 7:00:00 AM 17.28 63.104 0.992 7.91 10.43 7.23
6/7/2021 7:15:00 AM 17.22 62.996 0.981 7.92 10.34 7.31
6/7/2021 7:30:00 AM 17.18 62.924 0.97 7.93 10.04 7.45
6/7/2021 7:45:00 AM 17.15 62.87 0.96 7.94 9.46 7.57
6/7/2021 8:00:00 AM 17.12 62.816 0.951 7.94 9.9 7.68
6/7/2021 8:15:00 AM 17.1 62.78 0.943 7.95 9.96 7.77
6/7/2021 8:30:00 AM 17.11 62.798 0.936 7.96 9.73 7.88
6/7/2021 8:45:00 AM 17.15 62.87 0.931 7.98 9.87 8.09
6/7/2021 9:00:00 AM 17.15 62.87 0.927 7.99 9.54 8.17
6/7/2021 9:15:00 AM 17.18 62.924 0.926 8 9.57 8.29
6/7/2021 9:30:00 AM 17.23 63.014 0.926 8.01 9.53 8.43
6/7/2021 9:45:00 AM 17.3 63.14 0.928 8.02 9.52 8.63
6/7/2021 10:00:00 AM 17.32 63.176 0.929 8.03 9.48 8.64
6/7/2021 10:15:00 AM 17.44 63.392 0.932 8.04 9.65 8.81
6/7/2021 10:30:00 AM 17.55 63.59 0.934 8.06 9.68 8.92
6/7/2021 10:45:00 AM 17.67 63.806 0.937 8.07 11.93 9.01
6/7/2021 11:00:00 AM 17.83 64.094 0.94 8.08 11.18 9.13
6/7/2021 11:15:00 AM 18 64.4 0.943 8.09 10.84 9.27
6/7/2021 11:30:00 AM 18.11 64.598 0.944 8.11 10.82 9.35
6/7/2021 11:45:00 AM 18.26 64.868 0.946 8.13 11.35 9.47
6/7/2021 12:00:00 PM 18.45 65.21 0.948 8.14 11.27 9.61
6/7/2021 12:15:00 PM 18.62 65.516 0.952 8.16 9.9 9.74
6/7/2021 12:30:00 PM 18.85 65.93 0.959 8.18 9.89 9.89
6/7/2021 12:45:00 PM 19.07 66.326 0.97 8.2 9.9 9.96
6/7/2021 1:00:00 PM 19.34 66.812 0.983 8.21 10.6 10.01
6/7/2021 1:15:00 PM 19.63 67.334 0.996 8.23 11.13 10.09
6/7/2021 1:30:00 PM 19.87 67.766 1.008 8.24 10.24 10.11
6/7/2021 1:45:00 PM 20.1 68.18 1.018 8.25 10 10.11
6/7/2021 2:00:00 PM 20.31 68.558 1.026 8.26 9.21 10.09
6/7/2021 2:15:00 PM 20.46 68.828 1.031 8.26 9.08 10.02
6/7/2021 2:30:00 PM 20.69 69.242 1.033 8.27 9.11 10.03
6/7/2021 2:45:00 PM 20.88 69.584 1.033 8.28 9.3 9.97
6/7/2021 3:00:00 PM 21.09 69.962 1.033 8.28 9.31 9.88
6/7/2021 3:15:00 PM 21.28 70.304 1.032 8.28 9.35 9.82
6/7/2021 3:30:00 PM 21.44 70.592 1.032 8.28 9.18 9.73
6/7/2021 3:45:00 PM 21.59 70.862 1.032 8.28 8.97 9.65
6/7/2021 4:00:00 PM 21.71 71.078 1.032 8.28 9.03 9.54
6/7/2021 4:15:00 PM 21.79 71.222 1.033 8.27 9 9.41
6/7/2021 4:30:00 PM 21.84 71.312 1.034 8.26 8.86 9.24
6/7/2021 4:45:00 PM 21.91 71.438 1.036 8.26 8.81 9.19
6/7/2021 5:00:00 PM 21.94 71.492 1.039 8.25 8.92 9.06
6/7/2021 5:15:00 PM 21.96 71.528 1.041 8.24 8.79 8.92
6/7/2021 5:30:00 PM 21.97 71.546 1.043 8.23 8.86 8.83
6/7/2021 5:45:00 PM 21.97 71.546 1.044 8.22 8.71 8.67
6/7/2021 6:00:00 PM 22 71.6 1.044 8.21 9.47 8.62
6/7/2021 6:15:00 PM 21.97 71.546 1.043 8.2 8.93 8.46
6/7/2021 6:30:00 PM 21.95 71.51 1.043 8.18 9.15 8.34
6/7/2021 6:45:00 PM 21.9 71.42 1.042 8.17 8.85 8.2
6/7/2021 7:00:00 PM 21.84 71.312 1.042 8.15 8.85 8.03
6/7/2021 7:15:00 PM 21.76 71.168 1.043 8.14 9.05 7.89
6/7/2021 7:30:00 PM 21.69 71.042 1.044 8.12 8.96 7.77
6/7/2021 7:45:00 PM 21.63 70.934 1.044 8.11 9.14 7.66
6/7/2021 8:00:00 PM 21.57 70.826 1.045 8.09 9.22 7.55
6/7/2021 8:15:00 PM 21.5 70.7 1.045 8.08 9.07 7.44
6/7/2021 8:30:00 PM 21.43 70.574 1.046 8.07 9.55 7.33
6/7/2021 8:45:00 PM 21.34 70.412 1.047 8.05 9.48 7.22
6/7/2021 9:00:00 PM 21.25 70.25 1.049 8.04 10.13 7.11
6/7/2021 9:15:00 PM 21.14 70.052 1.051 8.02 10.86 7.02
6/7/2021 9:30:00 PM 21.03 69.854 1.054 8.01 11.48 6.92
6/7/2021 9:45:00 PM 20.93 69.674 1.057 7.99 12.01 6.84
6/7/2021 10:00:00 PM 20.82 69.476 1.06 7.99 13.37 6.79
6/7/2021 10:15:00 PM 20.71 69.278 1.065 7.98 12.12 6.76
6/7/2021 10:30:00 PM 20.61 69.098 1.071 7.97 12.17 6.74
6/7/2021 10:45:00 PM 20.51 68.918 1.077 7.96 11.17 6.7
6/7/2021 11:00:00 PM 20.41 68.738 1.083 7.95 11.29 6.66
6/7/2021 11:15:00 PM 20.3 68.54 1.089 7.95 272.09 6.64
6/7/2021 11:30:00 PM 20.2 68.36 1.094 7.94 849.28 6.6
6/7/2021 11:45:00 PM 20.1 68.18 1.1 7.93 1067.82 6.57
6/8/2021 12:00:00 AM 20 68 1.104 7.93 975.03 6.54
6/8/2021 12:15:00 AM 19.9 67.82 1.107 7.92 1118.49 6.49
6/8/2021 12:30:00 AM 19.81 67.658 1.108 7.91 1085.45 6.5
6/8/2021 12:45:00 AM 19.72 67.496 1.107 7.91 836.68 6.49
6/8/2021 1:00:00 AM 19.62 67.316 1.106 7.9 727.97 6.51
6/8/2021 1:15:00 AM 19.54 67.172 1.104 7.9 763.24 6.48
6/8/2021 1:30:00 AM 19.46 67.028 1.103 7.9 806.48 6.48
6/8/2021 1:45:00 AM 19.38 66.884 1.103 7.89 727.92 6.49
6/8/2021 2:00:00 AM 19.3 66.74 1.104 7.89 741.71 6.49
6/8/2021 2:15:00 AM 19.22 66.596 1.105 7.89 822.96 6.49
6/8/2021 2:30:00 AM 19.15 66.47 1.106 7.89 819.71 6.5
6/8/2021 2:45:00 AM 19.08 66.344 1.106 7.89 762.12 6.51
6/8/2021 3:00:00 AM 19.02 66.236 1.106 7.88 773.62 6.51
6/8/2021 3:15:00 AM 18.96 66.128 1.106 7.88 858.59 6.5
6/8/2021 3:30:00 AM 18.91 66.038 1.106 7.88 790.18 6.52
6/8/2021 3:45:00 AM 18.85 65.93 1.106 7.88 684.64 6.54
6/8/2021 4:00:00 AM 18.8 65.84 1.106 7.88 18.03 6.51
6/8/2021 4:15:00 AM 18.74 65.732 1.105 7.88 14.47 6.56
6/8/2021 4:30:00 AM 18.69 65.642 1.104 7.88 13.66 6.55
6/8/2021 4:45:00 AM 18.64 65.552 1.101 7.88 13.91 6.57
6/8/2021 5:00:00 AM 18.59 65.462 1.098 7.88 14.31 6.58
6/8/2021 5:15:00 AM 18.53 65.354 1.093 7.88 14.94 6.61
6/8/2021 5:30:00 AM 18.48 65.264 1.088 7.88 15.07 6.62
6/8/2021 5:45:00 AM 18.42 65.156 1.082 7.88 14.15 6.64
6/8/2021 6:00:00 AM 18.36 65.048 1.074 7.88 13.89 6.68
6/8/2021 6:15:00 AM 18.3 64.94 1.066 7.88 13.81 6.73
6/8/2021 6:30:00 AM 18.24 64.832 1.057 7.89 13.47 6.78
6/8/2021 6:45:00 AM 18.19 64.742 1.047 7.89 12.95 6.86
6/8/2021 7:00:00 AM 18.14 64.652 1.038 7.89 13.36 6.96
6/8/2021 7:15:00 AM 18.09 64.562 1.029 7.9 12.52 7.07
6/8/2021 7:30:00 AM 18.04 64.472 1.02 7.9 13.23 7.17
6/8/2021 7:45:00 AM 18 64.4 1.011 7.91 12.96 7.29
6/8/2021 8:00:00 AM 17.97 64.346 1.004 7.92 12.92 7.38
6/8/2021 8:15:00 AM 17.95 64.31 0.996 7.93 12.48 7.52
6/8/2021 8:30:00 AM 17.94 64.292 0.991 7.94 13.07 7.65
6/8/2021 8:45:00 AM 17.92 64.256 0.985 7.95 12.55 7.72
6/8/2021 9:00:00 AM 17.93 64.274 0.98 7.96 12.64 7.89
6/8/2021 9:15:00 AM 17.95 64.31 0.976 7.98 12.03 8.1
6/8/2021 9:30:00 AM 17.97 64.346 0.973 7.99 11.84 8.19
6/8/2021 9:45:00 AM 18 64.4 0.972 8.01 11.82 8.34
6/8/2021 10:00:00 AM 18.04 64.472 0.973 8.01 12.05 8.41
6/8/2021 10:15:00 AM 18.06 64.508 0.975 8.02 11.57 8.43
6/8/2021 10:30:00 AM 18.07 64.526 0.979 8.02 11.76 8.49
6/8/2021 10:45:00 AM 18.08 64.544 0.983 8.03 11.28 8.56
6/8/2021 11:00:00 AM 18.12 64.616 0.986 8.04 11.52 8.7
6/8/2021 11:15:00 AM 18.17 64.706 0.987 8.06 11.37 8.88
6/8/2021 11:30:00 AM 18.24 64.832 0.986 8.07 11.65 8.99
6/8/2021 11:45:00 AM 18.4 65.12 0.984 8.1 11.3 9.22
6/8/2021 12:00:00 PM 18.56 65.408 0.983 8.12 11.09 9.38
6/8/2021 12:15:00 PM 18.73 65.714 0.984 8.14 11.35 9.52
6/8/2021 12:30:00 PM 18.92 66.056 0.989 8.16 11.64 9.65
6/8/2021 12:45:00 PM 19.18 66.524 0.999 8.19 11.22 9.83
6/8/2021 1:00:00 PM 19.34 66.812 1.015 8.19 10.83 9.78
6/8/2021 1:15:00 PM 19.48 67.064 1.034 8.2 10.53 9.74
6/8/2021 1:30:00 PM 19.55 67.19 1.054 8.18 10.75 9.47
6/8/2021 1:45:00 PM 19.68 67.424 1.075 8.18 10.98 9.42
6/8/2021 2:00:00 PM 19.75 67.55 1.094 8.17 10.72 9.22
6/8/2021 2:15:00 PM 19.94 67.892 1.109 8.18 10.74 9.38
6/8/2021 2:30:00 PM 20.11 68.198 1.118 8.19 10.77 9.54
6/8/2021 2:45:00 PM 20.25 68.45 1.123 8.2 11.51 9.5
6/8/2021 3:00:00 PM 20.41 68.738 1.125 8.21 10.84 9.42
6/8/2021 3:15:00 PM 20.56 69.008 1.128 8.21 10.75 9.4
6/8/2021 3:30:00 PM 20.66 69.188 1.134 8.21 10.43 9.3
6/8/2021 3:45:00 PM 20.7 69.26 1.142 8.2 10.49 9.08
6/8/2021 4:00:00 PM 20.72 69.296 1.152 8.18 10.38 8.85
6/8/2021 4:15:00 PM 20.73 69.314 1.161 8.17 10.46 8.73
6/8/2021 4:30:00 PM 20.74 69.332 1.169 8.16 10.51 8.63
6/8/2021 4:45:00 PM 20.75 69.35 1.175 8.15 10.1 8.51
6/8/2021 5:00:00 PM 20.79 69.422 1.178 8.15 10 8.49
6/8/2021 5:15:00 PM 20.81 69.458 1.179 8.14 10.19 8.31
6/8/2021 5:30:00 PM 20.83 69.494 1.166 8.13 10.72 8.11
6/8/2021 5:45:00 PM 20.84 69.512 1.142 8.13 12.23 7.95
6/8/2021 6:00:00 PM 21.24 70.232 1.041 8.11 17.72 7.6
6/8/2021 6:15:00 PM 21.08 69.944 1.05 8.09 15.12 7.5
6/8/2021 6:30:00 PM 20.85 69.53 1.072 8.08 14.8 7.63
6/8/2021 6:45:00 PM 20.75 69.35 1.055 8.07 18.96 7.63
6/8/2021 7:00:00 PM 20.68 69.224 1.028 8.06 30.99 7.62
6/8/2021 7:15:00 PM 20.71 69.278 0.914 8 88.21 7.41
6/8/2021 7:30:00 PM 20.13 68.234 0.944 7.92 102.93 7.28
6/8/2021 7:45:00 PM 20.37 68.666 0.791 7.86 107.65 7.1
6/8/2021 8:00:00 PM 21.88 71.384 0.471 7.8 112.83 6.77
6/8/2021 8:15:00 PM 22.93 73.274 0.345 7.73 82.4 6.5
6/8/2021 8:30:00 PM 23.23 73.814 0.318 7.67 96.71 6.32
6/8/2021 8:45:00 PM 23.25 73.85 0.317 7.63 84.19 6.2
6/8/2021 9:00:00 PM 23.23 73.814 0.32 7.6 62.2 6.06
6/8/2021 9:15:00 PM 23.19 73.742 0.325 7.58 66.34 5.95
6/8/2021 9:30:00 PM 23.15 73.67 0.33 7.56 60.18 5.78
6/8/2021 9:45:00 PM 23.1 73.58 0.336 7.56 54.69 5.67
6/8/2021 10:00:00 PM 23.03 73.454 0.346 7.55 58.24 5.56
6/8/2021 10:15:00 PM 22.96 73.328 0.358 7.54 50 5.47
6/8/2021 10:30:00 PM 22.87 73.166 0.37 7.54 50.91 5.4
6/8/2021 10:45:00 PM 22.77 72.986 0.385 7.54 47.26 5.35
6/8/2021 11:00:00 PM 22.66 72.788 0.4 7.54 46.19 5.33
6/8/2021 11:15:00 PM 22.53 72.554 0.417 7.54 41.2 5.34
6/8/2021 11:30:00 PM 22.4 72.32 0.436 7.55 45.8 5.35
6/8/2021 11:45:00 PM 22.26 72.068 0.457 7.55 38.96 5.37
6/9/2021 12:00:00 AM 22.11 71.798 0.479 7.56 42.22 5.41
6/9/2021 12:15:00 AM 21.96 71.528 0.503 7.56 31.87 5.41
6/9/2021 12:30:00 AM 21.81 71.258 0.523 7.57 30.14 5.46
6/9/2021 12:45:00 AM 21.65 70.97 0.539 7.58 25.17 5.44
6/9/2021 1:00:00 AM 21.48 70.664 0.555 7.59 23.83 5.42
6/9/2021 1:15:00 AM 21.31 70.358 0.574 7.59 24.1 5.52
6/9/2021 1:30:00 AM 21.13 70.034 0.595 7.6 22.1 5.56
6/9/2021 1:45:00 AM 20.94 69.692 0.617 7.61 19.28 5.63
6/9/2021 2:00:00 AM 20.76 69.368 0.637 7.62 18.22 5.67
6/9/2021 2:15:00 AM 20.58 69.044 0.655 7.63 17.84 5.77
6/9/2021 2:30:00 AM 20.4 68.72 0.669 7.64 17.52 5.83
6/9/2021 2:45:00 AM 20.23 68.414 0.681 7.65 16.42 5.9
6/9/2021 3:00:00 AM 20.06 68.108 0.693 7.66 16.07 5.92
6/9/2021 3:15:00 AM 19.89 67.802 0.706 7.67 15.84 6.02
6/9/2021 3:30:00 AM 19.74 67.532 0.718 7.68 15.54 6.1
6/9/2021 3:45:00 AM 19.58 67.244 0.729 7.68 15.46 6.13
6/9/2021 4:00:00 AM 19.43 66.974 0.737 7.69 15.58 6.17
6/9/2021 4:15:00 AM 19.29 66.722 0.743 7.7 15.25 6.25
6/9/2021 4:30:00 AM 19.15 66.47 0.747 7.71 14.8 6.27
6/9/2021 4:45:00 AM 19.02 66.236 0.749 7.71 15.39 6.32
6/9/2021 5:00:00 AM 18.89 66.002 0.751 7.72 14.96 6.4
6/9/2021 5:15:00 AM 18.77 65.786 0.753 7.72 14.26 6.43
6/9/2021 5:30:00 AM 18.64 65.552 0.755 7.73 13.99 6.48
6/9/2021 5:45:00 AM 18.52 65.336 0.758 7.73 14.02 6.52
6/9/2021 6:00:00 AM 18.41 65.138 0.76 7.74 13.85 6.57
6/9/2021 6:15:00 AM 18.3 64.94 0.763 7.75 13.53 6.63
6/9/2021 6:30:00 AM 18.2 64.76 0.767 7.76 14.2 6.67
6/9/2021 6:45:00 AM 18.1 64.58 0.773 7.76 14.39 6.75
6/9/2021 7:00:00 AM 18.02 64.436 0.779 7.77 14.58 6.8
6/9/2021 7:15:00 AM 17.94 64.292 0.784 7.77 13.78 6.86
6/9/2021 7:30:00 AM 17.87 64.166 0.789 7.78 13.4 6.92
6/9/2021 7:45:00 AM 17.82 64.076 0.795 7.79 15.12 7.03
6/9/2021 8:00:00 AM 17.78 64.004 0.801 7.8 13.33 7.14
6/9/2021 8:15:00 AM 17.75 63.95 0.807 7.81 13.05 7.26
6/9/2021 8:30:00 AM 17.72 63.896 0.813 7.83 13.05 7.39
6/9/2021 8:45:00 AM 17.7 63.86 0.818 7.84 13.11 7.46
6/9/2021 9:00:00 AM 17.69 63.842 0.822 7.85 13.09 7.61
6/9/2021 9:15:00 AM 17.68 63.824 0.825 7.86 13.4 7.7
6/9/2021 9:30:00 AM 17.68 63.824 0.826 7.87 13.87 7.75
6/9/2021 9:45:00 AM 17.7 63.86 0.827 7.88 13.2 7.88
6/9/2021 10:00:00 AM 17.7 63.86 0.828 7.89 13.03 8.01
6/9/2021 10:15:00 AM 17.73 63.914 0.83 7.9 12.98 8.13
6/9/2021 10:30:00 AM 17.76 63.968 0.833 7.92 13.19 8.23
6/9/2021 10:45:00 AM 17.82 64.076 0.839 7.93 12.87 8.4
6/9/2021 11:00:00 AM 17.87 64.166 0.847 7.95 12.72 8.43
6/9/2021 11:15:00 AM 18 64.4 0.855 7.96 12.97 8.6
6/9/2021 11:30:00 AM 18.14 64.652 0.864 7.98 12.79 8.74
6/9/2021 11:45:00 AM 18.28 64.904 0.876 8 15.01 8.83
6/9/2021 12:00:00 PM 18.47 65.246 0.888 8.02 136.77 8.88
6/9/2021 12:15:00 PM 18.64 65.552 0.9 8.02 11.97 8.92
6/9/2021 12:30:00 PM 18.71 65.67799 0.91 8.03 11.74 8.93
6/9/2021 12:45:00 PM 18.78 65.804 0.918 8.03 11.7 8.88
6/9/2021 1:00:00 PM 18.92 66.056 0.924 8.04 11.54 8.99
6/9/2021 1:15:00 PM 18.99 66.182 0.927 8.04 11.67 8.93
6/9/2021 1:30:00 PM 19.06 66.308 0.929 8.04 11.97 8.84
6/9/2021 1:45:00 PM 19.14 66.452 0.931 8.05 11.34 8.81
6/9/2021 2:00:00 PM 19.21 66.578 0.937 8.05 12.04 8.86
6/9/2021 2:15:00 PM 19.27 66.686 0.944 8.06 11.77 8.84
6/9/2021 2:30:00 PM 19.37 66.866 0.954 8.07 11.48 8.87
6/9/2021 2:45:00 PM 19.47 67.046 0.964 8.07 11.41 8.82
6/9/2021 3:00:00 PM 19.56 67.208 0.969 8.07 11.92 8.77
6/9/2021 3:15:00 PM 19.64 67.352 0.973 8.07 11.82 8.74
6/9/2021 3:30:00 PM 19.7 67.46 0.977 8.07 11.52 8.69
6/9/2021 3:45:00 PM 19.76 67.568 0.979 8.07 11.57 8.71
6/9/2021 4:00:00 PM 19.79 67.622 0.98 8.07 11.91 8.6
6/9/2021 4:15:00 PM 19.81 67.658 0.979 8.07 11.5 8.55
6/9/2021 4:30:00 PM 19.81 67.658 0.978 8.07 11.8 8.48
6/9/2021 4:45:00 PM 19.79 67.622 0.977 8.06 11.58 8.39
6/9/2021 5:00:00 PM 19.79 67.622 0.977 8.06 11.47 8.37
6/9/2021 5:15:00 PM 19.8 67.64 0.975 8.06 11.58 8.4
6/9/2021 5:30:00 PM 19.82 67.676 0.971 8.06 11.49 8.43
6/9/2021 5:45:00 PM 19.85 67.73 0.965 8.07 11.81 8.41
6/9/2021 6:00:00 PM 19.87 67.766 0.957 8.07 11.67 8.33
6/9/2021 6:15:00 PM 19.83 67.694 0.95 8.06 11.61 8.24
6/9/2021 6:30:00 PM 19.74 67.532 0.945 8.04 12.02 8.07
6/9/2021 6:45:00 PM 19.65 67.37 0.942 8.03 11.52 7.94
6/9/2021 7:00:00 PM 19.56 67.208 0.94 8.02 11.63 7.84
6/9/2021 7:15:00 PM 19.49 67.082 0.939 8.01 11.8 7.74
6/9/2021 7:30:00 PM 19.45 67.01 0.94 8 11.93 7.67
6/9/2021 7:45:00 PM 19.43 66.974 0.942 7.99 11.92 7.61
6/9/2021 8:00:00 PM 19.41 66.938 0.944 7.99 11.99 7.57
6/9/2021 8:15:00 PM 19.38 66.884 0.944 7.98 13 7.5
6/9/2021 8:30:00 PM 19.33 66.794 0.944 7.97 12.46 7.46
6/9/2021 8:45:00 PM 19.29 66.722 0.945 7.97 12.6 7.41
6/9/2021 9:00:00 PM 19.24 66.632 0.946 7.96 12.9 7.32
6/9/2021 9:15:00 PM 19.19 66.542 0.949 7.95 13.51 7.26
6/9/2021 9:30:00 PM 19.13 66.434 0.951 7.95 13.49 7.21
6/9/2021 9:45:00 PM 19.06 66.308 0.955 7.94 13.9 7.15
6/9/2021 10:00:00 PM 18.99 66.182 0.958 7.93 14.5 7.1
6/9/2021 10:15:00 PM 18.91 66.038 0.961 7.92 14.49 7.07
6/9/2021 10:30:00 PM 18.84 65.912 0.965 7.92 14.92 7.01
6/9/2021 10:45:00 PM 18.76 65.768 0.968 7.91 14.72 7
6/9/2021 11:00:00 PM 18.7 65.66 0.972 7.91 15 6.99
6/9/2021 11:15:00 PM 18.64 65.552 0.977 7.91 15.35 6.95
6/9/2021 11:30:00 PM 18.58 65.444 0.98 7.9 16.07 6.91
6/9/2021 11:45:00 PM 18.52 65.336 0.983 7.9 15.84 6.9
6/10/2021 12:00:00 AM 18.45 65.21 0.986 7.9 16.11 6.89
6/10/2021 12:15:00 AM 18.39 65.102 0.989 7.89 16.15 6.87
6/10/2021 12:30:00 AM 18.33 64.994 0.993 7.89 16.8 6.86
6/10/2021 12:45:00 AM 18.27 64.886 0.998 7.89 16.64 6.85
6/10/2021 1:00:00 AM 18.22 64.796 1 7.88 16.56 6.84
6/10/2021 1:15:00 AM 18.16 64.688 1.002 7.88 16.71 6.83
6/10/2021 1:30:00 AM 18.11 64.598 1.002 7.88 16.54 6.83
6/10/2021 1:45:00 AM 18.06 64.508 1.001 7.88 16.94 6.84
6/10/2021 2:00:00 AM 18.01 64.418 0.999 7.88 16.92 6.84
6/10/2021 2:15:00 AM 17.96 64.328 0.996 7.88 16.94 6.84
6/10/2021 2:30:00 AM 17.91 64.238 0.994 7.88 17.28 6.85
6/10/2021 2:45:00 AM 17.86 64.148 0.991 7.88 17.27 6.87
6/10/2021 3:00:00 AM 17.81 64.058 0.99 7.88 17.47 6.87
6/10/2021 3:15:00 AM 17.76 63.968 0.988 7.88 17.84 6.88
6/10/2021 3:30:00 AM 17.71 63.878 0.987 7.88 17.69 6.89
6/10/2021 3:45:00 AM 17.67 63.806 0.983 7.88 17.45 6.87
6/10/2021 4:00:00 AM 17.62 63.716 0.98 7.88 17.96 6.88
6/10/2021 4:15:00 AM 17.57 63.626 0.974 7.88 18.05 6.9
6/10/2021 4:30:00 AM 17.52 63.536 0.969 7.88 18.34 6.93
6/10/2021 4:45:00 AM 17.48 63.464 0.962 7.88 18.51 6.93
6/10/2021 5:00:00 AM 17.42 63.356 0.955 7.88 18.25 6.95
6/10/2021 5:15:00 AM 17.37 63.266 0.946 7.88 18.86 6.98
6/10/2021 5:30:00 AM 17.31 63.158 0.937 7.88 18.53 6.97
6/10/2021 5:45:00 AM 17.25 63.05 0.929 7.88 18 7.02
6/10/2021 6:00:00 AM 17.19 62.942 0.92 7.89 17.77 7.07
6/10/2021 6:15:00 AM 17.13 62.834 0.912 7.89 18.03 7.09
6/10/2021 6:30:00 AM 17.08 62.744 0.905 7.89 17.68 7.12
6/10/2021 6:45:00 AM 17.03 62.654 0.898 7.89 17.75 7.19
6/10/2021 7:00:00 AM 16.99 62.582 0.893 7.89 17.74 7.25
6/10/2021 7:15:00 AM 16.95 62.51 0.888 7.9 18.12 7.3
6/10/2021 7:30:00 AM 16.93 62.474 0.885 7.9 17.77 7.35
6/10/2021 7:45:00 AM 16.91 62.438 0.882 7.9 17.96 7.41
6/10/2021 8:00:00 AM 16.91 62.438 0.88 7.91 17.76 7.48
6/10/2021 8:15:00 AM 16.93 62.474 0.879 7.92 17.86 7.62
6/10/2021 8:30:00 AM 16.96 62.528 0.879 7.94 17.7 7.72
6/10/2021 8:45:00 AM 17.02 62.636 0.88 7.95 17.8 7.87
6/10/2021 9:00:00 AM 17.04 62.672 0.882 7.96 17.61 7.9
6/10/2021 9:15:00 AM 17.09 62.762 0.883 7.96 17.76 7.96
6/10/2021 9:30:00 AM 17.16 62.888 0.885 7.98 17.58 8.11
6/10/2021 9:45:00 AM 17.23 63.014 0.886 7.99 17.72 8.22
6/10/2021 10:00:00 AM 17.35 63.23 0.888 8 17.87 8.34
6/10/2021 10:15:00 AM 17.45 63.41 0.888 8.01 17.69 8.44
6/10/2021 10:30:00 AM 17.55 63.59 0.888 8.03 17.87 8.55
6/10/2021 10:45:00 AM 17.64 63.752 0.887 8.04 17.82 8.69
6/10/2021 11:00:00 AM 17.78 64.004 0.886 8.06 17.78 8.85
6/10/2021 11:15:00 AM 17.88 64.184 0.887 8.07 17.89 8.85
6/10/2021 11:30:00 AM 17.99 64.382 0.89 8.07 17.77 8.77
6/10/2021 11:45:00 AM 18.07 64.526 0.897 8.07 18.03 8.77
6/10/2021 12:00:00 PM 18.07 64.526 0.906 8.06 18.09 8.53
6/10/2021 12:15:00 PM 18.16 64.688 0.902 8.06 18.93 8.4
6/10/2021 12:30:00 PM 18.35 65.03 0.887 8.05 21.05 8.17
6/10/2021 12:45:00 PM 18.68 65.624 0.875 8.04 19.65 8.01
6/10/2021 1:00:00 PM 18.52 65.336 0.913 8.04 19.53 8.13
6/10/2021 1:15:00 PM 18.63 65.534 0.932 8.06 19.53 8.48
6/10/2021 1:30:00 PM 18.85 65.93 0.944 8.09 19.37 8.76
6/10/2021 1:45:00 PM 19.17 66.506 0.949 8.11 19.56 8.92
6/10/2021 2:00:00 PM 19.5 67.1 0.949 8.13 19.99 8.99
6/10/2021 2:15:00 PM 19.76 67.568 0.955 8.14 20.47 8.98
6/10/2021 2:30:00 PM 19.93 67.874 0.96 8.13 20.93 8.94
6/10/2021 2:45:00 PM 20.02 68.036 0.963 8.12 21.3 8.83
6/10/2021 3:00:00 PM 20.09 68.162 0.962 8.1 21.97 8.63
6/10/2021 3:15:00 PM 20.14 68.252 0.964 8.08 22.16 8.5
6/10/2021 3:30:00 PM 20.18 68.324 0.966 8.07 21.58 8.45
6/10/2021 3:45:00 PM 20.2 68.36 0.963 8.07 22.23 8.39
6/10/2021 4:00:00 PM 20.25 68.45 0.952 8.06 22.27 8.37
6/10/2021 4:15:00 PM 20.32 68.576 0.934 8.06 22.27 8.33
6/10/2021 4:30:00 PM 20.41 68.738 0.916 8.06 22.09 8.31
6/10/2021 4:45:00 PM 20.47 68.846 0.897 8.06 22.41 8.28
6/10/2021 5:00:00 PM 20.48 68.864 0.88 8.06 21.77 8.25
6/10/2021 5:15:00 PM 20.45 68.81 0.865 8.06 21.64 8.24
6/10/2021 5:30:00 PM 20.38 68.684 0.852 8.06 21.3 8.15
6/10/2021 5:45:00 PM 20.29 68.522 0.84 8.05 21.46 8.08
6/10/2021 6:00:00 PM 20.24 68.432 0.83 8.04 20.95 7.99
6/10/2021 6:15:00 PM 20.24 68.432 0.819 8.03 21.08 7.86
6/10/2021 6:30:00 PM 20.31 68.558 0.807 8.01 21.25 7.7
6/10/2021 6:45:00 PM 20.42 68.756 0.795 7.99 21.5 7.5
6/10/2021 7:00:00 PM 20.56 69.008 0.786 7.96 21.45 7.28
6/10/2021 7:15:00 PM 20.68 69.224 0.782 7.94 21.36 7.1
6/10/2021 7:30:00 PM 20.76 69.368 0.784 7.92 21.53 6.96
6/10/2021 7:45:00 PM 20.79 69.422 0.792 7.91 21.64 6.89
6/10/2021 8:00:00 PM 20.77 69.386 0.806 7.9 21.5 6.81
6/10/2021 8:15:00 PM 20.71 69.278 0.822 7.89 21.57 6.77
6/10/2021 8:30:00 PM 20.61 69.098 0.838 7.89 21.06 6.73
6/10/2021 8:45:00 PM 20.47 68.846 0.853 7.89 21.17 6.72
6/10/2021 9:00:00 PM 20.32 68.576 0.866 7.88 21.33 6.68
6/10/2021 9:15:00 PM 20.16 68.288 0.878 7.88 21.15 6.65
6/10/2021 9:30:00 PM 20.01 68.018 0.89 7.88 21.08 6.63
6/10/2021 9:45:00 PM 19.85 67.73 0.901 7.88 21.58 6.63
6/10/2021 10:00:00 PM 19.71 67.478 0.91 7.88 21.55 6.56
6/10/2021 10:15:00 PM 19.57 67.226 0.918 7.88 21.99 6.57
6/10/2021 10:30:00 PM 19.44 66.992 0.924 7.88 21.78 6.62
6/10/2021 10:45:00 PM 19.3 66.74 0.94 7.88 21.97 6.61
6/10/2021 11:00:00 PM 19.17 66.506 0.946 7.88 22.74 6.62
6/10/2021 11:15:00 PM 19.04 66.272 0.954 7.88 22.76 6.63
6/10/2021 11:30:00 PM 18.92 66.056 0.961 7.88 23.11 6.65
6/10/2021 11:45:00 PM 18.81 65.858 0.967 7.89 23.08 6.65
6/11/2021 12:00:00 AM 18.7 65.66 0.97 7.89 23.23 6.68
6/11/2021 12:15:00 AM 18.59 65.462 0.977 7.89 23.56 6.68
6/11/2021 12:30:00 AM 18.49 65.282 0.983 7.89 23.71 6.67
6/11/2021 12:45:00 AM 18.4 65.12 0.985 7.89 23.43 6.68
6/11/2021 1:00:00 AM 18.3 64.94 0.987 7.89 24.19 6.7
6/11/2021 1:15:00 AM 18.21 64.778 0.987 7.9 24.78 6.7
6/11/2021 1:30:00 AM 18.12 64.616 0.987 7.9 24.08 6.72
6/11/2021 1:45:00 AM 18.04 64.472 0.988 7.9 24.37 6.74
6/11/2021 2:00:00 AM 17.95 64.31 0.99 7.9 25.21 6.76
6/11/2021 2:15:00 AM 17.87 64.166 0.991 7.9 26.09 6.75
6/11/2021 2:30:00 AM 17.79 64.022 0.989 7.9 25.27 6.75
6/11/2021 2:45:00 AM 17.72 63.896 0.987 7.91 25.52 6.76
6/11/2021 3:00:00 AM 17.65 63.77 0.987 7.91 25.85 6.78
6/11/2021 3:15:00 AM 17.59 63.662 0.986 7.91 25.88 6.79
6/11/2021 3:30:00 AM 17.54 63.572 0.985 7.91 26.45 6.81
6/11/2021 3:45:00 AM 17.48 63.464 0.984 7.91 26.96 6.85
6/11/2021 4:00:00 AM 17.42 63.356 0.981 7.91 26.93 6.88
6/11/2021 4:15:00 AM 17.36 63.248 0.979 7.92 27.29 6.91
6/11/2021 4:30:00 AM 17.31 63.158 0.976 7.92 27.34 6.91
6/11/2021 4:45:00 AM 17.26 63.068 0.972 7.92 27.65 6.9
6/11/2021 5:00:00 AM 17.21 62.978 0.966 7.92 27.72 6.94
6/11/2021 5:15:00 AM 17.15 62.87 0.959 7.92 27.87 6.97
6/11/2021 5:30:00 AM 17.09 62.762 0.95 7.93 28.12 7
6/11/2021 5:45:00 AM 17.02 62.636 0.941 7.93 27.81 7.02
6/11/2021 6:00:00 AM 16.96 62.528 0.932 7.93 27.79 7.05
6/11/2021 6:15:00 AM 16.9 62.42 0.925 7.94 27.82 7.08
6/11/2021 6:30:00 AM 16.84 62.312 0.917 7.94 27.62 7.1
6/11/2021 6:45:00 AM 16.78 62.204 0.911 7.94 28.42 7.13
6/11/2021 7:00:00 AM 16.73 62.114 0.904 7.94 29.39 7.16
6/11/2021 7:15:00 AM 16.68 62.024 0.903 7.95 29.38 7.19
6/11/2021 7:30:00 AM 16.64 61.952 0.901 7.95 29.1 7.22
6/11/2021 7:45:00 AM 16.6 61.88 0.898 7.95 29.05 7.24
6/11/2021 8:00:00 AM 16.56 61.808 0.894 7.96 28.98 7.27
6/11/2021 8:15:00 AM 16.52 61.736 0.891 7.96 29.28 7.29
6/11/2021 8:30:00 AM 16.49 61.682 0.89 7.96 29.53 7.34
6/11/2021 8:45:00 AM 16.46 61.628 0.89 7.96 29.67 7.37
6/11/2021 9:00:00 AM 16.44 61.592 0.89 7.96 29.08 7.42
6/11/2021 9:15:00 AM 16.43 61.574 0.89 7.97 30.34 7.44
6/11/2021 9:30:00 AM 16.41 61.538 0.889 7.97 30.08 7.52
6/11/2021 9:45:00 AM 16.4 61.52 0.888 7.98 30.97 7.58
6/11/2021 10:00:00 AM 16.39 61.502 0.887 7.98 30.59 7.63
6/11/2021 10:15:00 AM 16.49 61.682 0.003 8.41 160.24 9.27
6/11/2021 10:30:00 AM 16.37 61.466 0.894 8 28.5 7.85
6/11/2021 10:45:00 AM 16.37 61.466 0.894 8 28.61 7.85
6/11/2021 11:00:00 AM 16.36 61.448 0.893 8 29.73 7.9
6/11/2021 11:15:00 AM 16.35 61.43 0.892 8.01 27.9 7.91
6/11/2021 11:30:00 AM 16.35 61.43 0.893 8.01 25.56 7.98
6/11/2021 11:45:00 AM 16.36 61.448 0.896 8.02 24.97 8.04
6/11/2021 12:00:00 PM 16.38 61.484 0.903 8.02 25.72 8.05
6/11/2021 12:15:00 PM 16.4 61.52 0.911 8.02 25.67 8.07
6/11/2021 12:30:00 PM 16.44 61.592 0.92 8.02 26.24 8.1
6/11/2021 12:45:00 PM 16.48 61.664 0.929 8.02 26.68 8.11
6/11/2021 1:00:00 PM 16.51 61.718 0.938 8.02 26.52 8.11
6/11/2021 1:15:00 PM 16.56 61.808 0.945 8.02 26.95 8.09
6/11/2021 1:30:00 PM 16.6 61.88 0.95 8.02 27.25 8.11
6/11/2021 1:45:00 PM 16.63 61.934 0.951 8.02 27.56 8.08
6/11/2021 2:00:00 PM 16.7 62.06 0.944 8.02 29.72 8.04
6/11/2021 2:15:00 PM 16.77 62.186 0.935 8.02 29.13 8.03
6/11/2021 2:30:00 PM 16.83 62.294 0.926 8.02 27.29 8.03
6/11/2021 2:45:00 PM 16.87 62.366 0.919 8.03 27.9 8.07
6/11/2021 3:00:00 PM 16.92 62.456 0.907 8.02 28.91 8.03
6/11/2021 3:15:00 PM 16.93 62.474 0.903 8.02 28.86 8.04
6/11/2021 3:30:00 PM 16.92 62.456 0.898 8.01 29.66 8
6/11/2021 3:45:00 PM 16.91 62.438 0.891 8 31.35 7.98
6/11/2021 4:00:00 PM 16.92 62.456 0.895 8 34.84 7.99
6/11/2021 4:15:00 PM 16.93 62.474 0.894 7.98 41.45 7.89
6/11/2021 4:30:00 PM 16.9 62.42 0.878 7.96 67.18 7.83
6/11/2021 4:45:00 PM 16.87 62.366 0.882 7.94 44.88 7.8
6/11/2021 5:00:00 PM 16.86 62.348 0.883 7.92 45.47 7.72
6/11/2021 5:15:00 PM 16.87 62.366 0.852 7.9 43.53 7.65
6/11/2021 5:30:00 PM 16.86 62.348 0.798 7.89 43.35 7.6
6/11/2021 5:45:00 PM 16.87 62.366 0.739 7.87 41.93 7.54
6/11/2021 6:00:00 PM 16.95 62.51 0.685 7.85 41.71 7.46
6/11/2021 6:15:00 PM 17.1 62.78 0.637 7.83 40.24 7.41
6/11/2021 6:30:00 PM 17.28 63.104 0.599 7.81 40.58 7.28
6/11/2021 6:45:00 PM 17.45 63.41 0.575 7.79 43.93 7.21
6/11/2021 7:00:00 PM 17.59 63.662 0.563 7.78 40.54 7.13
6/11/2021 7:15:00 PM 17.7 63.86 0.558 7.77 40.56 7.07
6/11/2021 7:30:00 PM 17.77 63.986 0.558 7.76 40.63 7.03
6/11/2021 7:45:00 PM 17.82 64.076 0.562 7.76 40.12 6.99
6/11/2021 8:00:00 PM 17.84 64.112 0.573 7.76 40.86 6.95
6/11/2021 8:15:00 PM 17.85 64.13 0.59 7.75 40.97 6.95
6/11/2021 8:30:00 PM 17.83 64.094 0.609 7.76 40.82 6.92
6/11/2021 8:45:00 PM 17.8 64.04 0.63 7.76 41.25 6.92
6/11/2021 9:00:00 PM 17.76 63.968 0.65 7.76 40.62 6.91
6/11/2021 9:15:00 PM 17.7 63.86 0.668 7.77 41.43 6.91
6/11/2021 9:30:00 PM 17.63 63.734 0.684 7.77 41.76 6.93
6/11/2021 9:45:00 PM 17.56 63.608 0.7 7.78 43.02 6.94
6/11/2021 10:00:00 PM 17.49 63.482 0.72 7.78 43.03 6.94
6/11/2021 10:15:00 PM 17.42 63.356 0.739 7.79 42.88 6.95
6/11/2021 10:30:00 PM 17.35 63.23 0.757 7.79 42.8 6.93
6/11/2021 10:45:00 PM 17.27 63.086 0.771 7.8 42.01 6.96
6/11/2021 11:00:00 PM 17.18 62.924 0.783 7.8 40.92 6.97
6/11/2021 11:15:00 PM 17.09 62.762 0.795 7.81 41.12 7
6/11/2021 11:30:00 PM 17.01 62.618 0.809 7.82 40.83 7.03
6/11/2021 11:45:00 PM 16.93 62.474 0.823 7.82 40.95 7.06
6/12/2021 12:00:00 AM 16.84 62.312 0.836 7.83 42.71 7.1
6/12/2021 12:15:00 AM 16.77 62.186 0.849 7.84 41.73 7.11
6/12/2021 12:30:00 AM 16.7 62.06 0.861 7.85 42.61 7.14
6/12/2021 12:45:00 AM 16.63 61.934 0.871 7.85 43.04 7.16
6/12/2021 1:00:00 AM 16.56 61.808 0.879 7.86 42.98 7.17
6/12/2021 1:15:00 AM 16.5 61.7 0.886 7.86 43.71 7.19
6/12/2021 1:30:00 AM 16.44 61.592 0.891 7.87 43.41 7.2
6/12/2021 1:45:00 AM 16.39 61.502 0.896 7.87 43.84 7.24
6/12/2021 2:00:00 AM 16.34 61.412 0.9 7.88 43.92 7.26
6/12/2021 2:15:00 AM 16.29 61.322 0.902 7.88 44.53 7.27
6/12/2021 2:30:00 AM 16.25 61.25 0.903 7.89 44.48 7.28
6/12/2021 2:45:00 AM 16.21 61.178 0.902 7.89 45.58 7.29
6/12/2021 3:00:00 AM 16.17 61.106 0.901 7.89 45.1 7.32
6/12/2021 3:15:00 AM 16.13 61.034 0.9 7.9 45.1 7.36
6/12/2021 3:30:00 AM 16.09 60.962 0.899 7.9 46.31 7.35
6/12/2021 3:45:00 AM 16.06 60.908 0.898 7.9 45.83 7.37
6/12/2021 4:00:00 AM 16.02 60.836 0.897 7.91 46.81 7.38
6/12/2021 4:15:00 AM 15.99 60.782 0.895 7.91 47.74 7.4
6/12/2021 4:30:00 AM 15.95 60.71 0.892 7.91 47.39 7.41
6/12/2021 4:45:00 AM 15.92 60.656 0.889 7.92 48.08 7.43
6/12/2021 5:00:00 AM 15.88 60.584 0.885 7.92 49.05 7.44
6/12/2021 5:15:00 AM 15.84 60.512 0.88 7.92 48.37 7.47
6/12/2021 5:30:00 AM 15.8 60.44 0.877 7.93 48.37 7.49
6/12/2021 5:45:00 AM 15.77 60.386 0.873 7.93 42.85 7.51
6/12/2021 6:00:00 AM 15.73 60.314 0.869 7.93 42.85 7.53
6/12/2021 6:15:00 AM 15.7 60.26 0.865 7.93 43.51 7.55
6/12/2021 6:30:00 AM 15.67 60.206 0.862 7.94 43.54 7.58
6/12/2021 6:45:00 AM 15.65 60.17 0.859 7.94 43.53 7.63
6/12/2021 7:00:00 AM 15.63 60.134 0.856 7.95 44.43 7.69
6/12/2021 7:15:00 AM 15.62 60.116 0.853 7.95 44.78 7.78
6/12/2021 7:30:00 AM 15.61 60.098 0.851 7.96 44.29 7.86
6/12/2021 7:45:00 AM 15.61 60.098 0.851 7.97 44.21 7.92
6/12/2021 8:00:00 AM 15.61 60.098 0.852 7.97 44.47 7.97
6/12/2021 8:15:00 AM 15.61 60.098 0.855 7.98 44.54 8.01
6/12/2021 8:30:00 AM 15.63 60.134 0.858 7.98 44.67 8.07
6/12/2021 8:45:00 AM 15.66 60.188 0.862 7.99 44.76 8.15
6/12/2021 9:00:00 AM 15.71 60.278 0.866 8 45.61 8.22
6/12/2021 9:15:00 AM 15.77 60.386 0.869 8.01 45.23 8.32
6/12/2021 9:30:00 AM 15.86 60.548 0.872 8.02 45.67 8.4
6/12/2021 9:45:00 AM 15.94 60.692 0.874 8.03 45.76 8.49
6/12/2021 10:00:00 AM 16.03 60.854